Peotone Weather
Station Historical Data
Daily Summary for March 10, 2012 Units:  Both    English   Metric
« Previous Day
Next Day »
Daily Weekly Monthly Yearly Custom
  High: Low: Average:
Temperature: 58.7 °F /  14.8 °C 23.6 °F /  -4.7 °C 40.8 °F /  4.9 °C
Dew Point: 32.4 °F /  0.2 °C 18.3 °F /  -7.6 °C 25.5 °F /  -3.6 °C
Humidity: 81% 32% 58%
Wind Speed: 24.0mph /  38.6km/h - 8.2mph /  13.2km/h
Wind Gust: 28.0mph /  45.1km/h - -
Wind- - South
Pressure: 30.55 in /  1034.4 hPa 30.27 in /  1024.9 hPa -
Precipitation: 0.00 in /  0 mm    
Historical Graphs
 
 
Tabular Data for March 10, 2012
Time Temperature Dew Point Pressure Wind Wind Speed Wind Gust Humidity Rainfall Rate (Hourly) solar Conditions
00:00 25.6 °F /  -3.6 °C 20.0 °F /  -6.7 °C 30.54in /  1034.1hPa Calm   5.0mph /  8km/h 79% 0.00in /  0mm 0.00 W/m2
00:01 25.6 °F /  -3.6 °C 19.7 °F /  -6.8 °C 30.54in /  1034.1hPa ENE 3.0mph /  4.8km/h 3.0mph /  4.8km/h 78% 0.00in /  0mm 0.00 W/m2
00:03 25.6 °F /  -3.6 °C 19.7 °F /  -6.8 °C 30.54in /  1034.1hPa ENE 2.0mph /  3.2km/h 4.0mph /  6.4km/h 78% 0.00in /  0mm 0.00 W/m2
00:04 25.6 °F /  -3.6 °C 19.7 °F /  -6.8 °C 30.54in /  1034.1hPa ENE 2.0mph /  3.2km/h 4.0mph /  6.4km/h 78% 0.00in /  0mm 0.00 W/m2
00:05 25.6 °F /  -3.6 °C 19.7 °F /  -6.8 °C 30.54in /  1034.1hPa ENE 2.0mph /  3.2km/h 4.0mph /  6.4km/h 78% 0.00in /  0mm 0.00 W/m2
00:06 25.6 °F /  -3.6 °C 19.7 °F /  -6.8 °C 30.54in /  1034.1hPa Calm   4.0mph /  6.4km/h 78% 0.00in /  0mm 0.00 W/m2
00:08 25.7 °F /  -3.5 °C 19.8 °F /  -6.8 °C 30.54in /  1034.1hPa Calm   4.0mph /  6.4km/h 78% 0.00in /  0mm 0.00 W/m2
00:09 25.7 °F /  -3.5 °C 19.8 °F /  -6.8 °C 30.54in /  1034.1hPa ENE 2.0mph /  3.2km/h 4.0mph /  6.4km/h 78% 0.00in /  0mm 0.00 W/m2
00:10 25.7 °F /  -3.5 °C 19.8 °F /  -6.8 °C 30.54in /  1034.1hPa ENE 2.0mph /  3.2km/h 4.0mph /  6.4km/h 78% 0.00in /  0mm 0.00 W/m2
00:11 25.7 °F /  -3.5 °C 19.8 °F /  -6.8 °C 30.55in /  1034.4hPa ENE 3.0mph /  4.8km/h 4.0mph /  6.4km/h 78% 0.00in /  0mm 0.00 W/m2
00:14 25.6 °F /  -3.6 °C 19.7 °F /  -6.8 °C 30.55in /  1034.4hPa Calm   4.0mph /  6.4km/h 78% 0.00in /  0mm 0.00 W/m2
00:15 25.6 °F /  -3.6 °C 19.7 °F /  -6.8 °C 30.55in /  1034.4hPa Calm   4.0mph /  6.4km/h 78% 0.00in /  0mm 0.00 W/m2
00:16 25.6 °F /  -3.6 °C 19.7 °F /  -6.8 °C 30.55in /  1034.4hPa ENE 1.0mph /  1.6km/h 4.0mph /  6.4km/h 78% 0.00in /  0mm 0.00 W/m2
00:19 25.5 °F /  -3.6 °C 19.6 °F /  -6.9 °C 30.55in /  1034.4hPa ENE 3.0mph /  4.8km/h 4.0mph /  6.4km/h 78% 0.00in /  0mm 0.00 W/m2
00:20 25.4 °F /  -3.7 °C 19.5 °F /  -6.9 °C 30.55in /  1034.4hPa Calm     78% 0.00in /  0mm 0.00 W/m2
00:21 25.4 °F /  -3.7 °C 19.5 °F /  -6.9 °C 30.55in /  1034.4hPa Calm   2.0mph /  3.2km/h 78% 0.00in /  0mm 0.00 W/m2
00:24 25.3 °F /  -3.7 °C 19.7 °F /  -6.8 °C 30.55in /  1034.4hPa Calm   4.0mph /  6.4km/h 79% 0.00in /  0mm 0.00 W/m2
00:25 25.2 °F /  -3.8 °C 19.6 °F /  -6.9 °C 30.55in /  1034.4hPa ENE 2.0mph /  3.2km/h 4.0mph /  6.4km/h 79% 0.00in /  0mm 0.00 W/m2
00:26 25.2 °F /  -3.8 °C 19.6 °F /  -6.9 °C 30.55in /  1034.4hPa ENE 3.0mph /  4.8km/h 4.0mph /  6.4km/h 79% 0.00in /  0mm 0.00 W/m2
00:27 25.2 °F /  -3.8 °C 19.6 °F /  -6.9 °C 30.55in /  1034.4hPa ENE 1.0mph /  1.6km/h 4.0mph /  6.4km/h 79% 0.00in /  0mm 0.00 W/m2
00:30 25.1 °F /  -3.8 °C 19.5 °F /  -6.9 °C 30.54in /  1034.1hPa ENE 1.0mph /  1.6km/h 4.0mph /  6.4km/h 79% 0.00in /  0mm 0.00 W/m2
00:31 25.1 °F /  -3.8 °C 19.5 °F /  -6.9 °C 30.54in /  1034.1hPa Calm   1.0mph /  1.6km/h 79% 0.00in /  0mm 0.00 W/m2
00:32 25.0 °F /  -3.9 °C 19.4 °F /  -7 °C 30.55in /  1034.4hPa Calm   1.0mph /  1.6km/h 79% 0.00in /  0mm 0.00 W/m2
00:34 25.0 °F /  -3.9 °C 19.4 °F /  -7 °C 30.54in /  1034.1hPa ENE 1.0mph /  1.6km/h 2.0mph /  3.2km/h 79% 0.00in /  0mm 0.00 W/m2
00:35 24.9 °F /  -3.9 °C 19.3 °F /  -7.1 °C 30.54in /  1034.1hPa ENE 1.0mph /  1.6km/h 2.0mph /  3.2km/h 79% 0.00in /  0mm 0.00 W/m2
00:36 24.9 °F /  -3.9 °C 19.3 °F /  -7.1 °C 30.55in /  1034.4hPa Calm   2.0mph /  3.2km/h 79% 0.00in /  0mm 0.00 W/m2
00:37 24.8 °F /  -4 °C 19.2 °F /  -7.1 °C 30.55in /  1034.4hPa Calm   2.0mph /  3.2km/h 79% 0.00in /  0mm 0.00 W/m2
00:40 24.7 °F /  -4.1 °C 19.1 °F /  -7.2 °C 30.55in /  1034.4hPa ENE 1.0mph /  1.6km/h 3.0mph /  4.8km/h 79% 0.00in /  0mm 0.00 W/m2
00:41 24.7 °F /  -4.1 °C 19.4 °F /  -7 °C 30.55in /  1034.4hPa Calm     80% 0.00in /  0mm 0.00 W/m2
00:42 24.7 °F /  -4.1 °C 19.4 °F /  -7 °C 30.55in /  1034.4hPa Calm     80% 0.00in /  0mm 0.00 W/m2
00:45 24.6 °F /  -4.1 °C 19.3 °F /  -7.1 °C 30.55in /  1034.4hPa Calm   1.0mph /  1.6km/h 80% 0.00in /  0mm 0.00 W/m2
00:47 24.6 °F /  -4.1 °C 19.3 °F /  -7.1 °C 30.55in /  1034.4hPa ENE 1.0mph /  1.6km/h 1.0mph /  1.6km/h 80% 0.00in /  0mm 0.00 W/m2
00:48 24.6 °F /  -4.1 °C 19.3 °F /  -7.1 °C 30.55in /  1034.4hPa ENE 2.0mph /  3.2km/h 2.0mph /  3.2km/h 80% 0.00in /  0mm 0.00 W/m2
00:50 24.6 °F /  -4.1 °C 19.3 °F /  -7.1 °C 30.55in /  1034.4hPa Calm   2.0mph /  3.2km/h 80% 0.00in /  0mm 0.00 W/m2
00:51 24.6 °F /  -4.1 °C 19.3 °F /  -7.1 °C 30.55in /  1034.4hPa Calm   2.0mph /  3.2km/h 80% 0.00in /  0mm 0.00 W/m2
00:52 24.6 °F /  -4.1 °C 19.3 °F /  -7.1 °C 30.55in /  1034.4hPa Calm   2.0mph /  3.2km/h 80% 0.00in /  0mm 0.00 W/m2
00:53 24.6 °F /  -4.1 °C 19.3 °F /  -7.1 °C 30.55in /  1034.4hPa Calm   2.0mph /  3.2km/h 80% 0.00in /  0mm 0.00 W/m2
00:56 24.6 °F /  -4.1 °C 19.3 °F /  -7.1 °C 30.55in /  1034.4hPa ENE 2.0mph /  3.2km/h 3.0mph /  4.8km/h 80% 0.00in /  0mm 0.00 W/m2
00:57 24.6 °F /  -4.1 °C 19.3 °F /  -7.1 °C 30.55in /  1034.4hPa ENE 1.0mph /  1.6km/h 3.0mph /  4.8km/h 80% 0.00in /  0mm 0.00 W/m2
00:58 24.6 °F /  -4.1 °C 19.3 °F /  -7.1 °C 30.55in /  1034.4hPa Calm   3.0mph /  4.8km/h 80% 0.00in /  0mm 0.00 W/m2
01:01 24.6 °F /  -4.1 °C 19.3 °F /  -7.1 °C 30.55in /  1034.4hPa Calm   3.0mph /  4.8km/h 80% 0.00in /  0mm 0.00 W/m2
01:02 24.5 °F /  -4.2 °C 19.2 °F /  -7.1 °C 30.55in /  1034.4hPa ENE 1.0mph /  1.6km/h 3.0mph /  4.8km/h 80% 0.00in /  0mm 0.00 W/m2
01:03 24.5 °F /  -4.2 °C 19.2 °F /  -7.1 °C 30.55in /  1034.4hPa Calm   3.0mph /  4.8km/h 80% 0.00in /  0mm 0.00 W/m2
01:04 24.5 °F /  -4.2 °C 19.2 °F /  -7.1 °C 30.55in /  1034.4hPa ENE 3.0mph /  4.8km/h 3.0mph /  4.8km/h 80% 0.00in /  0mm 0.00 W/m2
01:07 24.5 °F /  -4.2 °C 19.5 °F /  -6.9 °C 30.55in /  1034.4hPa ENE 2.0mph /  3.2km/h 3.0mph /  4.8km/h 81% 0.00in /  0mm 0.00 W/m2
01:08 24.5 °F /  -4.2 °C 19.5 °F /  -6.9 °C 30.55in /  1034.4hPa ENE 3.0mph /  4.8km/h 4.0mph /  6.4km/h 81% 0.00in /  0mm 0.00 W/m2
01:09 24.5 °F /  -4.2 °C 19.5 °F /  -6.9 °C 30.55in /  1034.4hPa ENE 2.0mph /  3.2km/h 4.0mph /  6.4km/h 81% 0.00in /  0mm 0.00 W/m2
01:12 24.4 °F /  -4.2 °C 19.1 °F /  -7.2 °C 30.55in /  1034.4hPa ENE 3.0mph /  4.8km/h 3.0mph /  4.8km/h 80% 0.00in /  0mm 0.00 W/m2
01:13 24.4 °F /  -4.2 °C 19.1 °F /  -7.2 °C 30.55in /  1034.4hPa ENE 1.0mph /  1.6km/h 4.0mph /  6.4km/h 80% 0.00in /  0mm 0.00 W/m2
01:15 24.4 °F /  -4.2 °C 19.1 °F /  -7.2 °C 30.55in /  1034.4hPa ENE 4.0mph /  6.4km/h 4.0mph /  6.4km/h 80% 0.00in /  0mm 0.00 W/m2
01:17 24.3 °F /  -4.3 °C 19.0 °F /  -7.2 °C 30.55in /  1034.4hPa ENE 1.0mph /  1.6km/h 4.0mph /  6.4km/h 80% 0.00in /  0mm 0.00 W/m2
01:18 24.2 °F /  -4.3 °C 18.9 °F /  -7.3 °C 30.55in /  1034.4hPa Calm   4.0mph /  6.4km/h 80% 0.00in /  0mm 0.00 W/m2
01:20 24.2 °F /  -4.3 °C 18.9 °F /  -7.3 °C 30.55in /  1034.4hPa Calm     80% 0.00in /  0mm 0.00 W/m2
01:22 24.1 °F /  -4.4 °C 18.8 °F /  -7.3 °C 30.55in /  1034.4hPa ENE 1.0mph /  1.6km/h 4.0mph /  6.4km/h 80% 0.00in /  0mm 0.00 W/m2
01:24 24.0 °F /  -4.4 °C 18.7 °F /  -7.4 °C 30.55in /  1034.4hPa ENE 1.0mph /  1.6km/h 4.0mph /  6.4km/h 80% 0.00in /  0mm 0.00 W/m2
01:25 24.0 °F /  -4.4 °C 18.7 °F /  -7.4 °C 30.55in /  1034.4hPa ENE 4.0mph /  6.4km/h 4.0mph /  6.4km/h 80% 0.00in /  0mm 0.00 W/m2
01:27 23.9 °F /  -4.5 °C 18.6 °F /  -7.4 °C 30.55in /  1034.4hPa ENE 2.0mph /  3.2km/h 4.0mph /  6.4km/h 80% 0.00in /  0mm 0.00 W/m2
01:28 23.9 °F /  -4.5 °C 18.6 °F /  -7.4 °C 30.55in /  1034.4hPa ENE 2.0mph /  3.2km/h 4.0mph /  6.4km/h 80% 0.00in /  0mm 0.00 W/m2
01:29 23.8 °F /  -4.6 °C 18.5 °F /  -7.5 °C 30.55in /  1034.4hPa ENE 2.0mph /  3.2km/h 4.0mph /  6.4km/h 80% 0.00in /  0mm 0.00 W/m2
01:32 23.7 °F /  -4.6 °C 18.7 °F /  -7.4 °C 30.54in /  1034.1hPa ENE 1.0mph /  1.6km/h 3.0mph /  4.8km/h 81% 0.00in /  0mm 0.00 W/m2
01:33 23.7 °F /  -4.6 °C 18.7 °F /  -7.4 °C 30.54in /  1034.1hPa Calm   3.0mph /  4.8km/h 81% 0.00in /  0mm 0.00 W/m2
01:34 23.7 °F /  -4.6 °C 18.7 °F /  -7.4 °C 30.54in /  1034.1hPa ENE 2.0mph /  3.2km/h 3.0mph /  4.8km/h 81% 0.00in /  0mm 0.00 W/m2
01:38 23.6 °F /  -4.7 °C 18.6 °F /  -7.4 °C 30.54in /  1034.1hPa ENE 4.0mph /  6.4km/h 5.0mph /  8km/h 81% 0.00in /  0mm 0.00 W/m2
01:39 23.6 °F /  -4.7 °C 18.6 °F /  -7.4 °C 30.54in /  1034.1hPa Calm   5.0mph /  8km/h 81% 0.00in /  0mm 0.00 W/m2
01:43 23.6 °F /  -4.7 °C 18.6 °F /  -7.4 °C 30.54in /  1034.1hPa ENE 1.0mph /  1.6km/h 4.0mph /  6.4km/h 81% 0.00in /  0mm 0.00 W/m2
01:44 23.6 °F /  -4.7 °C 18.6 °F /  -7.4 °C 30.54in /  1034.1hPa ENE 1.0mph /  1.6km/h 4.0mph /  6.4km/h 81% 0.00in /  0mm 0.00 W/m2
01:48 23.7 °F /  -4.6 °C 18.7 °F /  -7.4 °C 30.54in /  1034.1hPa Calm   4.0mph /  6.4km/h 81% 0.00in /  0mm 0.00 W/m2
01:49 23.7 °F /  -4.6 °C 18.7 °F /  -7.4 °C 30.54in /  1034.1hPa ENE 1.0mph /  1.6km/h 4.0mph /  6.4km/h 81% 0.00in /  0mm 0.00 W/m2
01:50 23.7 °F /  -4.6 °C 18.7 °F /  -7.4 °C 30.54in /  1034.1hPa ENE 2.0mph /  3.2km/h 2.0mph /  3.2km/h 81% 0.00in /  0mm 0.00 W/m2
01:53 23.8 °F /  -4.6 °C 18.8 °F /  -7.3 °C 30.54in /  1034.1hPa ENE 1.0mph /  1.6km/h 3.0mph /  4.8km/h 81% 0.00in /  0mm 0.00 W/m2
01:54 23.8 °F /  -4.6 °C 18.8 °F /  -7.3 °C 30.54in /  1034.1hPa ENE 2.0mph /  3.2km/h 3.0mph /  4.8km/h 81% 0.00in /  0mm 0.00 W/m2
01:55 23.8 °F /  -4.6 °C 18.8 °F /  -7.3 °C 30.53in /  1033.7hPa ENE 2.0mph /  3.2km/h 4.0mph /  6.4km/h 81% 0.00in /  0mm 0.00 W/m2
01:58 23.9 °F /  -4.5 °C 18.9 °F /  -7.3 °C 30.53in /  1033.7hPa ENE 2.0mph /  3.2km/h 4.0mph /  6.4km/h 81% 0.00in /  0mm 0.00 W/m2
01:59 23.9 °F /  -4.5 °C 18.9 °F /  -7.3 °C 30.53in /  1033.7hPa ENE 3.0mph /  4.8km/h 4.0mph /  6.4km/h 81% 0.00in /  0mm 0.00 W/m2
02:00 24.0 °F /  -4.4 °C 19.0 °F /  -7.2 °C 30.53in /  1033.7hPa ENE 1.0mph /  1.6km/h 2.0mph /  3.2km/h 81% 0.00in /  0mm 0.00 W/m2
02:03 24.0 °F /  -4.4 °C 19.0 °F /  -7.2 °C 30.53in /  1033.7hPa ENE 3.0mph /  4.8km/h 4.0mph /  6.4km/h 81% 0.00in /  0mm 0.00 W/m2
02:04 24.0 °F /  -4.4 °C 18.7 °F /  -7.4 °C 30.53in /  1033.7hPa Calm   4.0mph /  6.4km/h 80% 0.00in /  0mm 0.00 W/m2
02:05 24.0 °F /  -4.4 °C 18.7 °F /  -7.4 °C 30.53in /  1033.7hPa ENE 2.0mph /  3.2km/h 4.0mph /  6.4km/h 80% 0.00in /  0mm 0.00 W/m2
02:09 24.0 °F /  -4.4 °C 18.7 °F /  -7.4 °C 30.53in /  1033.7hPa ENE 1.0mph /  1.6km/h 4.0mph /  6.4km/h 80% 0.00in /  0mm 0.00 W/m2
02:10 24.0 °F /  -4.4 °C 18.7 °F /  -7.4 °C 30.53in /  1033.7hPa ENE 3.0mph /  4.8km/h 4.0mph /  6.4km/h 80% 0.00in /  0mm 0.00 W/m2
02:14 23.9 °F /  -4.5 °C 18.6 °F /  -7.4 °C 30.52in /  1033.4hPa Calm   5.0mph /  8km/h 80% 0.00in /  0mm 0.00 W/m2
02:15 23.8 °F /  -4.6 °C 18.5 °F /  -7.5 °C 30.52in /  1033.4hPa Calm   5.0mph /  8km/h 80% 0.00in /  0mm 0.00 W/m2
02:16 23.8 °F /  -4.6 °C 18.5 °F /  -7.5 °C 30.52in /  1033.4hPa Calm   5.0mph /  8km/h 80% 0.00in /  0mm 0.00 W/m2
02:19 23.8 °F /  -4.6 °C 18.5 °F /  -7.5 °C 30.52in /  1033.4hPa ENE 2.0mph /  3.2km/h 5.0mph /  8km/h 80% 0.00in /  0mm 0.00 W/m2
02:20 23.8 °F /  -4.6 °C 18.5 °F /  -7.5 °C 30.52in /  1033.4hPa ENE 1.0mph /  1.6km/h 1.0mph /  1.6km/h 80% 0.00in /  0mm 0.00 W/m2
02:21 23.8 °F /  -4.6 °C 18.5 °F /  -7.5 °C 30.52in /  1033.4hPa ENE 2.0mph /  3.2km/h 5.0mph /  8km/h 80% 0.00in /  0mm 0.00 W/m2
02:23 23.8 °F /  -4.6 °C 18.5 °F /  -7.5 °C 30.52in /  1033.4hPa Calm   5.0mph /  8km/h 80% 0.00in /  0mm 0.00 W/m2
02:24 23.9 °F /  -4.5 °C 18.6 °F /  -7.4 °C 30.52in /  1033.4hPa ENE 3.0mph /  4.8km/h 5.0mph /  8km/h 80% 0.00in /  0mm 0.00 W/m2
02:25 23.9 °F /  -4.5 °C 18.6 °F /  -7.4 °C 30.52in /  1033.4hPa ENE 3.0mph /  4.8km/h 5.0mph /  8km/h 80% 0.00in /  0mm 0.00 W/m2
02:26 23.9 °F /  -4.5 °C 18.6 °F /  -7.4 °C 30.52in /  1033.4hPa Calm   5.0mph /  8km/h 80% 0.00in /  0mm 0.00 W/m2
02:28 24.0 °F /  -4.4 °C 18.7 °F /  -7.4 °C 30.52in /  1033.4hPa ENE 2.0mph /  3.2km/h 5.0mph /  8km/h 80% 0.00in /  0mm 0.00 W/m2
02:29 24.1 °F /  -4.4 °C 18.8 °F /  -7.3 °C 30.52in /  1033.4hPa ENE 4.0mph /  6.4km/h 5.0mph /  8km/h 80% 0.00in /  0mm 0.00 W/m2
02:30 24.1 °F /  -4.4 °C 18.8 °F /  -7.3 °C 30.52in /  1033.4hPa ENE 3.0mph /  4.8km/h 5.0mph /  8km/h 80% 0.00in /  0mm 0.00 W/m2
02:31 24.1 °F /  -4.4 °C 18.8 °F /  -7.3 °C 30.52in /  1033.4hPa ENE 1.0mph /  1.6km/h 5.0mph /  8km/h 80% 0.00in /  0mm 0.00 W/m2
02:33 24.1 °F /  -4.4 °C 18.5 °F /  -7.5 °C 30.52in /  1033.4hPa Calm   5.0mph /  8km/h 79% 0.00in /  0mm 0.00 W/m2
02:34 24.1 °F /  -4.4 °C 18.5 °F /  -7.5 °C 30.52in /  1033.4hPa Calm   5.0mph /  8km/h 79% 0.00in /  0mm 0.00 W/m2
02:36 24.1 °F /  -4.4 °C 18.5 °F /  -7.5 °C 30.52in /  1033.4hPa ENE 2.0mph /  3.2km/h 5.0mph /  8km/h 79% 0.00in /  0mm 0.00 W/m2
02:38 24.1 °F /  -4.4 °C 18.5 °F /  -7.5 °C 30.52in /  1033.4hPa ENE 1.0mph /  1.6km/h 5.0mph /  8km/h 79% 0.00in /  0mm 0.00 W/m2
02:39 24.1 °F /  -4.4 °C 18.5 °F /  -7.5 °C 30.52in /  1033.4hPa ENE 3.0mph /  4.8km/h 5.0mph /  8km/h 79% 0.00in /  0mm 0.00 W/m2
02:41 24.1 °F /  -4.4 °C 18.5 °F /  -7.5 °C 30.52in /  1033.4hPa ENE 3.0mph /  4.8km/h 5.0mph /  8km/h 79% 0.00in /  0mm 0.00 W/m2
02:43 24.1 °F /  -4.4 °C 18.5 °F /  -7.5 °C 30.52in /  1033.4hPa ENE 4.0mph /  6.4km/h 5.0mph /  8km/h 79% 0.00in /  0mm 0.00 W/m2
02:44 24.1 °F /  -4.4 °C 18.5 °F /  -7.5 °C 30.52in /  1033.4hPa ENE 4.0mph /  6.4km/h 5.0mph /  8km/h 79% 0.00in /  0mm 0.00 W/m2
02:46 24.1 °F /  -4.4 °C 18.5 °F /  -7.5 °C 30.52in /  1033.4hPa ENE 4.0mph /  6.4km/h 5.0mph /  8km/h 79% 0.00in /  0mm 0.00 W/m2
02:47 24.1 °F /  -4.4 °C 18.5 °F /  -7.5 °C 30.52in /  1033.4hPa ENE 4.0mph /  6.4km/h 5.0mph /  8km/h 79% 0.00in /  0mm 0.00 W/m2
02:49 24.1 °F /  -4.4 °C 18.5 °F /  -7.5 °C 30.52in /  1033.4hPa East 2.0mph /  3.2km/h 7.0mph /  11.3km/h 79% 0.00in /  0mm 0.00 W/m2
02:50 24.1 °F /  -4.4 °C 18.5 °F /  -7.5 °C 30.52in /  1033.4hPa East 1.0mph /  1.6km/h 7.0mph /  11.3km/h 79% 0.00in /  0mm 0.00 W/m2
02:51 24.1 °F /  -4.4 °C 18.5 °F /  -7.5 °C 30.52in /  1033.4hPa East 4.0mph /  6.4km/h 4.0mph /  6.4km/h 79% 0.00in /  0mm 0.00 W/m2
02:52 24.1 °F /  -4.4 °C 18.5 °F /  -7.5 °C 30.52in /  1033.4hPa East 2.0mph /  3.2km/h 4.0mph /  6.4km/h 79% 0.00in /  0mm 0.00 W/m2
02:54 24.1 °F /  -4.4 °C 18.5 °F /  -7.5 °C 30.52in /  1033.4hPa East 3.0mph /  4.8km/h 5.0mph /  8km/h 79% 0.00in /  0mm 0.00 W/m2
02:55 24.0 °F /  -4.4 °C 18.5 °F /  -7.5 °C 30.52in /  1033.4hPa East 1.0mph /  1.6km/h 5.0mph /  8km/h 79% 0.00in /  0mm 0.00 W/m2
02:56 24.0 °F /  -4.4 °C 18.5 °F /  -7.5 °C 30.51in /  1033.1hPa East 3.0mph /  4.8km/h 5.0mph /  8km/h 79% 0.00in /  0mm 0.00 W/m2
02:57 24.0 °F /  -4.4 °C 18.5 °F /  -7.5 °C 30.51in /  1033.1hPa East 3.0mph /  4.8km/h 5.0mph /  8km/h 79% 0.00in /  0mm 0.00 W/m2
02:59 24.0 °F /  -4.4 °C 18.5 °F /  -7.5 °C 30.51in /  1033.1hPa East 1.0mph /  1.6km/h 7.0mph /  11.3km/h 79% 0.00in /  0mm 0.00 W/m2
03:00 24.0 °F /  -4.4 °C 18.5 °F /  -7.5 °C 30.51in /  1033.1hPa East 4.0mph /  6.4km/h 4.0mph /  6.4km/h 79% 0.00in /  0mm 0.00 W/m2
03:02 24.0 °F /  -4.4 °C 18.5 °F /  -7.5 °C 30.51in /  1033.1hPa East 4.0mph /  6.4km/h 6.0mph /  9.7km/h 79% 0.00in /  0mm 0.00 W/m2
03:04 23.9 °F /  -4.5 °C 18.4 °F /  -7.6 °C 30.51in /  1033.1hPa East 4.0mph /  6.4km/h 6.0mph /  9.7km/h 79% 0.00in /  0mm 0.00 W/m2
03:05 23.9 °F /  -4.5 °C 18.4 °F /  -7.6 °C 30.51in /  1033.1hPa East 4.0mph /  6.4km/h 6.0mph /  9.7km/h 79% 0.00in /  0mm 0.00 W/m2
03:07 23.9 °F /  -4.5 °C 18.4 °F /  -7.6 °C 30.51in /  1033.1hPa ESE 4.0mph /  6.4km/h 8.0mph /  12.9km/h 79% 0.00in /  0mm 0.00 W/m2
03:08 23.9 °F /  -4.5 °C 18.6 °F /  -7.4 °C 30.51in /  1033.1hPa ESE 4.0mph /  6.4km/h 8.0mph /  12.9km/h 80% 0.00in /  0mm 0.00 W/m2
03:09 23.9 °F /  -4.5 °C 18.6 °F /  -7.4 °C 30.51in /  1033.1hPa ESE 6.0mph /  9.7km/h 8.0mph /  12.9km/h 80% 0.00in /  0mm 0.00 W/m2
03:10 23.9 °F /  -4.5 °C 18.6 °F /  -7.4 °C 30.51in /  1033.1hPa ESE 2.0mph /  3.2km/h 4.0mph /  6.4km/h 80% 0.00in /  0mm 0.00 W/m2
03:12 23.9 °F /  -4.5 °C 18.6 °F /  -7.4 °C 30.51in /  1033.1hPa ESE 5.0mph /  8km/h 6.0mph /  9.7km/h 80% 0.00in /  0mm 0.00 W/m2
03:14 24.0 °F /  -4.4 °C 18.7 °F /  -7.4 °C 30.51in /  1033.1hPa ESE 3.0mph /  4.8km/h 6.0mph /  9.7km/h 80% 0.00in /  0mm 0.00 W/m2
03:15 24.0 °F /  -4.4 °C 18.7 °F /  -7.4 °C 30.51in /  1033.1hPa ESE 4.0mph /  6.4km/h 6.0mph /  9.7km/h 80% 0.00in /  0mm 0.00 W/m2
03:17 24.0 °F /  -4.4 °C 18.7 °F /  -7.4 °C 30.51in /  1033.1hPa ESE 3.0mph /  4.8km/h 6.0mph /  9.7km/h 80% 0.00in /  0mm 0.00 W/m2
03:19 24.1 °F /  -4.4 °C 18.8 °F /  -7.3 °C 30.51in /  1033.1hPa SE 7.0mph /  11.3km/h 7.0mph /  11.3km/h 80% 0.00in /  0mm 0.00 W/m2
03:20 24.1 °F /  -4.4 °C 18.8 °F /  -7.3 °C 30.51in /  1033.1hPa SE 5.0mph /  8km/h 6.0mph /  9.7km/h 80% 0.00in /  0mm 0.00 W/m2
03:23 24.2 °F /  -4.3 °C 18.9 °F /  -7.3 °C 30.51in /  1033.1hPa SE 2.0mph /  3.2km/h 6.0mph /  9.7km/h 80% 0.00in /  0mm 0.00 W/m2
03:24 24.2 °F /  -4.3 °C 18.9 °F /  -7.3 °C 30.51in /  1033.1hPa SE 7.0mph /  11.3km/h 7.0mph /  11.3km/h 80% 0.00in /  0mm 0.00 W/m2
03:25 24.3 °F /  -4.3 °C 19.0 °F /  -7.2 °C 30.51in /  1033.1hPa SE 3.0mph /  4.8km/h 9.0mph /  14.5km/h 80% 0.00in /  0mm 0.00 W/m2
03:26 24.3 °F /  -4.3 °C 19.0 °F /  -7.2 °C 30.51in /  1033.1hPa SE 6.0mph /  9.7km/h 9.0mph /  14.5km/h 80% 0.00in /  0mm 0.00 W/m2
03:28 24.4 °F /  -4.2 °C 18.8 °F /  -7.3 °C 30.51in /  1033.1hPa SE 1.0mph /  1.6km/h 10.0mph /  16.1km/h 79% 0.00in /  0mm 0.00 W/m2
03:29 24.5 °F /  -4.2 °C 18.9 °F /  -7.3 °C 30.51in /  1033.1hPa SE 4.0mph /  6.4km/h 10.0mph /  16.1km/h 79% 0.00in /  0mm 0.00 W/m2
03:30 24.5 °F /  -4.2 °C 18.9 °F /  -7.3 °C 30.51in /  1033.1hPa SE 4.0mph /  6.4km/h 4.0mph /  6.4km/h 79% 0.00in /  0mm 0.00 W/m2
03:31 24.6 °F /  -4.1 °C 19.0 °F /  -7.2 °C 30.51in /  1033.1hPa SE 4.0mph /  6.4km/h 9.0mph /  14.5km/h 79% 0.00in /  0mm 0.00 W/m2
03:33 24.6 °F /  -4.1 °C 19.0 °F /  -7.2 °C 30.51in /  1033.1hPa SE 7.0mph /  11.3km/h 9.0mph /  14.5km/h 79% 0.00in /  0mm 0.00 W/m2
03:34 24.7 °F /  -4.1 °C 19.1 °F /  -7.2 °C 30.50in /  1032.7hPa SE 6.0mph /  9.7km/h 9.0mph /  14.5km/h 79% 0.00in /  0mm 0.00 W/m2
03:36 24.7 °F /  -4.1 °C 18.8 °F /  -7.3 °C 30.51in /  1033.1hPa SE 4.0mph /  6.4km/h 9.0mph /  14.5km/h 78% 0.00in /  0mm 0.00 W/m2
03:38 24.8 °F /  -4 °C 18.9 °F /  -7.3 °C 30.50in /  1032.7hPa SE 5.0mph /  8km/h 9.0mph /  14.5km/h 78% 0.00in /  0mm 0.00 W/m2
03:39 24.8 °F /  -4 °C 18.9 °F /  -7.3 °C 30.50in /  1032.7hPa SE 2.0mph /  3.2km/h 9.0mph /  14.5km/h 78% 0.00in /  0mm 0.00 W/m2
03:41 24.8 °F /  -4 °C 18.9 °F /  -7.3 °C 30.50in /  1032.7hPa SE 3.0mph /  4.8km/h 7.0mph /  11.3km/h 78% 0.00in /  0mm 0.00 W/m2
03:43 24.9 °F /  -3.9 °C 19.0 °F /  -7.2 °C 30.50in /  1032.7hPa SE 7.0mph /  11.3km/h 7.0mph /  11.3km/h 78% 0.00in /  0mm 0.00 W/m2
03:44 24.9 °F /  -3.9 °C 19.0 °F /  -7.2 °C 30.50in /  1032.7hPa SE 4.0mph /  6.4km/h 7.0mph /  11.3km/h 78% 0.00in /  0mm 0.00 W/m2
03:46 25.0 °F /  -3.9 °C 19.1 °F /  -7.2 °C 30.50in /  1032.7hPa SE 2.0mph /  3.2km/h 7.0mph /  11.3km/h 78% 0.00in /  0mm 0.00 W/m2
03:48 25.0 °F /  -3.9 °C 19.1 °F /  -7.2 °C 30.50in /  1032.7hPa SE 3.0mph /  4.8km/h 7.0mph /  11.3km/h 78% 0.00in /  0mm 0.00 W/m2
03:49 25.0 °F /  -3.9 °C 19.1 °F /  -7.2 °C 30.50in /  1032.7hPa SE 3.0mph /  4.8km/h 7.0mph /  11.3km/h 78% 0.00in /  0mm 0.00 W/m2
03:50 25.0 °F /  -3.9 °C 19.1 °F /  -7.2 °C 30.50in /  1032.7hPa SE 4.0mph /  6.4km/h 7.0mph /  11.3km/h 78% 0.00in /  0mm 0.00 W/m2
03:51 25.0 °F /  -3.9 °C 19.1 °F /  -7.2 °C 30.50in /  1032.7hPa SE 3.0mph /  4.8km/h 9.0mph /  14.5km/h 78% 0.00in /  0mm 0.00 W/m2
03:54 25.1 °F /  -3.8 °C 19.2 °F /  -7.1 °C 30.50in /  1032.7hPa SE 4.0mph /  6.4km/h 9.0mph /  14.5km/h 78% 0.00in /  0mm 0.00 W/m2
03:55 25.1 °F /  -3.8 °C 18.9 °F /  -7.3 °C 30.50in /  1032.7hPa SE 4.0mph /  6.4km/h 9.0mph /  14.5km/h 77% 0.00in /  0mm 0.00 W/m2
03:56 25.2 °F /  -3.8 °C 19.0 °F /  -7.2 °C 30.50in /  1032.7hPa SE 4.0mph /  6.4km/h 9.0mph /  14.5km/h 77% 0.00in /  0mm 0.00 W/m2
03:57 25.2 °F /  -3.8 °C 19.0 °F /  -7.2 °C 30.50in /  1032.7hPa SE 5.0mph /  8km/h 9.0mph /  14.5km/h 77% 0.00in /  0mm 0.00 W/m2
03:59 25.2 °F /  -3.8 °C 19.0 °F /  -7.2 °C 30.50in /  1032.7hPa SE 6.0mph /  9.7km/h 9.0mph /  14.5km/h 77% 0.00in /  0mm 0.00 W/m2
04:00 25.2 °F /  -3.8 °C 19.0 °F /  -7.2 °C 30.50in /  1032.7hPa SE 6.0mph /  9.7km/h 9.0mph /  14.5km/h 77% 0.00in /  0mm 0.00 W/m2
04:02 25.3 °F /  -3.7 °C 19.1 °F /  -7.2 °C 30.50in /  1032.7hPa SE 4.0mph /  6.4km/h 10.0mph /  16.1km/h 77% 0.00in /  0mm 0.00 W/m2
04:04 25.3 °F /  -3.7 °C 19.1 °F /  -7.2 °C 30.50in /  1032.7hPa ESE 5.0mph /  8km/h 10.0mph /  16.1km/h 77% 0.00in /  0mm 0.00 W/m2
04:05 25.3 °F /  -3.7 °C 18.8 °F /  -7.3 °C 30.50in /  1032.7hPa ESE 7.0mph /  11.3km/h 10.0mph /  16.1km/h 76% 0.00in /  0mm 0.00 W/m2
04:07 25.3 °F /  -3.7 °C 18.8 °F /  -7.3 °C 30.50in /  1032.7hPa ESE 4.0mph /  6.4km/h 10.0mph /  16.1km/h 76% 0.00in /  0mm 0.00 W/m2
04:09 25.4 °F /  -3.7 °C 18.9 °F /  -7.3 °C 30.50in /  1032.7hPa SE 3.0mph /  4.8km/h 10.0mph /  16.1km/h 76% 0.00in /  0mm 0.00 W/m2
04:10 25.4 °F /  -3.7 °C 18.9 °F /  -7.3 °C 30.50in /  1032.7hPa SE 5.0mph /  8km/h 5.0mph /  8km/h 76% 0.00in /  0mm 0.00 W/m2
04:12 25.4 °F /  -3.7 °C 18.9 °F /  -7.3 °C 30.50in /  1032.7hPa SE 4.0mph /  6.4km/h 6.0mph /  9.7km/h 76% 0.00in /  0mm 0.00 W/m2
04:13 25.4 °F /  -3.7 °C 18.9 °F /  -7.3 °C 30.50in /  1032.7hPa SE 3.0mph /  4.8km/h 10.0mph /  16.1km/h 76% 0.00in /  0mm 0.00 W/m2
04:15 25.3 °F /  -3.7 °C 18.8 °F /  -7.3 °C 30.50in /  1032.7hPa SE 2.0mph /  3.2km/h 10.0mph /  16.1km/h 76% 0.00in /  0mm 0.00 W/m2
04:17 25.3 °F /  -3.7 °C 18.8 °F /  -7.3 °C 30.49in /  1032.4hPa SE 4.0mph /  6.4km/h 10.0mph /  16.1km/h 76% 0.00in /  0mm 0.00 W/m2
04:18 25.3 °F /  -3.7 °C 18.8 °F /  -7.3 °C 30.49in /  1032.4hPa SE 7.0mph /  11.3km/h 10.0mph /  16.1km/h 76% 0.00in /  0mm 0.00 W/m2
04:20 25.3 °F /  -3.7 °C 18.8 °F /  -7.3 °C 30.49in /  1032.4hPa SE 5.0mph /  8km/h 7.0mph /  11.3km/h 76% 0.00in /  0mm 0.00 W/m2
04:22 25.2 °F /  -3.8 °C 18.7 °F /  -7.4 °C 30.49in /  1032.4hPa SE 5.0mph /  8km/h 9.0mph /  14.5km/h 76% 0.00in /  0mm 0.00 W/m2
04:23 25.2 °F /  -3.8 °C 18.7 °F /  -7.4 °C 30.49in /  1032.4hPa SE 11.0mph /  17.7km/h 11.0mph /  17.7km/h 76% 0.00in /  0mm 0.00 W/m2
04:24 25.2 °F /  -3.8 °C 18.7 °F /  -7.4 °C 30.49in /  1032.4hPa SE 4.0mph /  6.4km/h 11.0mph /  17.7km/h 76% 0.00in /  0mm 0.00 W/m2
04:26 25.1 °F /  -3.8 °C 18.6 °F /  -7.4 °C 30.49in /  1032.4hPa SE 6.0mph /  9.7km/h 11.0mph /  17.7km/h 76% 0.00in /  0mm 0.00 W/m2
04:27 25.1 °F /  -3.8 °C 18.9 °F /  -7.3 °C 30.49in /  1032.4hPa SE 3.0mph /  4.8km/h 11.0mph /  17.7km/h 77% 0.00in /  0mm 0.00 W/m2
04:28 25.1 °F /  -3.8 °C 18.9 °F /  -7.3 °C 30.49in /  1032.4hPa SE 3.0mph /  4.8km/h 11.0mph /  17.7km/h 77% 0.00in /  0mm 0.00 W/m2
04:29 25.0 °F /  -3.9 °C 18.8 °F /  -7.3 °C 30.49in /  1032.4hPa SE 7.0mph /  11.3km/h 11.0mph /  17.7km/h 77% 0.00in /  0mm 0.00 W/m2
04:31 25.0 °F /  -3.9 °C 18.8 °F /  -7.3 °C 30.49in /  1032.4hPa SE 7.0mph /  11.3km/h 7.0mph /  11.3km/h 77% 0.00in /  0mm 0.00 W/m2
04:33 25.0 °F /  -3.9 °C 18.8 °F /  -7.3 °C 30.49in /  1032.4hPa SE 6.0mph /  9.7km/h 11.0mph /  17.7km/h 77% 0.00in /  0mm 0.00 W/m2
04:35 25.0 °F /  -3.9 °C 18.8 °F /  -7.3 °C 30.49in /  1032.4hPa SE 4.0mph /  6.4km/h 11.0mph /  17.7km/h 77% 0.00in /  0mm 0.00 W/m2
04:36 25.0 °F /  -3.9 °C 18.8 °F /  -7.3 °C 30.49in /  1032.4hPa SE 7.0mph /  11.3km/h 11.0mph /  17.7km/h 77% 0.00in /  0mm 0.00 W/m2
04:39 25.0 °F /  -3.9 °C 18.8 °F /  -7.3 °C 30.49in /  1032.4hPa SE 4.0mph /  6.4km/h 11.0mph /  17.7km/h 77% 0.00in /  0mm 0.00 W/m2
04:40 25.0 °F /  -3.9 °C 18.8 °F /  -7.3 °C 30.49in /  1032.4hPa SE 10.0mph /  16.1km/h 10.0mph /  16.1km/h 77% 0.00in /  0mm 0.00 W/m2
04:41 24.9 °F /  -3.9 °C 18.7 °F /  -7.4 °C 30.49in /  1032.4hPa SE 3.0mph /  4.8km/h 10.0mph /  16.1km/h 77% 0.00in /  0mm 0.00 W/m2
04:44 24.9 °F /  -3.9 °C 18.7 °F /  -7.4 °C 30.50in /  1032.7hPa SE 4.0mph /  6.4km/h 10.0mph /  16.1km/h 77% 0.00in /  0mm 0.00 W/m2
04:46 24.9 °F /  -3.9 °C 18.7 °F /  -7.4 °C 30.50in /  1032.7hPa SE 3.0mph /  4.8km/h 10.0mph /  16.1km/h 77% 0.00in /  0mm 0.00 W/m2
04:49 25.0 °F /  -3.9 °C 18.8 °F /  -7.3 °C 30.49in /  1032.4hPa SE 8.0mph /  12.9km/h 10.0mph /  16.1km/h 77% 0.00in /  0mm 0.00 W/m2
04:51 25.0 °F /  -3.9 °C 18.8 °F /  -7.3 °C 30.49in /  1032.4hPa SE 9.0mph /  14.5km/h 9.0mph /  14.5km/h 77% 0.00in /  0mm 0.00 W/m2
04:52 25.0 °F /  -3.9 °C 18.8 °F /  -7.3 °C 30.49in /  1032.4hPa SE 2.0mph /  3.2km/h 9.0mph /  14.5km/h 77% 0.00in /  0mm 0.00 W/m2
04:55 24.9 °F /  -3.9 °C 18.7 °F /  -7.4 °C 30.49in /  1032.4hPa SE 2.0mph /  3.2km/h 10.0mph /  16.1km/h 77% 0.00in /  0mm 0.00 W/m2
04:56 24.9 °F /  -3.9 °C 18.7 °F /  -7.4 °C 30.49in /  1032.4hPa SE 3.0mph /  4.8km/h 10.0mph /  16.1km/h 77% 0.00in /  0mm 0.00 W/m2
04:57 24.9 °F /  -3.9 °C 18.7 °F /  -7.4 °C 30.49in /  1032.4hPa SE 5.0mph /  8km/h 10.0mph /  16.1km/h 77% 0.00in /  0mm 0.00 W/m2
05:00 24.9 °F /  -3.9 °C 18.7 °F /  -7.4 °C 30.49in /  1032.4hPa SE 4.0mph /  6.4km/h 5.0mph /  8km/h 77% 0.00in /  0mm 0.00 W/m2
05:01 24.9 °F /  -3.9 °C 18.7 °F /  -7.4 °C 30.49in /  1032.4hPa SE 2.0mph /  3.2km/h 5.0mph /  8km/h 77% 0.00in /  0mm 0.00 W/m2
05:02 24.9 °F /  -3.9 °C 18.7 °F /  -7.4 °C 30.49in /  1032.4hPa SE 4.0mph /  6.4km/h 5.0mph /  8km/h 77% 0.00in /  0mm 0.00 W/m2
05:05 24.9 °F /  -3.9 °C 18.7 °F /  -7.4 °C 30.49in /  1032.4hPa SE 5.0mph /  8km/h 7.0mph /  11.3km/h 77% 0.00in /  0mm 0.00 W/m2
05:06 24.8 °F /  -4 °C 18.6 °F /  -7.4 °C 30.49in /  1032.4hPa SE 3.0mph /  4.8km/h 7.0mph /  11.3km/h 77% 0.00in /  0mm 0.00 W/m2
05:07 24.9 °F /  -3.9 °C 18.7 °F /  -7.4 °C 30.49in /  1032.4hPa SE 9.0mph /  14.5km/h 9.0mph /  14.5km/h 77% 0.00in /  0mm 0.00 W/m2
05:10 24.8 °F /  -4 °C 18.6 °F /  -7.4 °C 30.49in /  1032.4hPa SE 3.0mph /  4.8km/h 3.0mph /  4.8km/h 77% 0.00in /  0mm 0.00 W/m2
05:11 24.8 °F /  -4 °C 18.6 °F /  -7.4 °C 30.49in /  1032.4hPa SE 9.0mph /  14.5km/h 9.0mph /  14.5km/h 77% 0.00in /  0mm 0.00 W/m2
05:12 24.8 °F /  -4 °C 18.6 °F /  -7.4 °C 30.49in /  1032.4hPa SSE 7.0mph /  11.3km/h 9.0mph /  14.5km/h 77% 0.00in /  0mm 0.00 W/m2
05:15 24.8 °F /  -4 °C 18.6 °F /  -7.4 °C 30.49in /  1032.4hPa SSE 5.0mph /  8km/h 10.0mph /  16.1km/h 77% 0.00in /  0mm 0.00 W/m2
05:16 24.8 °F /  -4 °C 18.6 °F /  -7.4 °C 30.49in /  1032.4hPa SE 8.0mph /  12.9km/h 10.0mph /  16.1km/h 77% 0.00in /  0mm 0.00 W/m2
05:17 24.9 °F /  -3.9 °C 18.7 °F /  -7.4 °C 30.49in /  1032.4hPa SE 9.0mph /  14.5km/h 10.0mph /  16.1km/h 77% 0.00in /  0mm 0.00 W/m2
05:18 24.9 °F /  -3.9 °C 18.7 °F /  -7.4 °C 30.49in /  1032.4hPa SSE 6.0mph /  9.7km/h 10.0mph /  16.1km/h 77% 0.00in /  0mm 0.00 W/m2
05:21 24.9 °F /  -3.9 °C 18.7 °F /  -7.4 °C 30.49in /  1032.4hPa SSE 5.0mph /  8km/h 9.0mph /  14.5km/h 77% 0.00in /  0mm 0.00 W/m2
05:22 24.9 °F /  -3.9 °C 18.7 °F /  -7.4 °C 30.48in /  1032.1hPa SE 2.0mph /  3.2km/h 10.0mph /  16.1km/h 77% 0.00in /  0mm 0.00 W/m2
05:23 24.9 °F /  -3.9 °C 18.7 °F /  -7.4 °C 30.48in /  1032.1hPa SE 4.0mph /  6.4km/h 10.0mph /  16.1km/h 77% 0.00in /  0mm 0.00 W/m2
05:26 25.0 °F /  -3.9 °C 18.8 °F /  -7.3 °C 30.48in /  1032.1hPa SE 12.0mph /  19.3km/h 12.0mph /  19.3km/h 77% 0.00in /  0mm 0.00 W/m2
05:28 25.0 °F /  -3.9 °C 18.5 °F /  -7.5 °C 30.48in /  1032.1hPa SSE 5.0mph /  8km/h 12.0mph /  19.3km/h 76% 0.00in /  0mm 0.00 W/m2
05:29 24.9 °F /  -3.9 °C 18.4 °F /  -7.6 °C 30.48in /  1032.1hPa SSE 3.0mph /  4.8km/h 12.0mph /  19.3km/h 76% 0.00in /  0mm 0.00 W/m2
05:31 24.9 °F /  -3.9 °C 18.4 °F /  -7.6 °C 30.48in /  1032.1hPa SSE 6.0mph /  9.7km/h 10.0mph /  16.1km/h 76% 0.00in /  0mm 0.00 W/m2
05:33 24.9 °F /  -3.9 °C 18.4 °F /  -7.6 °C 30.48in /  1032.1hPa SSE 5.0mph /  8km/h 12.0mph /  19.3km/h 76% 0.00in /  0mm 0.00 W/m2
05:37 25.0 °F /  -3.9 °C 18.8 °F /  -7.3 °C 30.48in /  1032.1hPa SSE 6.0mph /  9.7km/h 12.0mph /  19.3km/h 77% 0.00in /  0mm 0.00 W/m2
05:38 24.9 °F /  -3.9 °C 18.4 °F /  -7.6 °C 30.48in /  1032.1hPa SSE 10.0mph /  16.1km/h 12.0mph /  19.3km/h 76% 0.00in /  0mm 0.00 W/m2
05:39 24.9 °F /  -3.9 °C 18.7 °F /  -7.4 °C 30.48in /  1032.1hPa SSE 5.0mph /  8km/h 12.0mph /  19.3km/h 77% 0.00in /  0mm 0.00 W/m2
05:42 24.9 °F /  -3.9 °C 18.4 °F /  -7.6 °C 30.49in /  1032.4hPa SSE 6.0mph /  9.7km/h 10.0mph /  16.1km/h 76% 0.00in /  0mm 0.00 W/m2
05:43 24.9 °F /  -3.9 °C 18.7 °F /  -7.4 °C 30.48in /  1032.1hPa SSE 4.0mph /  6.4km/h 10.0mph /  16.1km/h 77% 0.00in /  0mm 0.00 W/m2
05:44 24.9 °F /  -3.9 °C 18.7 °F /  -7.4 °C 30.48in /  1032.1hPa SSE 6.0mph /  9.7km/h 10.0mph /  16.1km/h 77% 0.00in /  0mm 0.00 W/m2
05:45 24.8 °F /  -4 °C 18.6 °F /  -7.4 °C 30.48in /  1032.1hPa SSE 8.0mph /  12.9km/h 10.0mph /  16.1km/h 77% 0.00in /  0mm 0.00 W/m2
05:47 24.8 °F /  -4 °C 18.6 °F /  -7.4 °C 30.48in /  1032.1hPa SSE 7.0mph /  11.3km/h 10.0mph /  16.1km/h 77% 0.00in /  0mm 0.00 W/m2
05:48 24.7 °F /  -4.1 °C 18.5 °F /  -7.5 °C 30.48in /  1032.1hPa SSE 4.0mph /  6.4km/h 11.0mph /  17.7km/h 77% 0.00in /  0mm 0.00 W/m2
05:49 24.7 °F /  -4.1 °C 18.5 °F /  -7.5 °C 30.49in /  1032.4hPa SE 7.0mph /  11.3km/h 11.0mph /  17.7km/h 77% 0.00in /  0mm 0.00 W/m2
05:51 24.7 °F /  -4.1 °C 18.5 °F /  -7.5 °C 30.49in /  1032.4hPa SSE 1.0mph /  1.6km/h 10.0mph /  16.1km/h 77% 0.00in /  0mm 0.00 W/m2
05:52 24.7 °F /  -4.1 °C 18.5 °F /  -7.5 °C 30.48in /  1032.1hPa SSE 4.0mph /  6.4km/h 10.0mph /  16.1km/h 77% 0.00in /  0mm 0.00 W/m2
05:53 24.7 °F /  -4.1 °C 18.5 °F /  -7.5 °C 30.49in /  1032.4hPa SSE 5.0mph /  8km/h 10.0mph /  16.1km/h 77% 0.00in /  0mm 0.00 W/m2
05:54 24.7 °F /  -4.1 °C 18.5 °F /  -7.5 °C 30.48in /  1032.1hPa SSE 3.0mph /  4.8km/h 10.0mph /  16.1km/h 77% 0.00in /  0mm 0.00 W/m2
05:55 24.6 °F /  -4.1 °C 18.4 °F /  -7.6 °C 30.49in /  1032.4hPa SSE 6.0mph /  9.7km/h 10.0mph /  16.1km/h 77% 0.00in /  0mm 0.00 W/m2
05:56 24.7 °F /  -4.1 °C 18.5 °F /  -7.5 °C 30.49in /  1032.4hPa SSE 4.0mph /  6.4km/h 10.0mph /  16.1km/h 77% 0.00in /  0mm 0.00 W/m2
05:58 24.6 °F /  -4.1 °C 18.4 °F /  -7.6 °C 30.49in /  1032.4hPa SSE 4.0mph /  6.4km/h 10.0mph /  16.1km/h 77% 0.00in /  0mm 0.00 W/m2
05:59 24.6 °F /  -4.1 °C 18.4 °F /  -7.6 °C 30.49in /  1032.4hPa SSE 2.0mph /  3.2km/h 10.0mph /  16.1km/h 77% 0.00in /  0mm 0.00 W/m2
06:00 24.6 °F /  -4.1 °C 18.4 °F /  -7.6 °C 30.49in /  1032.4hPa SSE 4.0mph /  6.4km/h 10.0mph /  16.1km/h 77% 0.00in /  0mm 0.00 W/m2
06:01 24.6 °F /  -4.1 °C 18.4 °F /  -7.6 °C 30.48in /  1032.1hPa SSE 5.0mph /  8km/h 7.0mph /  11.3km/h 77% 0.00in /  0mm 0.00 W/m2
06:03 24.6 °F /  -4.1 °C 18.4 °F /  -7.6 °C 30.49in /  1032.4hPa SSE 4.0mph /  6.4km/h 8.0mph /  12.9km/h 77% 0.00in /  0mm 0.00 W/m2
06:04 24.6 °F /  -4.1 °C 18.4 °F /  -7.6 °C 30.48in /  1032.1hPa SSE 5.0mph /  8km/h 8.0mph /  12.9km/h 77% 0.00in /  0mm 0.00 W/m2
06:05 24.6 °F /  -4.1 °C 18.4 °F /  -7.6 °C 30.48in /  1032.1hPa SSE 4.0mph /  6.4km/h 8.0mph /  12.9km/h 77% 0.00in /  0mm 0.00 W/m2
06:07 24.5 °F /  -4.2 °C 18.3 °F /  -7.6 °C 30.48in /  1032.1hPa SSE 7.0mph /  11.3km/h 9.0mph /  14.5km/h 77% 0.00in /  0mm 0.00 W/m2
06:08 24.6 °F /  -4.1 °C 18.4 °F /  -7.6 °C 30.49in /  1032.4hPa SSE 7.0mph /  11.3km/h 9.0mph /  14.5km/h 77% 0.00in /  0mm 0.00 W/m2
06:09 24.6 °F /  -4.1 °C 18.4 °F /  -7.6 °C 30.49in /  1032.4hPa SSE 4.0mph /  6.4km/h 9.0mph /  14.5km/h 77% 0.00in /  0mm 0.00 W/m2
06:10 24.5 °F /  -4.2 °C 18.3 °F /  -7.6 °C 30.49in /  1032.4hPa SSE 1.0mph /  1.6km/h 3.0mph /  4.8km/h 77% 0.00in /  0mm 5.00 W/m2
06:11 24.5 °F /  -4.2 °C 18.3 °F /  -7.6 °C 30.49in /  1032.4hPa SSE 5.0mph /  8km/h 7.0mph /  11.3km/h 77% 0.00in /  0mm 5.00 W/m2
06:13 24.5 °F /  -4.2 °C 18.3 °F /  -7.6 °C 30.49in /  1032.4hPa SSE 4.0mph /  6.4km/h 9.0mph /  14.5km/h 77% 0.00in /  0mm 5.00 W/m2
06:14 24.5 °F /  -4.2 °C 18.3 °F /  -7.6 °C 30.49in /  1032.4hPa SSE 2.0mph /  3.2km/h 9.0mph /  14.5km/h 77% 0.00in /  0mm 7.00 W/m2
06:15 24.5 °F /  -4.2 °C 18.3 °F /  -7.6 °C 30.49in /  1032.4hPa SSE 7.0mph /  11.3km/h 9.0mph /  14.5km/h 77% 0.00in /  0mm 7.00 W/m2
06:16 24.5 °F /  -4.2 °C 18.3 °F /  -7.6 °C 30.49in /  1032.4hPa SSE 4.0mph /  6.4km/h 9.0mph /  14.5km/h 77% 0.00in /  0mm 7.00 W/m2
06:18 24.5 °F /  -4.2 °C 18.3 °F /  -7.6 °C 30.48in /  1032.1hPa SSE 3.0mph /  4.8km/h 9.0mph /  14.5km/h 77% 0.00in /  0mm 9.00 W/m2
06:19 24.5 °F /  -4.2 °C 18.3 °F /  -7.6 °C 30.48in /  1032.1hPa SSE 3.0mph /  4.8km/h 9.0mph /  14.5km/h 77% 0.00in /  0mm 11.00 W/m2
06:20 24.5 °F /  -4.2 °C 18.3 °F /  -7.6 °C 30.48in /  1032.1hPa SSE 4.0mph /  6.4km/h 8.0mph /  12.9km/h 77% 0.00in /  0mm 11.00 W/m2
06:21 24.5 °F /  -4.2 °C 18.3 °F /  -7.6 °C 30.48in /  1032.1hPa SSE 6.0mph /  9.7km/h 8.0mph /  12.9km/h 77% 0.00in /  0mm 12.00 W/m2
06:23 24.5 °F /  -4.2 °C 18.6 °F /  -7.4 °C 30.49in /  1032.4hPa SSE 4.0mph /  6.4km/h 8.0mph /  12.9km/h 78% 0.00in /  0mm 12.00 W/m2
06:24 24.4 °F /  -4.2 °C 18.5 °F /  -7.5 °C 30.49in /  1032.4hPa SSE 3.0mph /  4.8km/h 8.0mph /  12.9km/h 78% 0.00in /  0mm 12.00 W/m2
06:25 24.5 °F /  -4.2 °C 18.6 °F /  -7.4 °C 30.48in /  1032.1hPa SSE 6.0mph /  9.7km/h 8.0mph /  12.9km/h 78% 0.00in /  0mm 12.00 W/m2
06:26 24.5 °F /  -4.2 °C 18.6 °F /  -7.4 °C 30.49in /  1032.4hPa SSE 3.0mph /  4.8km/h 8.0mph /  12.9km/h 78% 0.00in /  0mm 14.00 W/m2
06:27 24.5 °F /  -4.2 °C 18.6 °F /  -7.4 °C 30.49in /  1032.4hPa SSE 6.0mph /  9.7km/h 8.0mph /  12.9km/h 78% 0.00in /  0mm 14.00 W/m2
06:29 24.5 °F /  -4.2 °C 18.6 °F /  -7.4 °C 30.48in /  1032.1hPa SSE 3.0mph /  4.8km/h 8.0mph /  12.9km/h 78% 0.00in /  0mm 14.00 W/m2
06:30 24.5 °F /  -4.2 °C 18.6 °F /  -7.4 °C 30.48in /  1032.1hPa SSE 2.0mph /  3.2km/h 6.0mph /  9.7km/h 78% 0.00in /  0mm 14.00 W/m2
06:31 24.5 °F /  -4.2 °C 18.6 °F /  -7.4 °C 30.48in /  1032.1hPa SSE 5.0mph /  8km/h 6.0mph /  9.7km/h 78% 0.00in /  0mm 16.00 W/m2
06:32 24.5 °F /  -4.2 °C 18.6 °F /  -7.4 °C 30.48in /  1032.1hPa SSE 3.0mph /  4.8km/h 6.0mph /  9.7km/h 78% 0.00in /  0mm 16.00 W/m2
06:34 24.5 °F /  -4.2 °C 18.6 °F /  -7.4 °C 30.48in /  1032.1hPa SSE 4.0mph /  6.4km/h 7.0mph /  11.3km/h 78% 0.00in /  0mm 18.00 W/m2
06:35 24.5 °F /  -4.2 °C 18.6 °F /  -7.4 °C 30.48in /  1032.1hPa SSE 5.0mph /  8km/h 7.0mph /  11.3km/h 78% 0.00in /  0mm 18.00 W/m2
06:37 24.6 °F /  -4.1 °C 18.7 °F /  -7.4 °C 30.48in /  1032.1hPa SSE 3.0mph /  4.8km/h 8.0mph /  12.9km/h 78% 0.00in /  0mm 19.00 W/m2
06:39 24.6 °F /  -4.1 °C 18.7 °F /  -7.4 °C 30.49in /  1032.4hPa SSE 3.0mph /  4.8km/h 8.0mph /  12.9km/h 78% 0.00in /  0mm 19.00 W/m2
06:40 24.6 °F /  -4.1 °C 18.7 °F /  -7.4 °C 30.49in /  1032.4hPa SSE 6.0mph /  9.7km/h 8.0mph /  12.9km/h 78% 0.00in /  0mm 19.00 W/m2
06:43 24.7 °F /  -4.1 °C 18.8 °F /  -7.3 °C 30.49in /  1032.4hPa SSE 4.0mph /  6.4km/h 10.0mph /  16.1km/h 78% 0.00in /  0mm 21.00 W/m2
06:44 24.7 °F /  -4.1 °C 18.8 °F /  -7.3 °C 30.49in /  1032.4hPa SSE 9.0mph /  14.5km/h 10.0mph /  16.1km/h 78% 0.00in /  0mm 21.00 W/m2
06:45 24.7 °F /  -4.1 °C 18.8 °F /  -7.3 °C 30.49in /  1032.4hPa SSE 3.0mph /  4.8km/h 10.0mph /  16.1km/h 78% 0.00in /  0mm 23.00 W/m2
06:46 24.7 °F /  -4.1 °C 18.8 °F /  -7.3 °C 30.49in /  1032.4hPa SSE 3.0mph /  4.8km/h 10.0mph /  16.1km/h 78% 0.00in /  0mm 25.00 W/m2
06:49 24.9 °F /  -3.9 °C 19.0 °F /  -7.2 °C 30.49in /  1032.4hPa SSE 3.0mph /  4.8km/h 10.0mph /  16.1km/h 78% 0.00in /  0mm 25.00 W/m2
06:50 24.9 °F /  -3.9 °C 19.0 °F /  -7.2 °C 30.49in /  1032.4hPa SSE 6.0mph /  9.7km/h 10.0mph /  16.1km/h 78% 0.00in /  0mm 26.00 W/m2
06:51 24.9 °F /  -3.9 °C 19.0 °F /  -7.2 °C 30.49in /  1032.4hPa SSE 6.0mph /  9.7km/h 7.0mph /  11.3km/h 78% 0.00in /  0mm 28.00 W/m2
06:54 25.0 °F /  -3.9 °C 19.1 °F /  -7.2 °C 30.49in /  1032.4hPa SSE 6.0mph /  9.7km/h 11.0mph /  17.7km/h 78% 0.00in /  0mm 30.00 W/m2
06:55 25.0 °F /  -3.9 °C 19.1 °F /  -7.2 °C 30.49in /  1032.4hPa SSE 2.0mph /  3.2km/h 11.0mph /  17.7km/h 78% 0.00in /  0mm 30.00 W/m2
06:56 25.1 °F /  -3.8 °C 19.2 °F /  -7.1 °C 30.49in /  1032.4hPa SSE 5.0mph /  8km/h 11.0mph /  17.7km/h 78% 0.00in /  0mm 33.00 W/m2
06:59 25.2 °F /  -3.8 °C 19.3 °F /  -7.1 °C 30.49in /  1032.4hPa SSE 10.0mph /  16.1km/h 11.0mph /  17.7km/h 78% 0.00in /  0mm 42.00 W/m2
07:00 25.2 °F /  -3.8 °C 19.3 °F /  -7.1 °C 30.49in /  1032.4hPa SSE 4.0mph /  6.4km/h 11.0mph /  17.7km/h 78% 0.00in /  0mm 46.00 W/m2
07:01 25.2 °F /  -3.8 °C 19.6 °F /  -6.9 °C 30.49in /  1032.4hPa SSE 4.0mph /  6.4km/h 7.0mph /  11.3km/h 79% 0.00in /  0mm 51.00 W/m2
07:02 25.3 °F /  -3.7 °C 19.4 °F /  -7 °C 30.49in /  1032.4hPa SSE 4.0mph /  6.4km/h 7.0mph /  11.3km/h 78% 0.00in /  0mm 54.00 W/m2
07:05 25.6 °F /  -3.6 °C 20.0 °F /  -6.7 °C 30.48in /  1032.1hPa SSE 5.0mph /  8km/h 12.0mph /  19.3km/h 79% 0.00in /  0mm 51.00 W/m2
07:06 25.6 °F /  -3.6 °C 20.0 °F /  -6.7 °C 30.48in /  1032.1hPa SSE 5.0mph /  8km/h 12.0mph /  19.3km/h 79% 0.00in /  0mm 60.00 W/m2
07:07 25.8 °F /  -3.4 °C 20.2 °F /  -6.6 °C 30.48in /  1032.1hPa SSE 10.0mph /  16.1km/h 12.0mph /  19.3km/h 79% 0.00in /  0mm 70.00 W/m2
07:10 26.3 °F /  -3.2 °C 20.7 °F /  -6.3 °C 30.49in /  1032.4hPa SSE 8.0mph /  12.9km/h 8.0mph /  12.9km/h 79% 0.00in /  0mm 91.00 W/m2
07:11 26.4 °F /  -3.1 °C 20.8 °F /  -6.2 °C 30.49in /  1032.4hPa SSE 8.0mph /  12.9km/h 11.0mph /  17.7km/h 79% 0.00in /  0mm 91.00 W/m2
07:12 26.6 °F /  -3 °C 20.7 °F /  -6.3 °C 30.49in /  1032.4hPa SSE 8.0mph /  12.9km/h 11.0mph /  17.7km/h 78% 0.00in /  0mm 125.00 W/m2
07:15 27.3 °F /  -2.6 °C 21.4 °F /  -5.9 °C 30.49in /  1032.4hPa SSE 10.0mph /  16.1km/h 13.0mph /  20.9km/h 78% 0.00in /  0mm 144.00 W/m2
07:16 27.4 °F /  -2.6 °C 21.1 °F /  -6.1 °C 30.49in /  1032.4hPa SSE 12.0mph /  19.3km/h 13.0mph /  20.9km/h 77% 0.00in /  0mm 144.00 W/m2
07:17 27.8 °F /  -2.3 °C 21.5 °F /  -5.8 °C 30.49in /  1032.4hPa SSE 10.0mph /  16.1km/h 13.0mph /  20.9km/h 77% 0.00in /  0mm 151.00 W/m2
07:20 28.3 °F /  -2.1 °C 21.7 °F /  -5.7 °C 30.49in /  1032.4hPa SSE 3.0mph /  4.8km/h 7.0mph /  11.3km/h 76% 0.00in /  0mm 155.00 W/m2
07:21 28.4 °F /  -2 °C 21.8 °F /  -5.7 °C 30.49in /  1032.4hPa SSE 5.0mph /  8km/h 7.0mph /  11.3km/h 76% 0.00in /  0mm 153.00 W/m2
07:22 28.5 °F /  -1.9 °C 21.9 °F /  -5.6 °C 30.49in /  1032.4hPa SSE 2.0mph /  3.2km/h 13.0mph /  20.9km/h 76% 0.00in /  0mm 158.00 W/m2
07:23 28.5 °F /  -1.9 °C 21.9 °F /  -5.6 °C 30.49in /  1032.4hPa SSE 2.0mph /  3.2km/h 13.0mph /  20.9km/h 76% 0.00in /  0mm 158.00 W/m2
07:25 28.8 °F /  -1.8 °C 21.9 °F /  -5.6 °C 30.49in /  1032.4hPa SSE 11.0mph /  17.7km/h 13.0mph /  20.9km/h 75% 0.00in /  0mm 181.00 W/m2
07:27 28.9 °F /  -1.7 °C 21.7 °F /  -5.7 °C 30.49in /  1032.4hPa SSE 3.0mph /  4.8km/h 13.0mph /  20.9km/h 74% 0.00in /  0mm 185.00 W/m2
07:28 29.0 °F /  -1.7 °C 21.8 °F /  -5.7 °C 30.49in /  1032.4hPa SSE 4.0mph /  6.4km/h 13.0mph /  20.9km/h 74% 0.00in /  0mm 186.00 W/m2
07:29 29.1 °F /  -1.6 °C 21.9 °F /  -5.6 °C 30.49in /  1032.4hPa SSE 14.0mph /  22.5km/h 14.0mph /  22.5km/h 74% 0.00in /  0mm 192.00 W/m2
07:30 29.2 °F /  -1.6 °C 22.0 °F /  -5.6 °C 30.49in /  1032.4hPa South 8.0mph /  12.9km/h 9.0mph /  14.5km/h 74% 0.00in /  0mm 197.00 W/m2
07:33 29.4 °F /  -1.4 °C 21.8 °F /  -5.7 °C 30.49in /  1032.4hPa SSE 13.0mph /  20.9km/h 13.0mph /  20.9km/h 73% 0.00in /  0mm 204.00 W/m2
07:34 29.4 °F /  -1.4 °C 21.5 °F /  -5.8 °C 30.49in /  1032.4hPa South 7.0mph /  11.3km/h 16.0mph /  25.7km/h 72% 0.00in /  0mm 209.00 W/m2
07:35 29.4 °F /  -1.4 °C 21.2 °F /  -6 °C 30.49in /  1032.4hPa South 5.0mph /  8km/h 16.0mph /  25.7km/h 71% 0.00in /  0mm 214.00 W/m2
07:36 29.5 °F /  -1.4 °C 21.3 °F /  -5.9 °C 30.49in /  1032.4hPa SSE 10.0mph /  16.1km/h 16.0mph /  25.7km/h 71% 0.00in /  0mm 214.00 W/m2
07:38 29.8 °F /  -1.2 °C 21.6 °F /  -5.8 °C 30.49in /  1032.4hPa SSE 10.0mph /  16.1km/h 17.0mph /  27.4km/h 71% 0.00in /  0mm 220.00 W/m2
07:39 29.9 °F /  -1.2 °C 21.7 °F /  -5.7 °C 30.49in /  1032.4hPa SSE 7.0mph /  11.3km/h 17.0mph /  27.4km/h 71% 0.00in /  0mm 227.00 W/m2
07:41 30.0 °F /  -1.1 °C 21.8 °F /  -5.7 °C 30.49in /  1032.4hPa SSE 6.0mph /  9.7km/h 12.0mph /  19.3km/h 71% 0.00in /  0mm 229.00 W/m2
07:42 30.1 °F /  -1.1 °C 21.5 °F /  -5.8 °C 30.49in /  1032.4hPa South 15.0mph /  24.1km/h 15.0mph /  24.1km/h 70% 0.00in /  0mm 236.00 W/m2
07:43 30.1 °F /  -1.1 °C 21.5 °F /  -5.8 °C 30.49in /  1032.4hPa South 6.0mph /  9.7km/h 15.0mph /  24.1km/h 70% 0.00in /  0mm 237.00 W/m2
07:45 30.2 °F /  -1 °C 21.6 °F /  -5.8 °C 30.49in /  1032.4hPa SE 13.0mph /  20.9km/h 20.0mph /  32.2km/h 70% 0.00in /  0mm 243.00 W/m2
07:47 30.4 °F /  -0.9 °C 21.5 °F /  -5.8 °C 30.49in /  1032.4hPa SSE 11.0mph /  17.7km/h 20.0mph /  32.2km/h 69% 0.00in /  0mm 251.00 W/m2
07:48 30.5 °F /  -0.8 °C 21.6 °F /  -5.8 °C 30.49in /  1032.4hPa SSE 9.0mph /  14.5km/h 20.0mph /  32.2km/h 69% 0.00in /  0mm 255.00 W/m2
07:50 30.9 °F /  -0.6 °C 22.3 °F /  -5.4 °C 30.49in /  1032.4hPa SSE 5.0mph /  8km/h 5.0mph /  8km/h 70% 0.00in /  0mm 260.00 W/m2
07:53 31.1 °F /  -0.5 °C 21.4 °F /  -5.9 °C 30.49in /  1032.4hPa South 6.0mph /  9.7km/h 13.0mph /  20.9km/h 67% 0.00in /  0mm 272.00 W/m2
07:56 31.3 °F /  -0.4 °C 21.6 °F /  -5.8 °C 30.49in /  1032.4hPa SSE 10.0mph /  16.1km/h 15.0mph /  24.1km/h 67% 0.00in /  0mm 281.00 W/m2
07:58 31.5 °F /  -0.3 °C 21.8 °F /  -5.7 °C 30.49in /  1032.4hPa South 10.0mph /  16.1km/h 15.0mph /  24.1km/h 67% 0.00in /  0mm 290.00 W/m2
08:01 31.9 °F /  -0.1 °C 22.2 °F /  -5.4 °C 30.49in /  1032.4hPa South 8.0mph /  12.9km/h 14.0mph /  22.5km/h 67% 0.00in /  0mm 301.00 W/m2
08:03 32.1 °F /  0.1 °C 21.7 °F /  -5.7 °C 30.49in /  1032.4hPa South 7.0mph /  11.3km/h 16.0mph /  25.7km/h 65% 0.00in /  0mm 306.00 W/m2
08:06 32.4 °F /  0.2 °C 22.3 °F /  -5.4 °C 30.49in /  1032.4hPa SSE 4.0mph /  6.4km/h 18.0mph /  29km/h 66% 0.00in /  0mm 316.00 W/m2
08:08 32.6 °F /  0.3 °C 22.1 °F /  -5.5 °C 30.50in /  1032.7hPa South 15.0mph /  24.1km/h 18.0mph /  29km/h 65% 0.00in /  0mm 322.00 W/m2
08:09 32.7 °F /  0.4 °C 22.2 °F /  -5.4 °C 30.49in /  1032.4hPa SSE 13.0mph /  20.9km/h 19.0mph /  30.6km/h 65% 0.00in /  0mm 325.00 W/m2
08:11 32.7 °F /  0.4 °C 21.5 °F /  -5.8 °C 30.50in /  1032.7hPa SE 13.0mph /  20.9km/h 17.0mph /  27.4km/h 63% 0.00in /  0mm 334.00 W/m2
08:13 32.6 °F /  0.3 °C 21.4 °F /  -5.9 °C 30.50in /  1032.7hPa SSE 12.0mph /  19.3km/h 17.0mph /  27.4km/h 63% 0.00in /  0mm 336.00 W/m2
08:14 32.6 °F /  0.3 °C 21.4 °F /  -5.9 °C 30.50in /  1032.7hPa SSE 5.0mph /  8km/h 17.0mph /  27.4km/h 63% 0.00in /  0mm 341.00 W/m2
08:17 32.9 °F /  0.5 °C 21.7 °F /  -5.7 °C 30.50in /  1032.7hPa SSE 10.0mph /  16.1km/h 17.0mph /  27.4km/h 63% 0.00in /  0mm 350.00 W/m2
08:18 33.2 °F /  0.7 °C 22.4 °F /  -5.3 °C 30.50in /  1032.7hPa South 11.0mph /  17.7km/h 17.0mph /  27.4km/h 64% 0.00in /  0mm 355.00 W/m2
08:19 33.3 °F /  0.7 °C 22.1 °F /  -5.5 °C 30.50in /  1032.7hPa SE 11.0mph /  17.7km/h 17.0mph /  27.4km/h 63% 0.00in /  0mm 355.00 W/m2
08:22 33.8 °F /  1 °C 22.5 °F /  -5.3 °C 30.50in /  1032.7hPa South 9.0mph /  14.5km/h 18.0mph /  29km/h 63% 0.00in /  0mm 369.00 W/m2
08:24 34.2 °F /  1.2 °C 23.3 °F /  -4.8 °C 30.50in /  1032.7hPa SSW 10.0mph /  16.1km/h 18.0mph /  29km/h 64% 0.00in /  0mm 373.00 W/m2
08:25 34.3 °F /  1.3 °C 22.6 °F /  -5.2 °C 30.50in /  1032.7hPa South 5.0mph /  8km/h 18.0mph /  29km/h 62% 0.00in /  0mm 374.00 W/m2
08:27 34.3 °F /  1.3 °C 21.9 °F /  -5.6 °C 30.50in /  1032.7hPa South 12.0mph /  19.3km/h 18.0mph /  29km/h 60% 0.00in /  0mm 383.00 W/m2
08:28 34.4 °F /  1.3 °C 22.4 °F /  -5.3 °C 30.50in /  1032.7hPa SE 6.0mph /  9.7km/h 18.0mph /  29km/h 61% 0.00in /  0mm 385.00 W/m2
08:29 34.4 °F /  1.3 °C 22.4 °F /  -5.3 °C 30.50in /  1032.7hPa South 9.0mph /  14.5km/h 18.0mph /  29km/h 61% 0.00in /  0mm 388.00 W/m2
08:30 34.5 °F /  1.4 °C 22.5 °F /  -5.3 °C 30.50in /  1032.7hPa SSW 9.0mph /  14.5km/h 11.0mph /  17.7km/h 61% 0.00in /  0mm 388.00 W/m2
08:33 34.8 °F /  1.6 °C 22.3 °F /  -5.4 °C 30.50in /  1032.7hPa South 9.0mph /  14.5km/h 18.0mph /  29km/h 60% 0.00in /  0mm 403.00 W/m2
08:34 34.8 °F /  1.6 °C 22.3 °F /  -5.4 °C 30.50in /  1032.7hPa South 17.0mph /  27.4km/h 20.0mph /  32.2km/h 60% 0.00in /  0mm 404.00 W/m2
08:35 34.8 °F /  1.6 °C 22.0 °F /  -5.6 °C 30.50in /  1032.7hPa South 10.0mph /  16.1km/h 20.0mph /  32.2km/h 59% 0.00in /  0mm 408.00 W/m2
08:39 35.4 °F /  1.9 °C 22.9 °F /  -5.1 °C 30.49in /  1032.4hPa South 5.0mph /  8km/h 20.0mph /  32.2km/h 60% 0.00in /  0mm 418.00 W/m2
08:40 35.5 °F /  1.9 °C 23.0 °F /  -5 °C 30.49in /  1032.4hPa SSE 10.0mph /  16.1km/h 20.0mph /  32.2km/h 60% 0.00in /  0mm 424.00 W/m2
08:44 35.4 °F /  1.9 °C 22.1 °F /  -5.5 °C 30.49in /  1032.4hPa SSE 5.0mph /  8km/h 19.0mph /  30.6km/h 58% 0.00in /  0mm 436.00 W/m2
08:45 35.6 °F /  2 °C 22.7 °F /  -5.2 °C 30.49in /  1032.4hPa SSW 11.0mph /  17.7km/h 19.0mph /  30.6km/h 59% 0.00in /  0mm 438.00 W/m2
08:46 35.7 °F /  2.1 °C 22.8 °F /  -5.1 °C 30.49in /  1032.4hPa SSE 15.0mph /  24.1km/h 19.0mph /  30.6km/h 59% 0.00in /  0mm 438.00 W/m2
08:49 35.6 °F /  2 °C 21.9 °F /  -5.6 °C 30.49in /  1032.4hPa SSE 19.0mph /  30.6km/h 19.0mph /  30.6km/h 57% 0.00in /  0mm 452.00 W/m2
08:50 35.7 °F /  2.1 °C 22.0 °F /  -5.6 °C 30.49in /  1032.4hPa South 22.0mph /  35.4km/h 23.0mph /  37km/h 57% 0.00in /  0mm 455.00 W/m2
08:51 35.7 °F /  2.1 °C 22.0 °F /  -5.6 °C 30.49in /  1032.4hPa SSW 13.0mph /  20.9km/h 23.0mph /  37km/h 57% 0.00in /  0mm 455.00 W/m2
08:54 36.1 °F /  2.3 °C 22.4 °F /  -5.3 °C 30.49in /  1032.4hPa South 7.0mph /  11.3km/h 23.0mph /  37km/h 57% 0.00in /  0mm 464.00 W/m2
08:55 36.4 °F /  2.4 °C 22.6 °F /  -5.2 °C 30.49in /  1032.4hPa South 14.0mph /  22.5km/h 23.0mph /  37km/h 57% 0.00in /  0mm 469.00 W/m2
08:56 36.4 °F /  2.4 °C 22.2 °F /  -5.4 °C 30.49in /  1032.4hPa South 13.0mph /  20.9km/h 23.0mph /  37km/h 56% 0.00in /  0mm 469.00 W/m2
08:59 36.8 °F /  2.7 °C 23.0 °F /  -5 °C 30.49in /  1032.4hPa South 7.0mph /  11.3km/h 23.0mph /  37km/h 57% 0.00in /  0mm 480.00 W/m2
09:00 36.9 °F /  2.7 °C 22.7 °F /  -5.2 °C 30.49in /  1032.4hPa South 8.0mph /  12.9km/h 16.0mph /  25.7km/h 56% 0.00in /  0mm 485.00 W/m2
09:01 36.9 °F /  2.7 °C 23.9 °F /  -4.5 °C 30.49in /  1032.4hPa SSE 12.0mph /  19.3km/h 16.0mph /  25.7km/h 59% 0.00in /  0mm 487.00 W/m2
09:04 37.4 °F /  3 °C 22.7 °F /  -5.2 °C 30.49in /  1032.4hPa South 6.0mph /  9.7km/h 16.0mph /  25.7km/h 55% 0.00in /  0mm 496.00 W/m2
09:06 37.9 °F /  3.3 °C 24.0 °F /  -4.4 °C 30.49in /  1032.4hPa South 11.0mph /  17.7km/h 16.0mph /  25.7km/h 57% 0.00in /  0mm 497.00 W/m2
09:07 38.1 °F /  3.4 °C 22.9 °F /  -5.1 °C 30.49in /  1032.4hPa SSW 11.0mph /  17.7km/h 19.0mph /  30.6km/h 54% 0.00in /  0mm 501.00 W/m2
09:09 38.0 °F /  3.3 °C 22.9 °F /  -5.1 °C 30.48in /  1032.1hPa South 4.0mph /  6.4km/h 19.0mph /  30.6km/h 54% 0.00in /  0mm 506.00 W/m2
09:11 38.0 °F /  3.3 °C 22.0 °F /  -5.6 °C 30.49in /  1032.4hPa SSW 11.0mph /  17.7km/h 17.0mph /  27.4km/h 52% 0.00in /  0mm 513.00 W/m2
09:12 37.9 °F /  3.3 °C 22.3 °F /  -5.4 °C 30.48in /  1032.1hPa South 12.0mph /  19.3km/h 17.0mph /  27.4km/h 53% 0.00in /  0mm 519.00 W/m2
09:14 38.5 °F /  3.6 °C 23.8 °F /  -4.6 °C 30.48in /  1032.1hPa South 10.0mph /  16.1km/h 17.0mph /  27.4km/h 55% 0.00in /  0mm 524.00 W/m2
09:16 38.7 °F /  3.7 °C 23.1 °F /  -4.9 °C 30.48in /  1032.1hPa SSE 16.0mph /  25.7km/h 23.0mph /  37km/h 53% 0.00in /  0mm 527.00 W/m2
09:17 38.7 °F /  3.7 °C 22.6 °F /  -5.2 °C 30.48in /  1032.1hPa South 18.0mph /  29km/h 23.0mph /  37km/h 52% 0.00in /  0mm 529.00 W/m2
09:19 38.8 °F /  3.8 °C 22.2 °F /  -5.4 °C 30.48in /  1032.1hPa South 14.0mph /  22.5km/h 23.0mph /  37km/h 51% 0.00in /  0mm 536.00 W/m2
09:20 38.8 °F /  3.8 °C 22.2 °F /  -5.4 °C 30.48in /  1032.1hPa South 14.0mph /  22.5km/h 23.0mph /  37km/h 51% 0.00in /  0mm 536.00 W/m2
09:22 38.8 °F /  3.8 °C 22.2 °F /  -5.4 °C 30.48in /  1032.1hPa South 9.0mph /  14.5km/h 16.0mph /  25.7km/h 51% 0.00in /  0mm 541.00 W/m2
09:23 38.8 °F /  3.8 °C 22.2 °F /  -5.4 °C 30.48in /  1032.1hPa South 10.0mph /  16.1km/h 17.0mph /  27.4km/h 51% 0.00in /  0mm 545.00 W/m2
09:25 39.0 °F /  3.9 °C 22.9 °F /  -5.1 °C 30.48in /  1032.1hPa South 11.0mph /  17.7km/h 17.0mph /  27.4km/h 52% 0.00in /  0mm 548.00 W/m2
09:27 39.5 °F /  4.2 °C 23.4 °F /  -4.8 °C 30.47in /  1031.7hPa SSW 14.0mph /  22.5km/h 20.0mph /  32.2km/h 52% 0.00in /  0mm 557.00 W/m2
09:28 39.4 °F /  4.1 °C 22.3 °F /  -5.4 °C 30.47in /  1031.7hPa SSE 11.0mph /  17.7km/h 20.0mph /  32.2km/h 50% 0.00in /  0mm 561.00 W/m2
09:29 39.4 °F /  4.1 °C 22.3 °F /  -5.4 °C 30.47in /  1031.7hPa SSE 11.0mph /  17.7km/h 20.0mph /  32.2km/h 50% 0.00in /  0mm 561.00 W/m2
09:30 39.4 °F /  4.1 °C 22.8 °F /  -5.1 °C 30.47in /  1031.7hPa SSE 12.0mph /  19.3km/h 12.0mph /  19.3km/h 51% 0.00in /  0mm 563.00 W/m2
09:32 39.4 °F /  4.1 °C 22.3 °F /  -5.4 °C 30.47in /  1031.7hPa South 6.0mph /  9.7km/h 16.0mph /  25.7km/h 50% 0.00in /  0mm 570.00 W/m2
09:33 39.5 °F /  4.2 °C 22.4 °F /  -5.3 °C 30.47in /  1031.7hPa South 7.0mph /  11.3km/h 21.0mph /  33.8km/h 50% 0.00in /  0mm 571.00 W/m2
09:35 39.6 °F /  4.2 °C 23.0 °F /  -5 °C 30.47in /  1031.7hPa South 19.0mph /  30.6km/h 21.0mph /  33.8km/h 51% 0.00in /  0mm 575.00 W/m2
09:36 39.7 °F /  4.3 °C 23.5 °F /  -4.7 °C 30.47in /  1031.7hPa South 7.0mph /  11.3km/h 21.0mph /  33.8km/h 52% 0.00in /  0mm 577.00 W/m2
09:37 39.8 °F /  4.3 °C 22.7 °F /  -5.2 °C 30.47in /  1031.7hPa SSE 11.0mph /  17.7km/h 21.0mph /  33.8km/h 50% 0.00in /  0mm 582.00 W/m2
09:39 39.8 °F /  4.3 °C 23.2 °F /  -4.9 °C 30.47in /  1031.7hPa SSW 13.0mph /  20.9km/h 21.0mph /  33.8km/h 51% 0.00in /  0mm 582.00 W/m2
09:40 39.9 °F /  4.4 °C 22.3 °F /  -5.4 °C 30.47in /  1031.7hPa SSW 9.0mph /  14.5km/h 19.0mph /  30.6km/h 49% 0.00in /  0mm 585.00 W/m2
09:41 39.8 °F /  4.3 °C 22.2 °F /  -5.4 °C 30.47in /  1031.7hPa South 12.0mph /  19.3km/h 19.0mph /  30.6km/h 49% 0.00in /  0mm 584.00 W/m2
09:42 39.7 °F /  4.3 °C 22.6 °F /  -5.2 °C 30.47in /  1031.7hPa SSE 10.0mph /  16.1km/h 19.0mph /  30.6km/h 50% 0.00in /  0mm 592.00 W/m2
09:44 39.9 °F /  4.4 °C 22.8 °F /  -5.1 °C 30.47in /  1031.7hPa South 14.0mph /  22.5km/h 21.0mph /  33.8km/h 50% 0.00in /  0mm 598.00 W/m2
09:45 39.8 °F /  4.3 °C 22.2 °F /  -5.4 °C 30.47in /  1031.7hPa South 16.0mph /  25.7km/h 21.0mph /  33.8km/h 49% 0.00in /  0mm 601.00 W/m2
09:47 39.7 °F /  4.3 °C 22.6 °F /  -5.2 °C 30.47in /  1031.7hPa South 10.0mph /  16.1km/h 21.0mph /  33.8km/h 50% 0.00in /  0mm 598.00 W/m2
09:48 39.7 °F /  4.3 °C 23.1 °F /  -4.9 °C 30.47in /  1031.7hPa South 6.0mph /  9.7km/h 21.0mph /  33.8km/h 51% 0.00in /  0mm 554.00 W/m2
09:49 39.9 °F /  4.4 °C 23.3 °F /  -4.8 °C 30.47in /  1031.7hPa South 19.0mph /  30.6km/h 21.0mph /  33.8km/h 51% 0.00in /  0mm 594.00 W/m2
09:51 40.1 °F /  4.5 °C 23.0 °F /  -5 °C 30.47in /  1031.7hPa SSW 11.0mph /  17.7km/h 17.0mph /  27.4km/h 50% 0.00in /  0mm 613.00 W/m2
09:52 40.2 °F /  4.6 °C 23.1 °F /  -4.9 °C 30.47in /  1031.7hPa SE 19.0mph /  30.6km/h 19.0mph /  30.6km/h 50% 0.00in /  0mm 615.00 W/m2
09:53 40.3 °F /  4.6 °C 22.7 °F /  -5.2 °C 30.47in /  1031.7hPa SSW 6.0mph /  9.7km/h 19.0mph /  30.6km/h 49% 0.00in /  0mm 617.00 W/m2
09:54 40.4 °F /  4.7 °C 22.8 °F /  -5.1 °C 30.47in /  1031.7hPa South 7.0mph /  11.3km/h 19.0mph /  30.6km/h 49% 0.00in /  0mm 608.00 W/m2
09:57 40.7 °F /  4.8 °C 23.0 °F /  -5 °C 30.46in /  1031.4hPa SSW 9.0mph /  14.5km/h 24.0mph /  38.6km/h 49% 0.00in /  0mm 72.00 W/m2
09:58 40.7 °F /  4.8 °C 22.5 °F /  -5.3 °C 30.46in /  1031.4hPa SSE 17.0mph /  27.4km/h 24.0mph /  38.6km/h 48% 0.00in /  0mm 83.00 W/m2
10:00 40.6 °F /  4.8 °C 23.0 °F /  -5 °C 30.46in /  1031.4hPa SSW 12.0mph /  19.3km/h 24.0mph /  38.6km/h 49% 0.00in /  0mm 86.00 W/m2
10:02 40.6 °F /  4.8 °C 23.0 °F /  -5 °C 30.46in /  1031.4hPa South 12.0mph /  19.3km/h 18.0mph /  29km/h 49% 0.00in /  0mm 86.00 W/m2
10:03 40.6 °F /  4.8 °C 23.4 °F /  -4.8 °C 30.46in /  1031.4hPa South 14.0mph /  22.5km/h 19.0mph /  30.6km/h 50% 0.00in /  0mm 533.00 W/m2
10:05 40.9 °F /  4.9 °C 24.2 °F /  -4.3 °C 30.46in /  1031.4hPa SW 7.0mph /  11.3km/h 21.0mph /  33.8km/h 51% 0.00in /  0mm 457.00 W/m2
10:07 41.2 °F /  5.1 °C 23.5 °F /  -4.7 °C 30.45in /  1031hPa SSW 13.0mph /  20.9km/h 21.0mph /  33.8km/h 49% 0.00in /  0mm 631.00 W/m2
10:08 41.3 °F /  5.2 °C 24.1 °F /  -4.4 °C 30.45in /  1031hPa SSE 12.0mph /  19.3km/h 21.0mph /  33.8km/h 50% 0.00in /  0mm 575.00 W/m2
10:09 41.4 °F /  5.2 °C 24.2 °F /  -4.3 °C 30.45in /  1031hPa South 12.0mph /  19.3km/h 21.0mph /  33.8km/h 50% 0.00in /  0mm 575.00 W/m2
10:10 41.6 °F /  5.3 °C 23.9 °F /  -4.5 °C 30.45in /  1031hPa South 5.0mph /  8km/h 15.0mph /  24.1km/h 49% 0.00in /  0mm 619.00 W/m2
10:12 41.8 °F /  5.4 °C 24.1 °F /  -4.4 °C 30.45in /  1031hPa SSE 14.0mph /  22.5km/h 20.0mph /  32.2km/h 49% 0.00in /  0mm 575.00 W/m2
10:13 41.8 °F /  5.4 °C 24.1 °F /  -4.4 °C 30.45in /  1031hPa South 16.0mph /  25.7km/h 20.0mph /  32.2km/h 49% 0.00in /  0mm 575.00 W/m2
10:14 41.8 °F /  5.4 °C 24.1 °F /  -4.4 °C 30.45in /  1031hPa SSE 16.0mph /  25.7km/h 20.0mph /  32.2km/h 49% 0.00in /  0mm 74.00 W/m2
10:15 41.8 °F /  5.4 °C 23.6 °F /  -4.7 °C 30.45in /  1031hPa South 10.0mph /  16.1km/h 20.0mph /  32.2km/h 48% 0.00in /  0mm 77.00 W/m2
10:17 41.8 °F /  5.4 °C 23.6 °F /  -4.7 °C 30.45in /  1031hPa South 11.0mph /  17.7km/h 20.0mph /  32.2km/h 48% 0.00in /  0mm 287.00 W/m2
10:18 41.9 °F /  5.5 °C 24.1 °F /  -4.4 °C 30.45in /  1031hPa SSE 10.0mph /  16.1km/h 20.0mph /  32.2km/h 49% 0.00in /  0mm 369.00 W/m2
10:19 41.9 °F /  5.5 °C 24.1 °F /  -4.4 °C 30.45in /  1031hPa SSE 8.0mph /  12.9km/h 20.0mph /  32.2km/h 49% 0.00in /  0mm 369.00 W/m2
10:20 42.1 °F /  5.6 °C 24.3 °F /  -4.3 °C 30.45in /  1031hPa South 18.0mph /  29km/h 20.0mph /  32.2km/h 49% 0.00in /  0mm 369.00 W/m2
10:21 42.1 °F /  5.6 °C 24.3 °F /  -4.3 °C 30.45in /  1031hPa SSW 14.0mph /  22.5km/h 20.0mph /  32.2km/h 49% 0.00in /  0mm 77.00 W/m2
10:22 42.2 °F /  5.7 °C 23.9 °F /  -4.5 °C 30.44in /  1030.7hPa South 18.0mph /  29km/h 21.0mph /  33.8km/h 48% 0.00in /  0mm 153.00 W/m2
10:23 42.2 °F /  5.7 °C 23.9 °F /  -4.5 °C 30.45in /  1031hPa South 7.0mph /  11.3km/h 21.0mph /  33.8km/h 48% 0.00in /  0mm 104.00 W/m2
10:24 42.3 °F /  5.7 °C 24.0 °F /  -4.4 °C 30.44in /  1030.7hPa South 7.0mph /  11.3km/h 21.0mph /  33.8km/h 48% 0.00in /  0mm 77.00 W/m2
10:25 42.3 °F /  5.7 °C 24.0 °F /  -4.4 °C 30.44in /  1030.7hPa South 17.0mph /  27.4km/h 21.0mph /  33.8km/h 48% 0.00in /  0mm 62.00 W/m2
10:27 42.4 °F /  5.8 °C 24.1 °F /  -4.4 °C 30.45in /  1031hPa South 18.0mph /  29km/h 21.0mph /  33.8km/h 48% 0.00in /  0mm 54.00 W/m2
10:28 42.5 °F /  5.8 °C 24.2 °F /  -4.3 °C 30.45in /  1031hPa SSE 3.0mph /  4.8km/h 21.0mph /  33.8km/h 48% 0.00in /  0mm 79.00 W/m2
10:30 42.7 °F /  5.9 °C 24.4 °F /  -4.2 °C 30.44in /  1030.7hPa SSE 5.0mph /  8km/h 5.0mph /  8km/h 48% 0.00in /  0mm 53.00 W/m2
10:32 42.9 °F /  6.1 °C 24.6 °F /  -4.1 °C 30.44in /  1030.7hPa SSW 17.0mph /  27.4km/h 25.0mph /  40.2km/h 48% 0.00in /  0mm 53.00 W/m2
10:33 42.9 °F /  6.1 °C 24.1 °F /  -4.4 °C 30.44in /  1030.7hPa SSE 14.0mph /  22.5km/h 25.0mph /  40.2km/h 47% 0.00in /  0mm 53.00 W/m2
10:36 43.1 °F /  6.2 °C 24.3 °F /  -4.3 °C 30.44in /  1030.7hPa SSW 11.0mph /  17.7km/h 25.0mph /  40.2km/h 47% 0.00in /  0mm 54.00 W/m2
10:37 43.1 °F /  6.2 °C 24.3 °F /  -4.3 °C 30.44in /  1030.7hPa South 19.0mph /  30.6km/h 25.0mph /  40.2km/h 47% 0.00in /  0mm 56.00 W/m2
10:38 43.1 °F /  6.2 °C 24.3 °F /  -4.3 °C 30.44in /  1030.7hPa SSW 14.0mph /  22.5km/h 25.0mph /  40.2km/h 47% 0.00in /  0mm 58.00 W/m2
10:41 43.5 °F /  6.4 °C 24.6 °F /  -4.1 °C 30.44in /  1030.7hPa SSE 11.0mph /  17.7km/h 21.0mph /  33.8km/h 47% 0.00in /  0mm 72.00 W/m2
10:42 43.6 °F /  6.4 °C 24.7 °F /  -4.1 °C 30.44in /  1030.7hPa SSE 17.0mph /  27.4km/h 21.0mph /  33.8km/h 47% 0.00in /  0mm 60.00 W/m2
10:43 43.6 °F /  6.4 °C 25.2 °F /  -3.8 °C 30.44in /  1030.7hPa South 3.0mph /  4.8km/h 21.0mph /  33.8km/h 48% 0.00in /  0mm 91.00 W/m2
10:47 44.0 °F /  6.7 °C 24.6 °F /  -4.1 °C 30.44in /  1030.7hPa SSE 7.0mph /  11.3km/h 28.0mph /  45.1km/h 46% 0.00in /  0mm 179.00 W/m2
10:48 44.2 °F /  6.8 °C 24.8 °F /  -4 °C 30.44in /  1030.7hPa SSE 13.0mph /  20.9km/h 28.0mph /  45.1km/h 46% 0.00in /  0mm 146.00 W/m2
10:49 44.3 °F /  6.8 °C 24.3 °F /  -4.3 °C 30.44in /  1030.7hPa South 9.0mph /  14.5km/h 28.0mph /  45.1km/h 45% 0.00in /  0mm 113.00 W/m2
10:52 44.5 °F /  6.9 °C 25.5 °F /  -3.6 °C 30.43in /  1030.4hPa South 8.0mph /  12.9km/h 15.0mph /  24.1km/h 47% 0.00in /  0mm 100.00 W/m2
10:53 44.7 °F /  7.1 °C 25.7 °F /  -3.5 °C 30.43in /  1030.4hPa SSW 10.0mph /  16.1km/h 17.0mph /  27.4km/h 47% 0.00in /  0mm 151.00 W/m2
10:54 44.7 °F /  7.1 °C 25.7 °F /  -3.5 °C 30.43in /  1030.4hPa SSW 14.0mph /  22.5km/h 23.0mph /  37km/h 47% 0.00in /  0mm 74.00 W/m2
10:57 45.0 °F /  7.2 °C 25.0 °F /  -3.9 °C 30.43in /  1030.4hPa South 9.0mph /  14.5km/h 23.0mph /  37km/h 45% 0.00in /  0mm 54.00 W/m2
10:58 45.1 °F /  7.3 °C 25.6 °F /  -3.6 °C 30.43in /  1030.4hPa South 13.0mph /  20.9km/h 23.0mph /  37km/h 46% 0.00in /  0mm 56.00 W/m2
10:59 45.2 °F /  7.3 °C 25.7 °F /  -3.5 °C 30.43in /  1030.4hPa South 9.0mph /  14.5km/h 23.0mph /  37km/h 46% 0.00in /  0mm 56.00 W/m2
11:03 45.8 °F /  7.7 °C 25.7 °F /  -3.5 °C 30.43in /  1030.4hPa SSW 12.0mph /  19.3km/h 23.0mph /  37km/h 45% 0.00in /  0mm 146.00 W/m2
11:04 45.9 °F /  7.7 °C 25.2 °F /  -3.8 °C 30.43in /  1030.4hPa SSE 9.0mph /  14.5km/h 23.0mph /  37km/h 44% 0.00in /  0mm 188.00 W/m2
11:08 46.3 °F /  7.9 °C 25.0 °F /  -3.9 °C 30.43in /  1030.4hPa SSE 6.0mph /  9.7km/h 24.0mph /  38.6km/h 43% 0.00in /  0mm 670.00 W/m2
11:09 46.4 °F /  8 °C 25.1 °F /  -3.8 °C 30.43in /  1030.4hPa SSE 12.0mph /  19.3km/h 24.0mph /  38.6km/h 43% 0.00in /  0mm 670.00 W/m2
11:13 47.1 °F /  8.4 °C 26.3 °F /  -3.2 °C 30.43in /  1030.4hPa SSE 17.0mph /  27.4km/h 19.0mph /  30.6km/h 44% 0.00in /  0mm 754.00 W/m2
11:14 47.3 °F /  8.5 °C 26.5 °F /  -3.1 °C 30.43in /  1030.4hPa South 12.0mph /  19.3km/h 19.0mph /  30.6km/h 44% 0.00in /  0mm 754.00 W/m2
11:18 47.9 °F /  8.8 °C 25.4 °F /  -3.7 °C 30.42in /  1030hPa South 10.0mph /  16.1km/h 20.0mph /  32.2km/h 41% 0.00in /  0mm 758.00 W/m2
11:19 47.9 °F /  8.8 °C 25.4 °F /  -3.7 °C 30.42in /  1030hPa South 22.0mph /  35.4km/h 22.0mph /  35.4km/h 41% 0.00in /  0mm 761.00 W/m2
11:24 48.3 °F /  9.1 °C 25.7 °F /  -3.5 °C 30.42in /  1030hPa South 14.0mph /  22.5km/h 26.0mph /  41.8km/h 41% 0.00in /  0mm 765.00 W/m2
11:25 48.4 °F /  9.1 °C 26.4 °F /  -3.1 °C 30.42in /  1030hPa South 6.0mph /  9.7km/h 26.0mph /  41.8km/h 42% 0.00in /  0mm 765.00 W/m2
11:29 48.9 °F /  9.4 °C 26.8 °F /  -2.9 °C 30.42in /  1030hPa SSW 14.0mph /  22.5km/h 26.0mph /  41.8km/h 42% 0.00in /  0mm 770.00 W/m2
11:34 49.5 °F /  9.7 °C 26.2 °F /  -3.2 °C 30.42in /  1030hPa South 6.0mph /  9.7km/h 22.0mph /  35.4km/h 40% 0.00in /  0mm 772.00 W/m2
11:35 49.5 °F /  9.7 °C 26.2 °F /  -3.2 °C 30.42in /  1030hPa South 15.0mph /  24.1km/h 22.0mph /  35.4km/h 40% 0.00in /  0mm 772.00 W/m2
11:39 49.4 °F /  9.7 °C 26.1 °F /  -3.3 °C 30.42in /  1030hPa SSW 10.0mph /  16.1km/h 22.0mph /  35.4km/h 40% 0.00in /  0mm 775.00 W/m2
11:40 49.4 °F /  9.7 °C 26.1 °F /  -3.3 °C 30.42in /  1030hPa South 12.0mph /  19.3km/h 15.0mph /  24.1km/h 40% 0.00in /  0mm 775.00 W/m2
11:45 50.0 °F /  10 °C 26.6 °F /  -3 °C 30.42in /  1030hPa SSE 21.0mph /  33.8km/h 21.0mph /  33.8km/h 40% 0.00in /  0mm 779.00 W/m2
11:46 50.2 °F /  10.1 °C 26.2 °F /  -3.2 °C 30.42in /  1030hPa South 15.0mph /  24.1km/h 21.0mph /  33.8km/h 39% 0.00in /  0mm 779.00 W/m2
11:50 50.5 °F /  10.3 °C 27.1 °F /  -2.7 °C 30.42in /  1030hPa SSE 13.0mph /  20.9km/h 13.0mph /  20.9km/h 40% 0.00in /  0mm 780.00 W/m2
11:51 50.5 °F /  10.3 °C 27.1 °F /  -2.7 °C 30.42in /  1030hPa SSW 19.0mph /  30.6km/h 24.0mph /  38.6km/h 40% 0.00in /  0mm 780.00 W/m2
11:55 51.0 °F /  10.6 °C 27.5 °F /  -2.5 °C 30.41in /  1029.7hPa South 16.0mph /  25.7km/h 24.0mph /  38.6km/h 40% 0.00in /  0mm 780.00 W/m2
11:56 51.1 °F /  10.6 °C 27.6 °F /  -2.4 °C 30.41in /  1029.7hPa South 6.0mph /  9.7km/h 24.0mph /  38.6km/h 40% 0.00in /  0mm 780.00 W/m2
11:57 51.1 °F /  10.6 °C 27.6 °F /  -2.4 °C 30.41in /  1029.7hPa South 14.0mph /  22.5km/h 24.0mph /  38.6km/h 40% 0.00in /  0mm 780.00 W/m2
12:00 51.0 °F /  10.6 °C 26.9 °F /  -2.8 °C 30.41in /  1029.7hPa South 13.0mph /  20.9km/h 16.0mph /  25.7km/h 39% 0.00in /  0mm 782.00 W/m2
12:01 51.0 °F /  10.6 °C 26.9 °F /  -2.8 °C 30.41in /  1029.7hPa SSW 9.0mph /  14.5km/h 16.0mph /  25.7km/h 39% 0.00in /  0mm 782.00 W/m2
12:02 51.0 °F /  10.6 °C 26.9 °F /  -2.8 °C 30.41in /  1029.7hPa South 13.0mph /  20.9km/h 18.0mph /  29km/h 39% 0.00in /  0mm 782.00 W/m2
12:06 51.6 °F /  10.9 °C 28.1 °F /  -2.2 °C 30.41in /  1029.7hPa SSE 12.0mph /  19.3km/h 22.0mph /  35.4km/h 40% 0.00in /  0mm 782.00 W/m2
12:08 52.0 °F /  11.1 °C 28.5 °F /  -1.9 °C 30.41in /  1029.7hPa South 14.0mph /  22.5km/h 22.0mph /  35.4km/h 40% 0.00in /  0mm 784.00 W/m2
12:11 52.3 °F /  11.3 °C 28.7 °F /  -1.8 °C 30.41in /  1029.7hPa SSW 14.0mph /  22.5km/h 19.0mph /  30.6km/h 40% 0.00in /  0mm 784.00 W/m2
12:12 52.4 °F /  11.3 °C 29.4 °F /  -1.4 °C 30.41in /  1029.7hPa South 9.0mph /  14.5km/h 19.0mph /  30.6km/h 41% 0.00in /  0mm 784.00 W/m2
12:13 52.5 °F /  11.4 °C 28.3 °F /  -2.1 °C 30.41in /  1029.7hPa South 12.0mph /  19.3km/h 27.0mph /  43.5km/h 39% 0.00in /  0mm 784.00 W/m2
12:16 52.5 °F /  11.4 °C 27.6 °F /  -2.4 °C 30.40in /  1029.3hPa WSW 7.0mph /  11.3km/h 27.0mph /  43.5km/h 38% 0.00in /  0mm 784.00 W/m2
12:17 52.6 °F /  11.4 °C 27.7 °F /  -2.4 °C 30.40in /  1029.3hPa SSW 17.0mph /  27.4km/h 27.0mph /  43.5km/h 38% 0.00in /  0mm 784.00 W/m2
12:18 52.6 °F /  11.4 °C 27.7 °F /  -2.4 °C 30.40in /  1029.3hPa SSW 14.0mph /  22.5km/h 27.0mph /  43.5km/h 38% 0.00in /  0mm 784.00 W/m2
12:22 53.2 °F /  11.8 °C 28.3 °F /  -2.1 °C 30.40in /  1029.3hPa South 18.0mph /  29km/h 23.0mph /  37km/h 38% 0.00in /  0mm 782.00 W/m2
12:23 53.4 °F /  11.9 °C 28.5 °F /  -1.9 °C 30.40in /  1029.3hPa SW 15.0mph /  24.1km/h 23.0mph /  37km/h 38% 0.00in /  0mm 779.00 W/m2
12:24 53.4 °F /  11.9 °C 27.8 °F /  -2.3 °C 30.40in /  1029.3hPa SW 13.0mph /  20.9km/h 23.0mph /  37km/h 37% 0.00in /  0mm 779.00 W/m2
12:25 53.4 °F /  11.9 °C 27.8 °F /  -2.3 °C 30.40in /  1029.3hPa SSW 9.0mph /  14.5km/h 23.0mph /  37km/h 37% 0.00in /  0mm 780.00 W/m2
12:27 53.6 °F /  12 °C 28.0 °F /  -2.2 °C 30.40in /  1029.3hPa SSW 10.0mph /  16.1km/h 23.0mph /  37km/h 37% 0.00in /  0mm 779.00 W/m2
12:28 53.7 °F /  12.1 °C 28.7 °F /  -1.8 °C 30.39in /  1029hPa SSW 11.0mph /  17.7km/h 23.0mph /  37km/h 38% 0.00in /  0mm 779.00 W/m2
12:30 54.1 °F /  12.3 °C 28.4 °F /  -2 °C 30.39in /  1029hPa SSE 17.0mph /  27.4km/h 18.0mph /  29km/h 37% 0.00in /  0mm 779.00 W/m2
12:31 54.1 °F /  12.3 °C 28.4 °F /  -2 °C 30.39in /  1029hPa SSW 13.0mph /  20.9km/h 18.0mph /  29km/h 37% 0.00in /  0mm 779.00 W/m2
12:32 54.2 °F /  12.3 °C 29.2 °F /  -1.6 °C 30.39in /  1029hPa South 17.0mph /  27.4km/h 20.0mph /  32.2km/h 38% 0.00in /  0mm 779.00 W/m2
12:35 54.0 °F /  12.2 °C 28.3 °F /  -2.1 °C 30.39in /  1029hPa SSW 17.0mph /  27.4km/h 25.0mph /  40.2km/h 37% 0.00in /  0mm 726.00 W/m2
12:36 54.0 °F /  12.2 °C 27.7 °F /  -2.4 °C 30.39in /  1029hPa South 18.0mph /  29km/h 25.0mph /  40.2km/h 36% 0.00in /  0mm 726.00 W/m2
12:37 54.0 °F /  12.2 °C 27.7 °F /  -2.4 °C 30.39in /  1029hPa South 14.0mph /  22.5km/h 25.0mph /  40.2km/h 36% 0.00in /  0mm 707.00 W/m2
12:40 54.1 °F /  12.3 °C 28.4 °F /  -2 °C 30.39in /  1029hPa SSW 11.0mph /  17.7km/h 18.0mph /  29km/h 37% 0.00in /  0mm 775.00 W/m2
12:41 54.0 °F /  12.2 °C 27.7 °F /  -2.4 °C 30.39in /  1029hPa WSW 16.0mph /  25.7km/h 19.0mph /  30.6km/h 36% 0.00in /  0mm 687.00 W/m2
12:42 54.1 °F /  12.3 °C 28.4 °F /  -2 °C 30.39in /  1029hPa South 16.0mph /  25.7km/h 21.0mph /  33.8km/h 37% 0.00in /  0mm 663.00 W/m2
12:43 54.2 °F /  12.3 °C 27.9 °F /  -2.3 °C 30.39in /  1029hPa SSW 12.0mph /  19.3km/h 21.0mph /  33.8km/h 36% 0.00in /  0mm 663.00 W/m2
12:46 54.5 °F /  12.5 °C 28.8 °F /  -1.8 °C 30.39in /  1029hPa SSW 14.0mph /  22.5km/h 21.0mph /  33.8km/h 37% 0.00in /  0mm 765.00 W/m2
12:47 54.6 °F /  12.6 °C 28.2 °F /  -2.1 °C 30.39in /  1029hPa SSW 16.0mph /  25.7km/h 21.0mph /  33.8km/h 36% 0.00in /  0mm 770.00 W/m2
12:48 54.6 °F /  12.6 °C 28.2 °F /  -2.1 °C 30.39in /  1029hPa SSW 15.0mph /  24.1km/h 21.0mph /  33.8km/h 36% 0.00in /  0mm 770.00 W/m2
12:51 54.9 °F /  12.7 °C 29.1 °F /  -1.6 °C 30.39in /  1029hPa SW 12.0mph /  19.3km/h 16.0mph /  25.7km/h 37% 0.00in /  0mm 768.00 W/m2
12:52 55.0 °F /  12.8 °C 29.2 °F /  -1.6 °C 30.39in /  1029hPa South 16.0mph /  25.7km/h 26.0mph /  41.8km/h 37% 0.00in /  0mm 766.00 W/m2
12:53 55.0 °F /  12.8 °C 28.6 °F /  -1.9 °C 30.39in /  1029hPa SSW 20.0mph /  32.2km/h 28.0mph /  45.1km/h 36% 0.00in /  0mm 766.00 W/m2
12:56 55.0 °F /  12.8 °C 28.6 °F /  -1.9 °C 30.39in /  1029hPa SSW 14.0mph /  22.5km/h 28.0mph /  45.1km/h 36% 0.00in /  0mm 765.00 W/m2
12:57 55.1 °F /  12.8 °C 29.3 °F /  -1.5 °C 30.39in /  1029hPa South 12.0mph /  19.3km/h 28.0mph /  45.1km/h 37% 0.00in /  0mm 761.00 W/m2
12:58 55.2 °F /  12.9 °C 28.7 °F /  -1.8 °C 30.39in /  1029hPa SW 14.0mph /  22.5km/h 28.0mph /  45.1km/h 36% 0.00in /  0mm 761.00 W/m2
13:01 55.1 °F /  12.8 °C 28.6 °F /  -1.9 °C 30.38in /  1028.7hPa South 11.0mph /  17.7km/h 22.0mph /  35.4km/h 36% 0.00in /  0mm 758.00 W/m2
13:02 55.1 °F /  12.8 °C 29.3 °F /  -1.5 °C 30.38in /  1028.7hPa WSW 11.0mph /  17.7km/h 22.0mph /  35.4km/h 37% 0.00in /  0mm 758.00 W/m2
13:03 55.3 °F /  12.9 °C 29.5 °F /  -1.4 °C 30.38in /  1028.7hPa SSW 11.0mph /  17.7km/h 22.0mph /  35.4km/h 37% 0.00in /  0mm 756.00 W/m2
13:04 55.7 °F /  13.2 °C 30.5 °F /  -0.8 °C 30.38in /  1028.7hPa SW 6.0mph /  9.7km/h 22.0mph /  35.4km/h 38% 0.00in /  0mm 745.00 W/m2
13:06 56.2 °F /  13.4 °C 29.6 °F /  -1.3 °C 30.38in /  1028.7hPa SW 14.0mph /  22.5km/h 22.0mph /  35.4km/h 36% 0.00in /  0mm 636.00 W/m2
13:07 56.3 °F /  13.5 °C 29.7 °F /  -1.3 °C 30.38in /  1028.7hPa SSW 18.0mph /  29km/h 22.0mph /  35.4km/h 36% 0.00in /  0mm 636.00 W/m2
13:08 56.3 °F /  13.5 °C 29.0 °F /  -1.7 °C 30.38in /  1028.7hPa SW 10.0mph /  16.1km/h 22.0mph /  35.4km/h 35% 0.00in /  0mm 636.00 W/m2
13:09 56.2 °F /  13.4 °C 28.9 °F /  -1.7 °C 30.38in /  1028.7hPa WSW 19.0mph /  30.6km/h 23.0mph /  37km/h 35% 0.00in /  0mm 707.00 W/m2
13:12 56.0 °F /  13.3 °C 29.4 °F /  -1.4 °C 30.38in /  1028.7hPa SW 17.0mph /  27.4km/h 23.0mph /  37km/h 36% 0.00in /  0mm 552.00 W/m2
13:13 55.9 °F /  13.3 °C 28.7 °F /  -1.8 °C 30.38in /  1028.7hPa SW 14.0mph /  22.5km/h 23.0mph /  37km/h 35% 0.00in /  0mm 552.00 W/m2
13:14 56.0 °F /  13.3 °C 29.4 °F /  -1.4 °C 30.38in /  1028.7hPa WSW 14.0mph /  22.5km/h 23.0mph /  37km/h 36% 0.00in /  0mm 552.00 W/m2
13:17 56.0 °F /  13.3 °C 28.8 °F /  -1.8 °C 30.38in /  1028.7hPa SSW 16.0mph /  25.7km/h 23.0mph /  37km/h 35% 0.00in /  0mm 571.00 W/m2
13:19 56.0 °F /  13.3 °C 29.4 °F /  -1.4 °C 30.38in /  1028.7hPa South 14.0mph /  22.5km/h 24.0mph /  38.6km/h 36% 0.00in /  0mm 742.00 W/m2
13:21 56.1 °F /  13.4 °C 29.5 °F /  -1.4 °C 30.38in /  1028.7hPa South 19.0mph /  30.6km/h 19.0mph /  30.6km/h 36% 0.00in /  0mm 694.00 W/m2
13:23 56.2 °F /  13.4 °C 28.9 °F /  -1.7 °C 30.37in /  1028.3hPa SSW 4.0mph /  6.4km/h 25.0mph /  40.2km/h 35% 0.00in /  0mm 694.00 W/m2
13:24 56.3 °F /  13.5 °C 29.7 °F /  -1.3 °C 30.37in /  1028.3hPa SSW 11.0mph /  17.7km/h 25.0mph /  40.2km/h 36% 0.00in /  0mm 694.00 W/m2
13:25 56.5 °F /  13.6 °C 30.6 °F /  -0.8 °C 30.37in /  1028.3hPa SW 13.0mph /  20.9km/h 25.0mph /  40.2km/h 37% 0.00in /  0mm 733.00 W/m2
13:26 56.6 °F /  13.7 °C 30.0 °F /  -1.1 °C 30.37in /  1028.3hPa WSW 14.0mph /  22.5km/h 25.0mph /  40.2km/h 36% 0.00in /  0mm 731.00 W/m2
13:29 56.4 °F /  13.6 °C 29.1 °F /  -1.6 °C 30.37in /  1028.3hPa SW 16.0mph /  25.7km/h 25.0mph /  40.2km/h 35% 0.00in /  0mm 728.00 W/m2
13:30 56.3 °F /  13.5 °C 29.7 °F /  -1.3 °C 30.37in /  1028.3hPa SW 16.0mph /  25.7km/h 16.0mph /  25.7km/h 36% 0.00in /  0mm 519.00 W/m2
13:31 56.4 °F /  13.6 °C 29.1 °F /  -1.6 °C 30.37in /  1028.3hPa SW 15.0mph /  24.1km/h 17.0mph /  27.4km/h 35% 0.00in /  0mm 550.00 W/m2
13:34 56.4 °F /  13.6 °C 29.8 °F /  -1.2 °C 30.37in /  1028.3hPa SSW 17.0mph /  27.4km/h 23.0mph /  37km/h 36% 0.00in /  0mm 603.00 W/m2
13:35 56.5 °F /  13.6 °C 29.9 °F /  -1.2 °C 30.37in /  1028.3hPa SW 15.0mph /  24.1km/h 23.0mph /  37km/h 36% 0.00in /  0mm 659.00 W/m2
13:36 56.5 °F /  13.6 °C 29.9 °F /  -1.2 °C 30.36in /  1028hPa SW 16.0mph /  25.7km/h 23.0mph /  37km/h 36% 0.00in /  0mm 657.00 W/m2
13:37 56.6 °F /  13.7 °C 30.0 °F /  -1.1 °C 30.36in /  1028hPa WSW 13.0mph /  20.9km/h 23.0mph /  37km/h 36% 0.00in /  0mm 661.00 W/m2
13:39 56.8 °F /  13.8 °C 30.8 °F /  -0.7 °C 30.36in /  1028hPa SW 13.0mph /  20.9km/h 23.0mph /  37km/h 37% 0.00in /  0mm 659.00 W/m2
13:40 56.9 °F /  13.8 °C 30.9 °F /  -0.6 °C 30.36in /  1028hPa SSW 16.0mph /  25.7km/h 23.0mph /  37km/h 37% 0.00in /  0mm 640.00 W/m2
13:43 56.9 °F /  13.8 °C 29.5 °F /  -1.4 °C 30.36in /  1028hPa SW 16.0mph /  25.7km/h 23.0mph /  37km/h 35% 0.00in /  0mm 707.00 W/m2
13:44 56.9 °F /  13.8 °C 29.5 °F /  -1.4 °C 30.36in /  1028hPa WNW 22.0mph /  35.4km/h 23.0mph /  37km/h 35% 0.00in /  0mm 705.00 W/m2
13:46 56.9 °F /  13.8 °C 30.2 °F /  -1 °C 30.36in /  1028hPa SSW 6.0mph /  9.7km/h 23.0mph /  37km/h 36% 0.00in /  0mm 550.00 W/m2
13:49 57.0 °F /  13.9 °C 30.3 °F /  -0.9 °C 30.36in /  1028hPa South 11.0mph /  17.7km/h 23.0mph /  37km/h 36% 0.00in /  0mm 696.00 W/m2
13:50 57.0 °F /  13.9 °C 30.3 °F /  -0.9 °C 30.36in /  1028hPa SW 14.0mph /  22.5km/h 15.0mph /  24.1km/h 36% 0.00in /  0mm 694.00 W/m2
13:51 57.1 °F /  13.9 °C 30.4 °F /  -0.9 °C 30.36in /  1028hPa WSW 12.0mph /  19.3km/h 15.0mph /  24.1km/h 36% 0.00in /  0mm 689.00 W/m2
13:53 57.2 °F /  14 °C 29.8 °F /  -1.2 °C 30.36in /  1028hPa SSW 10.0mph /  16.1km/h 20.0mph /  32.2km/h 35% 0.00in /  0mm 589.00 W/m2
13:54 57.3 °F /  14.1 °C 29.9 °F /  -1.2 °C 30.35in /  1027.7hPa SSW 16.0mph /  25.7km/h 20.0mph /  32.2km/h 35% 0.00in /  0mm 536.00 W/m2
13:56 57.5 °F /  14.2 °C 30.1 °F /  -1.1 °C 30.36in /  1028hPa SSW 12.0mph /  19.3km/h 20.0mph /  32.2km/h 35% 0.00in /  0mm 471.00 W/m2
13:57 57.6 °F /  14.2 °C 30.9 °F /  -0.6 °C 30.36in /  1028hPa South 10.0mph /  16.1km/h 20.0mph /  32.2km/h 36% 0.00in /  0mm 455.00 W/m2
13:59 57.8 °F /  14.3 °C 30.4 °F /  -0.9 °C 30.35in /  1027.7hPa WSW 15.0mph /  24.1km/h 20.0mph /  32.2km/h 35% 0.00in /  0mm 615.00 W/m2
14:01 57.7 °F /  14.3 °C 30.3 °F /  -0.9 °C 30.35in /  1027.7hPa South 16.0mph /  25.7km/h 22.0mph /  35.4km/h 35% 0.00in /  0mm 613.00 W/m2
14:02 57.7 °F /  14.3 °C 29.5 °F /  -1.4 °C 30.35in /  1027.7hPa SW 12.0mph /  19.3km/h 22.0mph /  35.4km/h 34% 0.00in /  0mm 591.00 W/m2
14:04 57.8 °F /  14.3 °C 29.6 °F /  -1.3 °C 30.35in /  1027.7hPa SW 11.0mph /  17.7km/h 22.0mph /  35.4km/h 34% 0.00in /  0mm 640.00 W/m2
14:05 57.8 °F /  14.3 °C 29.6 °F /  -1.3 °C 30.35in /  1027.7hPa SW 10.0mph /  16.1km/h 22.0mph /  35.4km/h 34% 0.00in /  0mm 640.00 W/m2
14:06 57.8 °F /  14.3 °C 30.4 °F /  -0.9 °C 30.35in /  1027.7hPa SSW 8.0mph /  12.9km/h 22.0mph /  35.4km/h 35% 0.00in /  0mm 624.00 W/m2
14:07 57.8 °F /  14.3 °C 30.4 °F /  -0.9 °C 30.35in /  1027.7hPa SSE 20.0mph /  32.2km/h 22.0mph /  35.4km/h 35% 0.00in /  0mm 564.00 W/m2
14:09 58.0 °F /  14.4 °C 30.5 °F /  -0.8 °C 30.35in /  1027.7hPa SW 17.0mph /  27.4km/h 22.0mph /  35.4km/h 35% 0.00in /  0mm 650.00 W/m2
14:10 58.1 °F /  14.5 °C 30.6 °F /  -0.8 °C 30.35in /  1027.7hPa SW 14.0mph /  22.5km/h 22.0mph /  35.4km/h 35% 0.00in /  0mm 650.00 W/m2
14:11 58.0 °F /  14.4 °C 29.8 °F /  -1.2 °C 30.35in /  1027.7hPa WSW 22.0mph /  35.4km/h 22.0mph /  35.4km/h 34% 0.00in /  0mm 656.00 W/m2
14:12 58.0 °F /  14.4 °C 29.8 °F /  -1.2 °C 30.35in /  1027.7hPa SSW 14.0mph /  22.5km/h 22.0mph /  35.4km/h 34% 0.00in /  0mm 612.00 W/m2
14:15 57.8 °F /  14.3 °C 29.6 °F /  -1.3 °C 30.35in /  1027.7hPa SW 18.0mph /  29km/h 22.0mph /  35.4km/h 34% 0.00in /  0mm 649.00 W/m2
14:17 57.7 °F /  14.3 °C 29.5 °F /  -1.4 °C 30.34in /  1027.3hPa SSW 9.0mph /  14.5km/h 24.0mph /  38.6km/h 34% 0.00in /  0mm 640.00 W/m2
14:18 57.8 °F /  14.3 °C 29.6 °F /  -1.3 °C 30.35in /  1027.7hPa SW 21.0mph /  33.8km/h 24.0mph /  38.6km/h 34% 0.00in /  0mm 642.00 W/m2
14:20 58.2 °F /  14.6 °C 30.7 °F /  -0.7 °C 30.34in /  1027.3hPa SSW 10.0mph /  16.1km/h 12.0mph /  19.3km/h 35% 0.00in /  0mm 605.00 W/m2
14:21 58.4 °F /  14.7 °C 30.2 °F /  -1 °C 30.34in /  1027.3hPa SW 16.0mph /  25.7km/h 20.0mph /  32.2km/h 34% 0.00in /  0mm 566.00 W/m2
14:22 58.4 °F /  14.7 °C 29.4 °F /  -1.4 °C 30.34in /  1027.3hPa SW 11.0mph /  17.7km/h 20.0mph /  32.2km/h 33% 0.00in /  0mm 615.00 W/m2
14:23 58.3 °F /  14.6 °C 29.3 °F /  -1.5 °C 30.34in /  1027.3hPa WSW 20.0mph /  32.2km/h 20.0mph /  32.2km/h 33% 0.00in /  0mm 629.00 W/m2
14:25 58.2 °F /  14.6 °C 30.0 °F /  -1.1 °C 30.34in /  1027.3hPa SSW 17.0mph /  27.4km/h 22.0mph /  35.4km/h 34% 0.00in /  0mm 619.00 W/m2
14:26 58.2 °F /  14.6 °C 29.3 °F /  -1.5 °C 30.34in /  1027.3hPa WSW 20.0mph /  32.2km/h 25.0mph /  40.2km/h 33% 0.00in /  0mm 548.00 W/m2
14:27 58.2 °F /  14.6 °C 29.3 °F /  -1.5 °C 30.34in /  1027.3hPa South 13.0mph /  20.9km/h 25.0mph /  40.2km/h 33% 0.00in /  0mm 524.00 W/m2
14:28 58.1 °F /  14.5 °C 29.2 °F /  -1.6 °C 30.34in /  1027.3hPa SW 14.0mph /  22.5km/h 25.0mph /  40.2km/h 33% 0.00in /  0mm 552.00 W/m2
14:31 58.0 °F /  14.4 °C 29.1 °F /  -1.6 °C 30.34in /  1027.3hPa SW 13.0mph /  20.9km/h 20.0mph /  32.2km/h 33% 0.00in /  0mm 585.00 W/m2
14:32 58.0 °F /  14.4 °C 29.1 °F /  -1.6 °C 30.33in /  1027hPa SW 13.0mph /  20.9km/h 20.0mph /  32.2km/h 33% 0.00in /  0mm 571.00 W/m2
14:33 58.1 °F /  14.5 °C 29.2 °F /  -1.6 °C 30.33in /  1027hPa WSW 13.0mph /  20.9km/h 20.0mph /  32.2km/h 33% 0.00in /  0mm 555.00 W/m2
14:36 58.2 °F /  14.6 °C 29.3 °F /  -1.5 °C 30.33in /  1027hPa SSW 13.0mph /  20.9km/h 23.0mph /  37km/h 33% 0.00in /  0mm 592.00 W/m2
14:37 58.2 °F /  14.6 °C 29.3 °F /  -1.5 °C 30.33in /  1027hPa WSW 24.0mph /  38.6km/h 26.0mph /  41.8km/h 33% 0.00in /  0mm 564.00 W/m2
14:38 58.3 °F /  14.6 °C 29.3 °F /  -1.5 °C 30.33in /  1027hPa SW 15.0mph /  24.1km/h 26.0mph /  41.8km/h 33% 0.00in /  0mm 566.00 W/m2
14:39 58.3 °F /  14.6 °C 29.3 °F /  -1.5 °C 30.34in /  1027.3hPa WSW 15.0mph /  24.1km/h 26.0mph /  41.8km/h 33% 0.00in /  0mm 517.00 W/m2
14:42 58.2 °F /  14.6 °C 29.3 °F /  -1.5 °C 30.33in /  1027hPa SSW 18.0mph /  29km/h 18.0mph /  29km/h 33% 0.00in /  0mm 380.00 W/m2
14:43 58.3 °F /  14.6 °C 29.3 °F /  -1.5 °C 30.33in /  1027hPa SW 21.0mph /  33.8km/h 21.0mph /  33.8km/h 33% 0.00in /  0mm 406.00 W/m2
14:44 58.3 °F /  14.6 °C 30.1 °F /  -1.1 °C 30.33in /  1027hPa SSW 19.0mph /  30.6km/h 21.0mph /  33.8km/h 34% 0.00in /  0mm 406.00 W/m2
14:47 58.4 °F /  14.7 °C 30.2 °F /  -1 °C 30.33in /  1027hPa SSW 22.0mph /  35.4km/h 25.0mph /  40.2km/h 34% 0.00in /  0mm 332.00 W/m2
14:48 58.4 °F /  14.7 °C 29.4 °F /  -1.4 °C 30.33in /  1027hPa SW 12.0mph /  19.3km/h 25.0mph /  40.2km/h 33% 0.00in /  0mm 332.00 W/m2
14:49 58.3 °F /  14.6 °C 29.3 °F /  -1.5 °C 30.33in /  1027hPa South 9.0mph /  14.5km/h 25.0mph /  40.2km/h 33% 0.00in /  0mm 234.00 W/m2
14:51 58.4 °F /  14.7 °C 30.2 °F /  -1 °C 30.33in /  1027hPa SSW 6.0mph /  9.7km/h 15.0mph /  24.1km/h 34% 0.00in /  0mm 169.00 W/m2
14:52 58.5 °F /  14.7 °C 30.2 °F /  -1 °C 30.33in /  1027hPa SW 14.0mph /  22.5km/h 15.0mph /  24.1km/h 34% 0.00in /  0mm 137.00 W/m2
14:53 58.5 °F /  14.7 °C 30.2 °F /  -1 °C 30.32in /  1026.6hPa South 16.0mph /  25.7km/h 17.0mph /  27.4km/h 34% 0.00in /  0mm 151.00 W/m2
14:55 58.5 °F /  14.7 °C 30.2 °F /  -1 °C 30.32in /  1026.6hPa SSW 6.0mph /  9.7km/h 18.0mph /  29km/h 34% 0.00in /  0mm 120.00 W/m2
14:56 58.5 °F /  14.7 °C 30.2 °F /  -1 °C 30.32in /  1026.6hPa SSW 10.0mph /  16.1km/h 18.0mph /  29km/h 34% 0.00in /  0mm 97.00 W/m2
14:58 58.6 °F /  14.8 °C 29.6 °F /  -1.3 °C 30.32in /  1026.6hPa SW 14.0mph /  22.5km/h 21.0mph /  33.8km/h 33% 0.00in /  0mm 90.00 W/m2
14:59 58.6 °F /  14.8 °C 29.6 °F /  -1.3 °C 30.32in /  1026.6hPa SW 20.0mph /  32.2km/h 26.0mph /  41.8km/h 33% 0.00in /  0mm 76.00 W/m2
15:01 58.5 °F /  14.7 °C 28.8 °F /  -1.8 °C 30.32in /  1026.6hPa SW 12.0mph /  19.3km/h 25.0mph /  40.2km/h 32% 0.00in /  0mm 97.00 W/m2
15:03 58.4 °F /  14.7 °C 29.4 °F /  -1.4 °C 30.32in /  1026.6hPa South 9.0mph /  14.5km/h 25.0mph /  40.2km/h 33% 0.00in /  0mm 216.00 W/m2
15:05 58.4 °F /  14.7 °C 29.4 °F /  -1.4 °C 30.32in /  1026.6hPa South 18.0mph /  29km/h 25.0mph /  40.2km/h 33% 0.00in /  0mm 281.00 W/m2
15:06 58.4 °F /  14.7 °C 29.4 °F /  -1.4 °C 30.32in /  1026.6hPa SSW 10.0mph /  16.1km/h 25.0mph /  40.2km/h 33% 0.00in /  0mm 209.00 W/m2
15:07 58.4 °F /  14.7 °C 29.4 °F /  -1.4 °C 30.32in /  1026.6hPa SW 12.0mph /  19.3km/h 25.0mph /  40.2km/h 33% 0.00in /  0mm 209.00 W/m2
15:08 58.4 °F /  14.7 °C 29.4 °F /  -1.4 °C 30.32in /  1026.6hPa SW 17.0mph /  27.4km/h 25.0mph /  40.2km/h 33% 0.00in /  0mm 316.00 W/m2
15:10 58.6 °F /  14.8 °C 30.3 °F /  -0.9 °C 30.32in /  1026.6hPa SW 21.0mph /  33.8km/h 26.0mph /  41.8km/h 34% 0.00in /  0mm 155.00 W/m2
15:11 58.6 °F /  14.8 °C 29.6 °F /  -1.3 °C 30.32in /  1026.6hPa South 16.0mph /  25.7km/h 26.0mph /  41.8km/h 33% 0.00in /  0mm 227.00 W/m2
15:12 58.6 °F /  14.8 °C 29.6 °F /  -1.3 °C 30.32in /  1026.6hPa WSW 11.0mph /  17.7km/h 26.0mph /  41.8km/h 33% 0.00in /  0mm 171.00 W/m2
15:13 58.5 °F /  14.7 °C 30.2 °F /  -1 °C 30.32in /  1026.6hPa South 13.0mph /  20.9km/h 26.0mph /  41.8km/h 34% 0.00in /  0mm 155.00 W/m2
15:15 58.5 °F /  14.7 °C 29.5 °F /  -1.4 °C 30.31in /  1026.3hPa WSW 17.0mph /  27.4km/h 26.0mph /  41.8km/h 33% 0.00in /  0mm 118.00 W/m2
15:16 58.5 °F /  14.7 °C 29.5 °F /  -1.4 °C 30.31in /  1026.3hPa South 16.0mph /  25.7km/h 26.0mph /  41.8km/h 33% 0.00in /  0mm 234.00 W/m2
15:17 58.5 °F /  14.7 °C 29.5 °F /  -1.4 °C 30.31in /  1026.3hPa South 23.0mph /  37km/h 26.0mph /  41.8km/h 33% 0.00in /  0mm 216.00 W/m2
15:18 58.5 °F /  14.7 °C 28.8 °F /  -1.8 °C 30.31in /  1026.3hPa SE 5.0mph /  8km/h 26.0mph /  41.8km/h 32% 0.00in /  0mm 223.00 W/m2
15:20 58.4 °F /  14.7 °C 28.7 °F /  -1.8 °C 30.31in /  1026.3hPa South 12.0mph /  19.3km/h 27.0mph /  43.5km/h 32% 0.00in /  0mm 169.00 W/m2
15:22 58.4 °F /  14.7 °C 29.4 °F /  -1.4 °C 30.31in /  1026.3hPa SW 15.0mph /  24.1km/h 27.0mph /  43.5km/h 33% 0.00in /  0mm 230.00 W/m2
15:23 58.4 °F /  14.7 °C 29.4 °F /  -1.4 °C 30.31in /  1026.3hPa WSW 10.0mph /  16.1km/h 27.0mph /  43.5km/h 33% 0.00in /  0mm 141.00 W/m2
15:26 58.4 °F /  14.7 °C 28.7 °F /  -1.8 °C 30.31in /  1026.3hPa SW 18.0mph /  29km/h 27.0mph /  43.5km/h 32% 0.00in /  0mm 186.00 W/m2
15:27 58.4 °F /  14.7 °C 28.7 °F /  -1.8 °C 30.31in /  1026.3hPa SW 17.0mph /  27.4km/h 27.0mph /  43.5km/h 32% 0.00in /  0mm 216.00 W/m2
15:28 58.3 °F /  14.6 °C 29.3 °F /  -1.5 °C 30.31in /  1026.3hPa SW 16.0mph /  25.7km/h 27.0mph /  43.5km/h 33% 0.00in /  0mm 169.00 W/m2
15:29 58.3 °F /  14.6 °C 29.3 °F /  -1.5 °C 30.31in /  1026.3hPa SSW 20.0mph /  32.2km/h 27.0mph /  43.5km/h 33% 0.00in /  0mm 156.00 W/m2
15:32 58.3 °F /  14.6 °C 29.3 °F /  -1.5 °C 30.31in /  1026.3hPa South 11.0mph /  17.7km/h 22.0mph /  35.4km/h 33% 0.00in /  0mm 156.00 W/m2
15:33 58.4 °F /  14.7 °C 28.7 °F /  -1.8 °C 30.30in /  1026hPa SSW 15.0mph /  24.1km/h 22.0mph /  35.4km/h 32% 0.00in /  0mm 95.00 W/m2
15:34 58.4 °F /  14.7 °C 28.7 °F /  -1.8 °C 30.30in /  1026hPa WSW 11.0mph /  17.7km/h 22.0mph /  35.4km/h 32% 0.00in /  0mm 95.00 W/m2
15:37 58.4 °F /  14.7 °C 29.4 °F /  -1.4 °C 30.30in /  1026hPa South 9.0mph /  14.5km/h 27.0mph /  43.5km/h 33% 0.00in /  0mm 47.00 W/m2
15:39 58.4 °F /  14.7 °C 29.4 °F /  -1.4 °C 30.30in /  1026hPa SW 17.0mph /  27.4km/h 27.0mph /  43.5km/h 33% 0.00in /  0mm 44.00 W/m2
15:43 58.4 °F /  14.7 °C 29.4 °F /  -1.4 °C 30.30in /  1026hPa SSW 7.0mph /  11.3km/h 20.0mph /  32.2km/h 33% 0.00in /  0mm 174.00 W/m2
15:44 58.5 °F /  14.7 °C 29.5 °F /  -1.4 °C 30.30in /  1026hPa SSW 13.0mph /  20.9km/h 20.0mph /  32.2km/h 33% 0.00in /  0mm 151.00 W/m2
15:45 58.5 °F /  14.7 °C 29.5 °F /  -1.4 °C 30.30in /  1026hPa SW 15.0mph /  24.1km/h 20.0mph /  32.2km/h 33% 0.00in /  0mm 153.00 W/m2
15:48 58.7 °F /  14.8 °C 29.7 °F /  -1.3 °C 30.30in /  1026hPa SW 14.0mph /  22.5km/h 22.0mph /  35.4km/h 33% 0.00in /  0mm 142.00 W/m2
15:49 58.7 °F /  14.8 °C 29.7 °F /  -1.3 °C 30.30in /  1026hPa SSW 22.0mph /  35.4km/h 22.0mph /  35.4km/h 33% 0.00in /  0mm 171.00 W/m2
15:50 58.6 °F /  14.8 °C 29.6 °F /  -1.3 °C 30.30in /  1026hPa SSE 10.0mph /  16.1km/h 16.0mph /  25.7km/h 33% 0.00in /  0mm 149.00 W/m2
15:53 58.6 °F /  14.8 °C 29.6 °F /  -1.3 °C 30.30in /  1026hPa SSE 13.0mph /  20.9km/h 21.0mph /  33.8km/h 33% 0.00in /  0mm 104.00 W/m2
15:54 58.6 °F /  14.8 °C 29.6 °F /  -1.3 °C 30.30in /  1026hPa South 12.0mph /  19.3km/h 21.0mph /  33.8km/h 33% 0.00in /  0mm 104.00 W/m2
15:55 58.6 °F /  14.8 °C 29.6 °F /  -1.3 °C 30.30in /  1026hPa South 12.0mph /  19.3km/h 21.0mph /  33.8km/h 33% 0.00in /  0mm 113.00 W/m2
15:58 58.7 °F /  14.8 °C 28.9 °F /  -1.7 °C 30.30in /  1026hPa South 13.0mph /  20.9km/h 22.0mph /  35.4km/h 32% 0.00in /  0mm 139.00 W/m2
15:59 58.7 °F /  14.8 °C 28.9 °F /  -1.7 °C 30.30in /  1026hPa SSE 10.0mph /  16.1km/h 22.0mph /  35.4km/h 32% 0.00in /  0mm 165.00 W/m2
16:00 58.6 °F /  14.8 °C 29.6 °F /  -1.3 °C 30.30in /  1026hPa SW 13.0mph /  20.9km/h 21.0mph /  33.8km/h 33% 0.00in /  0mm 65.00 W/m2
16:04 58.6 °F /  14.8 °C 29.6 °F /  -1.3 °C 30.30in /  1026hPa SSE 17.0mph /  27.4km/h 26.0mph /  41.8km/h 33% 0.00in /  0mm 98.00 W/m2
16:06 58.7 °F /  14.8 °C 29.7 °F /  -1.3 °C 30.29in /  1025.6hPa SSW 14.0mph /  22.5km/h 26.0mph /  41.8km/h 33% 0.00in /  0mm 104.00 W/m2
16:09 58.7 °F /  14.8 °C 29.7 °F /  -1.3 °C 30.29in /  1025.6hPa South 13.0mph /  20.9km/h 26.0mph /  41.8km/h 33% 0.00in /  0mm 116.00 W/m2
16:10 58.7 °F /  14.8 °C 29.7 °F /  -1.3 °C 30.29in /  1025.6hPa SSW 14.0mph /  22.5km/h 15.0mph /  24.1km/h 33% 0.00in /  0mm 158.00 W/m2
16:11 58.7 °F /  14.8 °C 29.7 °F /  -1.3 °C 30.29in /  1025.6hPa SW 10.0mph /  16.1km/h 17.0mph /  27.4km/h 33% 0.00in /  0mm 163.00 W/m2
16:14 58.7 °F /  14.8 °C 29.7 °F /  -1.3 °C 30.29in /  1025.6hPa SW 18.0mph /  29km/h 19.0mph /  30.6km/h 33% 0.00in /  0mm 134.00 W/m2
16:15 58.7 °F /  14.8 °C 29.7 °F /  -1.3 °C 30.30in /  1026hPa South 18.0mph /  29km/h 23.0mph /  37km/h 33% 0.00in /  0mm 127.00 W/m2
16:16 58.7 °F /  14.8 °C 29.7 °F /  -1.3 °C 30.30in /  1026hPa SW 9.0mph /  14.5km/h 23.0mph /  37km/h 33% 0.00in /  0mm 88.00 W/m2
16:20 58.7 °F /  14.8 °C 29.7 °F /  -1.3 °C 30.29in /  1025.6hPa South 10.0mph /  16.1km/h 19.0mph /  30.6km/h 33% 0.00in /  0mm 107.00 W/m2
16:21 58.7 °F /  14.8 °C 29.7 °F /  -1.3 °C 30.30in /  1026hPa South 10.0mph /  16.1km/h 20.0mph /  32.2km/h 33% 0.00in /  0mm 72.00 W/m2
16:25 58.5 °F /  14.7 °C 28.8 °F /  -1.8 °C 30.30in /  1026hPa SSW 17.0mph /  27.4km/h 22.0mph /  35.4km/h 32% 0.00in /  0mm 107.00 W/m2
16:26 58.5 °F /  14.7 °C 28.8 °F /  -1.8 °C 30.30in /  1026hPa SW 13.0mph /  20.9km/h 22.0mph /  35.4km/h 32% 0.00in /  0mm 107.00 W/m2
16:27 58.5 °F /  14.7 °C 28.8 °F /  -1.8 °C 30.29in /  1025.6hPa SW 6.0mph /  9.7km/h 22.0mph /  35.4km/h 32% 0.00in /  0mm 90.00 W/m2
16:30 58.4 °F /  14.7 °C 29.4 °F /  -1.4 °C 30.30in /  1026hPa SW 13.0mph /  20.9km/h 17.0mph /  27.4km/h 33% 0.00in /  0mm 88.00 W/m2
16:31 58.5 °F /  14.7 °C 29.5 °F /  -1.4 °C 30.30in /  1026hPa SSE 12.0mph /  19.3km/h 19.0mph /  30.6km/h 33% 0.00in /  0mm 69.00 W/m2
16:32 58.4 °F /  14.7 °C 29.4 °F /  -1.4 °C 30.29in /  1025.6hPa South 14.0mph /  22.5km/h 19.0mph /  30.6km/h 33% 0.00in /  0mm 70.00 W/m2
16:35 58.5 °F /  14.7 °C 29.5 °F /  -1.4 °C 30.29in /  1025.6hPa South 12.0mph /  19.3km/h 22.0mph /  35.4km/h 33% 0.00in /  0mm 76.00 W/m2
16:36 58.4 °F /  14.7 °C 29.4 °F /  -1.4 °C 30.29in /  1025.6hPa SW 11.0mph /  17.7km/h 22.0mph /  35.4km/h 33% 0.00in /  0mm 63.00 W/m2
16:37 58.4 °F /  14.7 °C 29.4 °F /  -1.4 °C 30.29in /  1025.6hPa SW 6.0mph /  9.7km/h 22.0mph /  35.4km/h 33% 0.00in /  0mm 37.00 W/m2
16:38 58.4 °F /  14.7 °C 29.4 °F /  -1.4 °C 30.29in /  1025.6hPa SSW 9.0mph /  14.5km/h 22.0mph /  35.4km/h 33% 0.00in /  0mm 42.00 W/m2
16:41 58.3 °F /  14.6 °C 29.3 °F /  -1.5 °C 30.29in /  1025.6hPa SSW 15.0mph /  24.1km/h 18.0mph /  29km/h 33% 0.00in /  0mm 79.00 W/m2
16:42 58.3 °F /  14.6 °C 29.3 °F /  -1.5 °C 30.29in /  1025.6hPa SW 20.0mph /  32.2km/h 20.0mph /  32.2km/h 33% 0.00in /  0mm 107.00 W/m2
16:44 58.2 °F /  14.6 °C 30.0 °F /  -1.1 °C 30.29in /  1025.6hPa SW 11.0mph /  17.7km/h 24.0mph /  38.6km/h 34% 0.00in /  0mm 104.00 W/m2
16:46 58.2 °F /  14.6 °C 30.0 °F /  -1.1 °C 30.29in /  1025.6hPa SSW 8.0mph /  12.9km/h 25.0mph /  40.2km/h 34% 0.00in /  0mm 90.00 W/m2
16:47 58.2 °F /  14.6 °C 30.0 °F /  -1.1 °C 30.29in /  1025.6hPa SW 7.0mph /  11.3km/h 25.0mph /  40.2km/h 34% 0.00in /  0mm 86.00 W/m2
16:48 58.2 °F /  14.6 °C 30.0 °F /  -1.1 °C 30.28in /  1025.3hPa SW 7.0mph /  11.3km/h 25.0mph /  40.2km/h 34% 0.00in /  0mm 91.00 W/m2
16:49 58.2 °F /  14.6 °C 30.0 °F /  -1.1 °C 30.28in /  1025.3hPa SW 12.0mph /  19.3km/h 25.0mph /  40.2km/h 34% 0.00in /  0mm 98.00 W/m2
16:51 58.2 °F /  14.6 °C 30.0 °F /  -1.1 °C 30.28in /  1025.3hPa SSW 17.0mph /  27.4km/h 20.0mph /  32.2km/h 34% 0.00in /  0mm 79.00 W/m2
16:52 58.2 °F /  14.6 °C 30.0 °F /  -1.1 °C 30.29in /  1025.6hPa SSW 7.0mph /  11.3km/h 20.0mph /  32.2km/h 34% 0.00in /  0mm 81.00 W/m2
16:53 58.2 °F /  14.6 °C 30.0 °F /  -1.1 °C 30.28in /  1025.3hPa South 11.0mph /  17.7km/h 20.0mph /  32.2km/h 34% 0.00in /  0mm 95.00 W/m2
16:54 58.2 °F /  14.6 °C 30.0 °F /  -1.1 °C 30.28in /  1025.3hPa South 11.0mph /  17.7km/h 20.0mph /  32.2km/h 34% 0.00in /  0mm 104.00 W/m2
16:56 58.1 °F /  14.5 °C 30.6 °F /  -0.8 °C 30.28in /  1025.3hPa South 13.0mph /  20.9km/h 20.0mph /  32.2km/h 35% 0.00in /  0mm 91.00 W/m2
16:57 58.0 °F /  14.4 °C 30.5 °F /  -0.8 °C 30.28in /  1025.3hPa SW 8.0mph /  12.9km/h 20.0mph /  32.2km/h 35% 0.00in /  0mm 76.00 W/m2
16:58 57.9 °F /  14.4 °C 30.4 °F /  -0.9 °C 30.28in /  1025.3hPa SSW 16.0mph /  25.7km/h 20.0mph /  32.2km/h 35% 0.00in /  0mm 76.00 W/m2
16:59 57.8 °F /  14.3 °C 30.4 °F /  -0.9 °C 30.28in /  1025.3hPa South 10.0mph /  16.1km/h 20.0mph /  32.2km/h 35% 0.00in /  0mm 86.00 W/m2
17:01 57.7 °F /  14.3 °C 30.3 °F /  -0.9 °C 30.28in /  1025.3hPa SW 9.0mph /  14.5km/h 15.0mph /  24.1km/h 35% 0.00in /  0mm 91.00 W/m2
17:02 57.6 °F /  14.2 °C 30.2 °F /  -1 °C 30.28in /  1025.3hPa SW 11.0mph /  17.7km/h 15.0mph /  24.1km/h 35% 0.00in /  0mm 88.00 W/m2
17:03 57.5 °F /  14.2 °C 30.1 °F /  -1.1 °C 30.28in /  1025.3hPa SSE 11.0mph /  17.7km/h 16.0mph /  25.7km/h 35% 0.00in /  0mm 81.00 W/m2
17:04 57.5 °F /  14.2 °C 30.1 °F /  -1.1 °C 30.28in /  1025.3hPa SSW 12.0mph /  19.3km/h 16.0mph /  25.7km/h 35% 0.00in /  0mm 60.00 W/m2
17:06 57.4 °F /  14.1 °C 30.0 °F /  -1.1 °C 30.28in /  1025.3hPa SSW 15.0mph /  24.1km/h 16.0mph /  25.7km/h 35% 0.00in /  0mm 26.00 W/m2
17:07 57.3 °F /  14.1 °C 29.9 °F /  -1.2 °C 30.28in /  1025.3hPa SSW 12.0mph /  19.3km/h 16.0mph /  25.7km/h 35% 0.00in /  0mm 26.00 W/m2
17:08 57.3 °F /  14.1 °C 29.9 °F /  -1.2 °C 30.28in /  1025.3hPa SSE 10.0mph /  16.1km/h 16.0mph /  25.7km/h 35% 0.00in /  0mm 26.00 W/m2
17:09 57.3 °F /  14.1 °C 30.6 °F /  -0.8 °C 30.28in /  1025.3hPa SSW 9.0mph /  14.5km/h 16.0mph /  25.7km/h 36% 0.00in /  0mm 26.00 W/m2
17:10 57.2 °F /  14 °C 30.5 °F /  -0.8 °C 30.28in /  1025.3hPa SSW 6.0mph /  9.7km/h 16.0mph /  25.7km/h 36% 0.00in /  0mm 26.00 W/m2
17:11 57.1 °F /  13.9 °C 30.4 °F /  -0.9 °C 30.28in /  1025.3hPa SSW 12.0mph /  19.3km/h 13.0mph /  20.9km/h 36% 0.00in /  0mm 25.00 W/m2
17:12 57.0 °F /  13.9 °C 30.3 °F /  -0.9 °C 30.28in /  1025.3hPa SSW 8.0mph /  12.9km/h 16.0mph /  25.7km/h 36% 0.00in /  0mm 25.00 W/m2
17:13 57.0 °F /  13.9 °C 30.3 °F /  -0.9 °C 30.28in /  1025.3hPa SSW 12.0mph /  19.3km/h 16.0mph /  25.7km/h 36% 0.00in /  0mm 25.00 W/m2
17:15 56.8 °F /  13.8 °C 30.1 °F /  -1.1 °C 30.28in /  1025.3hPa SSW 7.0mph /  11.3km/h 16.0mph /  25.7km/h 36% 0.00in /  0mm 25.00 W/m2
17:17 56.7 °F /  13.7 °C 30.1 °F /  -1.1 °C 30.28in /  1025.3hPa SW 13.0mph /  20.9km/h 16.0mph /  25.7km/h 36% 0.00in /  0mm 23.00 W/m2
17:19 56.5 °F /  13.6 °C 29.9 °F /  -1.2 °C 30.28in /  1025.3hPa SSW 11.0mph /  17.7km/h 16.0mph /  25.7km/h 36% 0.00in /  0mm 23.00 W/m2
17:20 56.5 °F /  13.6 °C 30.6 °F /  -0.8 °C 30.28in /  1025.3hPa SSW 12.0mph /  19.3km/h 16.0mph /  25.7km/h 37% 0.00in /  0mm 21.00 W/m2
17:21 56.4 °F /  13.6 °C 30.5 °F /  -0.8 °C 30.28in /  1025.3hPa South 7.0mph /  11.3km/h 11.0mph /  17.7km/h 37% 0.00in /  0mm 21.00 W/m2
17:22 56.4 °F /  13.6 °C 30.5 °F /  -0.8 °C 30.28in /  1025.3hPa SSW 6.0mph /  9.7km/h 11.0mph /  17.7km/h 37% 0.00in /  0mm 21.00 W/m2
17:25 56.2 °F /  13.4 °C 30.3 °F /  -0.9 °C 30.28in /  1025.3hPa SSW 6.0mph /  9.7km/h 15.0mph /  24.1km/h 37% 0.00in /  0mm 19.00 W/m2
17:26 56.2 °F /  13.4 °C 30.3 °F /  -0.9 °C 30.28in /  1025.3hPa South 8.0mph /  12.9km/h 15.0mph /  24.1km/h 37% 0.00in /  0mm 19.00 W/m2
17:27 56.1 °F /  13.4 °C 30.2 °F /  -1 °C 30.28in /  1025.3hPa SSW 14.0mph /  22.5km/h 15.0mph /  24.1km/h 37% 0.00in /  0mm 19.00 W/m2
17:30 56.0 °F /  13.3 °C 30.1 °F /  -1.1 °C 30.28in /  1025.3hPa SSW 7.0mph /  11.3km/h 15.0mph /  24.1km/h 37% 0.00in /  0mm 23.00 W/m2
17:31 55.9 °F /  13.3 °C 30.0 °F /  -1.1 °C 30.28in /  1025.3hPa SSE 6.0mph /  9.7km/h 14.0mph /  22.5km/h 37% 0.00in /  0mm 21.00 W/m2
17:32 55.9 °F /  13.3 °C 30.0 °F /  -1.1 °C 30.28in /  1025.3hPa SSW 9.0mph /  14.5km/h 14.0mph /  22.5km/h 37% 0.00in /  0mm 18.00 W/m2
17:35 55.6 °F /  13.1 °C 30.4 °F /  -0.9 °C 30.28in /  1025.3hPa South 9.0mph /  14.5km/h 14.0mph /  22.5km/h 38% 0.00in /  0mm 14.00 W/m2
17:37 55.5 °F /  13.1 °C 30.3 °F /  -0.9 °C 30.28in /  1025.3hPa South 6.0mph /  9.7km/h 14.0mph /  22.5km/h 38% 0.00in /  0mm 12.00 W/m2
17:40 55.2 °F /  12.9 °C 30.1 °F /  -1.1 °C 30.28in /  1025.3hPa South 7.0mph /  11.3km/h 14.0mph /  22.5km/h 38% 0.00in /  0mm 11.00 W/m2
17:41 55.2 °F /  12.9 °C 30.7 °F /  -0.7 °C 30.28in /  1025.3hPa South 16.0mph /  25.7km/h 16.0mph /  25.7km/h 39% 0.00in /  0mm 11.00 W/m2
17:42 55.1 °F /  12.8 °C 30.0 °F /  -1.1 °C 30.28in /  1025.3hPa SSW 5.0mph /  8km/h 18.0mph /  29km/h 38% 0.00in /  0mm 11.00 W/m2
17:43 55.1 °F /  12.8 °C 30.0 °F /  -1.1 °C 30.28in /  1025.3hPa SSW 6.0mph /  9.7km/h 18.0mph /  29km/h 38% 0.00in /  0mm 11.00 W/m2
17:45 54.9 °F /  12.7 °C 30.4 °F /  -0.9 °C 30.28in /  1025.3hPa SSW 5.0mph /  8km/h 18.0mph /  29km/h 39% 0.00in /  0mm 9.00 W/m2
17:47 54.8 °F /  12.7 °C 30.3 °F /  -0.9 °C 30.28in /  1025.3hPa South 11.0mph /  17.7km/h 18.0mph /  29km/h 39% 0.00in /  0mm 7.00 W/m2
17:48 54.7 °F /  12.6 °C 30.2 °F /  -1 °C 30.28in /  1025.3hPa South 7.0mph /  11.3km/h 18.0mph /  29km/h 39% 0.00in /  0mm 7.00 W/m2
17:50 54.6 °F /  12.6 °C 30.2 °F /  -1 °C 30.28in /  1025.3hPa South 11.0mph /  17.7km/h 11.0mph /  17.7km/h 39% 0.00in /  0mm 5.00 W/m2
17:52 54.4 °F /  12.4 °C 30.0 °F /  -1.1 °C 30.28in /  1025.3hPa SSW 9.0mph /  14.5km/h 17.0mph /  27.4km/h 39% 0.00in /  0mm 5.00 W/m2
17:53 54.3 °F /  12.4 °C 29.9 °F /  -1.2 °C 30.28in /  1025.3hPa South 10.0mph /  16.1km/h 17.0mph /  27.4km/h 39% 0.00in /  0mm 0.00 W/m2
17:56 54.1 °F /  12.3 °C 30.3 °F /  -0.9 °C 30.28in /  1025.3hPa South 7.0mph /  11.3km/h 17.0mph /  27.4km/h 40% 0.00in /  0mm 0.00 W/m2
17:57 53.9 °F /  12.2 °C 30.1 °F /  -1.1 °C 30.28in /  1025.3hPa SSW 9.0mph /  14.5km/h 17.0mph /  27.4km/h 40% 0.00in /  0mm 0.00 W/m2
17:58 53.9 °F /  12.2 °C 30.1 °F /  -1.1 °C 30.28in /  1025.3hPa South 4.0mph /  6.4km/h 17.0mph /  27.4km/h 40% 0.00in /  0mm 0.00 W/m2
17:59 53.8 °F /  12.1 °C 30.1 °F /  -1.1 °C 30.28in /  1025.3hPa SSW 8.0mph /  12.9km/h 17.0mph /  27.4km/h 40% 0.00in /  0mm 0.00 W/m2
18:01 53.6 °F /  12 °C 29.9 °F /  -1.2 °C 30.28in /  1025.3hPa South 6.0mph /  9.7km/h 13.0mph /  20.9km/h 40% 0.00in /  0mm 0.00 W/m2
18:03 53.5 °F /  11.9 °C 29.8 °F /  -1.2 °C 30.28in /  1025.3hPa South 6.0mph /  9.7km/h 13.0mph /  20.9km/h 40% 0.00in /  0mm 0.00 W/m2
18:04 53.4 °F /  11.9 °C 30.3 °F /  -0.9 °C 30.28in /  1025.3hPa South 7.0mph /  11.3km/h 13.0mph /  20.9km/h 41% 0.00in /  0mm 0.00 W/m2
18:06 53.3 °F /  11.8 °C 30.2 °F /  -1 °C 30.28in /  1025.3hPa South 14.0mph /  22.5km/h 16.0mph /  25.7km/h 41% 0.00in /  0mm 0.00 W/m2
18:07 53.2 °F /  11.8 °C 30.1 °F /  -1.1 °C 30.28in /  1025.3hPa South 4.0mph /  6.4km/h 16.0mph /  25.7km/h 41% 0.00in /  0mm 0.00 W/m2
18:08 53.1 °F /  11.7 °C 30.0 °F /  -1.1 °C 30.28in /  1025.3hPa South 11.0mph /  17.7km/h 16.0mph /  25.7km/h 41% 0.00in /  0mm 0.00 W/m2
18:09 53.0 °F /  11.7 °C 30.0 °F /  -1.1 °C 30.28in /  1025.3hPa South 9.0mph /  14.5km/h 16.0mph /  25.7km/h 41% 0.00in /  0mm 0.00 W/m2
18:11 52.8 °F /  11.6 °C 30.4 °F /  -0.9 °C 30.27in /  1024.9hPa South 6.0mph /  9.7km/h 12.0mph /  19.3km/h 42% 0.00in /  0mm 0.00 W/m2
18:12 52.7 °F /  11.5 °C 30.3 °F /  -0.9 °C 30.28in /  1025.3hPa SSW 9.0mph /  14.5km/h 12.0mph /  19.3km/h 42% 0.00in /  0mm 0.00 W/m2
18:13 52.6 °F /  11.4 °C 30.2 °F /  -1 °C 30.27in /  1024.9hPa SSW 13.0mph /  20.9km/h 13.0mph /  20.9km/h 42% 0.00in /  0mm 0.00 W/m2
18:14 52.4 °F /  11.3 °C 30.0 °F /  -1.1 °C 30.28in /  1025.3hPa South 10.0mph /  16.1km/h 13.0mph /  20.9km/h 42% 0.00in /  0mm 0.00 W/m2
18:15 52.4 °F /  11.3 °C 30.0 °F /  -1.1 °C 30.27in /  1024.9hPa SSW 9.0mph /  14.5km/h 17.0mph /  27.4km/h 42% 0.00in /  0mm 0.00 W/m2
18:17 52.2 °F /  11.2 °C 29.8 °F /  -1.2 °C 30.28in /  1025.3hPa SSW 5.0mph /  8km/h 17.0mph /  27.4km/h 42% 0.00in /  0mm 0.00 W/m2
18:18 52.1 °F /  11.2 °C 30.3 °F /  -0.9 °C 30.28in /  1025.3hPa South 4.0mph /  6.4km/h 17.0mph /  27.4km/h 43% 0.00in /  0mm 0.00 W/m2
18:19 52.0 °F /  11.1 °C 30.2 °F /  -1 °C 30.28in /  1025.3hPa South 5.0mph /  8km/h 17.0mph /  27.4km/h 43% 0.00in /  0mm 0.00 W/m2
18:20 51.9 °F /  11.1 °C 30.1 °F /  -1.1 °C 30.28in /  1025.3hPa South 9.0mph /  14.5km/h 11.0mph /  17.7km/h 43% 0.00in /  0mm 0.00 W/m2
18:22 51.8 °F /  11 °C 30.0 °F /  -1.1 °C 30.28in /  1025.3hPa SSW 6.0mph /  9.7km/h 13.0mph /  20.9km/h 43% 0.00in /  0mm 0.00 W/m2
18:23 51.7 °F /  10.9 °C 29.9 °F /  -1.2 °C 30.27in /  1024.9hPa South 4.0mph /  6.4km/h 13.0mph /  20.9km/h 43% 0.00in /  0mm 0.00 W/m2
18:24 51.6 °F /  10.9 °C 29.9 °F /  -1.2 °C 30.27in /  1024.9hPa South 6.0mph /  9.7km/h 13.0mph /  20.9km/h 43% 0.00in /  0mm 0.00 W/m2
18:25 51.5 °F /  10.8 °C 29.8 °F /  -1.2 °C 30.27in /  1024.9hPa South 9.0mph /  14.5km/h 13.0mph /  20.9km/h 43% 0.00in /  0mm 0.00 W/m2
18:27 51.3 °F /  10.7 °C 30.1 °F /  -1.1 °C 30.27in /  1024.9hPa South 10.0mph /  16.1km/h 13.0mph /  20.9km/h 44% 0.00in /  0mm 0.00 W/m2
18:29 51.2 °F /  10.7 °C 30.0 °F /  -1.1 °C 30.27in /  1024.9hPa SSW 5.0mph /  8km/h 14.0mph /  22.5km/h 44% 0.00in /  0mm 0.00 W/m2
18:30 51.1 °F /  10.6 °C 30.0 °F /  -1.1 °C 30.27in /  1024.9hPa South 8.0mph /  12.9km/h 15.0mph /  24.1km/h 44% 0.00in /  0mm 0.00 W/m2
18:32 50.9 °F /  10.5 °C 29.8 °F /  -1.2 °C 30.27in /  1024.9hPa South 10.0mph /  16.1km/h 12.0mph /  19.3km/h 44% 0.00in /  0mm 0.00 W/m2
18:34 50.8 °F /  10.4 °C 30.2 °F /  -1 °C 30.27in /  1024.9hPa South 5.0mph /  8km/h 13.0mph /  20.9km/h 45% 0.00in /  0mm 0.00 W/m2
18:35 50.7 °F /  10.4 °C 30.1 °F /  -1.1 °C 30.27in /  1024.9hPa South 9.0mph /  14.5km/h 13.0mph /  20.9km/h 45% 0.00in /  0mm 0.00 W/m2
18:36 50.6 °F /  10.3 °C 30.1 °F /  -1.1 °C 30.27in /  1024.9hPa South 7.0mph /  11.3km/h 13.0mph /  20.9km/h 45% 0.00in /  0mm 0.00 W/m2
18:37 50.5 °F /  10.3 °C 30.0 °F /  -1.1 °C 30.27in /  1024.9hPa South 9.0mph /  14.5km/h 13.0mph /  20.9km/h 45% 0.00in /  0mm 0.00 W/m2
18:39 50.4 °F /  10.2 °C 29.9 °F /  -1.2 °C 30.27in /  1024.9hPa SSW 6.0mph /  9.7km/h 13.0mph /  20.9km/h 45% 0.00in /  0mm 0.00 W/m2
18:40 50.3 °F /  10.2 °C 29.8 °F /  -1.2 °C 30.27in /  1024.9hPa South 5.0mph /  8km/h 13.0mph /  20.9km/h 45% 0.00in /  0mm 0.00 W/m2
18:41 50.2 °F /  10.1 °C 30.2 °F /  -1 °C 30.27in /  1024.9hPa South 10.0mph /  16.1km/h 12.0mph /  19.3km/h 46% 0.00in /  0mm 0.00 W/m2
18:43 50.2 °F /  10.1 °C 30.2 °F /  -1 °C 30.27in /  1024.9hPa South 6.0mph /  9.7km/h 12.0mph /  19.3km/h 46% 0.00in /  0mm 0.00 W/m2
18:44 50.1 °F /  10.1 °C 30.1 °F /  -1.1 °C 30.28in /  1025.3hPa South 9.0mph /  14.5km/h 12.0mph /  19.3km/h 46% 0.00in /  0mm 0.00 W/m2
18:45 50.0 °F /  10 °C 30.0 °F /  -1.1 °C 30.28in /  1025.3hPa South 7.0mph /  11.3km/h 12.0mph /  19.3km/h 46% 0.00in /  0mm 0.00 W/m2
18:47 49.9 °F /  9.9 °C 30.0 °F /  -1.1 °C 30.27in /  1024.9hPa South 10.0mph /  16.1km/h 12.0mph /  19.3km/h 46% 0.00in /  0mm 0.00 W/m2
18:48 49.9 °F /  9.9 °C 30.5 °F /  -0.8 °C 30.28in /  1025.3hPa South 9.0mph /  14.5km/h 12.0mph /  19.3km/h 47% 0.00in /  0mm 0.00 W/m2
18:50 49.7 °F /  9.8 °C 30.3 °F /  -0.9 °C 30.28in /  1025.3hPa SSW 6.0mph /  9.7km/h 13.0mph /  20.9km/h 47% 0.00in /  0mm 0.00 W/m2
18:52 49.5 °F /  9.7 °C 30.1 °F /  -1.1 °C 30.28in /  1025.3hPa South 10.0mph /  16.1km/h 13.0mph /  20.9km/h 47% 0.00in /  0mm 0.00 W/m2
18:53 49.5 °F /  9.7 °C 30.1 °F /  -1.1 °C 30.28in /  1025.3hPa SSE 9.0mph /  14.5km/h 13.0mph /  20.9km/h 47% 0.00in /  0mm 0.00 W/m2
18:55 49.4 °F /  9.7 °C 30.0 °F /  -1.1 °C 30.28in /  1025.3hPa South 12.0mph /  19.3km/h 13.0mph /  20.9km/h 47% 0.00in /  0mm 0.00 W/m2
18:56 49.3 °F /  9.6 °C 29.9 °F /  -1.2 °C 30.28in /  1025.3hPa South 7.0mph /  11.3km/h 14.0mph /  22.5km/h 47% 0.00in /  0mm 0.00 W/m2
18:57 49.1 °F /  9.5 °C 30.3 °F /  -0.9 °C 30.28in /  1025.3hPa South 7.0mph /  11.3km/h 14.0mph /  22.5km/h 48% 0.00in /  0mm 0.00 W/m2
18:59 49.0 °F /  9.4 °C 30.2 °F /  -1 °C 30.28in /  1025.3hPa South 11.0mph /  17.7km/h 14.0mph /  22.5km/h 48% 0.00in /  0mm 0.00 W/m2
19:00 49.0 °F /  9.4 °C 30.2 °F /  -1 °C 30.28in /  1025.3hPa South 12.0mph /  19.3km/h 14.0mph /  22.5km/h 48% 0.00in /  0mm 0.00 W/m2
19:01 48.8 °F /  9.3 °C 30.0 °F /  -1.1 °C 30.28in /  1025.3hPa South 7.0mph /  11.3km/h 13.0mph /  20.9km/h 48% 0.00in /  0mm 0.00 W/m2
19:03 48.8 °F /  9.3 °C 30.5 °F /  -0.8 °C 30.28in /  1025.3hPa South 7.0mph /  11.3km/h 13.0mph /  20.9km/h 49% 0.00in /  0mm 0.00 W/m2
19:04 48.7 °F /  9.3 °C 30.4 °F /  -0.9 °C 30.28in /  1025.3hPa SSW 5.0mph /  8km/h 13.0mph /  20.9km/h 49% 0.00in /  0mm 0.00 W/m2
19:05 48.6 °F /  9.2 °C 30.3 °F /  -0.9 °C 30.28in /  1025.3hPa SSE 6.0mph /  9.7km/h 13.0mph /  20.9km/h 49% 0.00in /  0mm 0.00 W/m2
19:06 48.5 °F /  9.2 °C 30.2 °F /  -1 °C 30.28in /  1025.3hPa SSE 10.0mph /  16.1km/h 16.0mph /  25.7km/h 49% 0.00in /  0mm 0.00 W/m2
19:09 48.3 °F /  9.1 °C 30.5 °F /  -0.8 °C 30.28in /  1025.3hPa South 5.0mph /  8km/h 16.0mph /  25.7km/h 50% 0.00in /  0mm 0.00 W/m2
19:10 48.2 °F /  9 °C 30.5 °F /  -0.8 °C 30.28in /  1025.3hPa SSW 6.0mph /  9.7km/h 10.0mph /  16.1km/h 50% 0.00in /  0mm 0.00 W/m2
19:11 48.1 °F /  8.9 °C 30.8 °F /  -0.7 °C 30.28in /  1025.3hPa South 11.0mph /  17.7km/h 13.0mph /  20.9km/h 51% 0.00in /  0mm 0.00 W/m2
19:14 47.9 °F /  8.8 °C 30.7 °F /  -0.7 °C 30.28in /  1025.3hPa SSE 7.0mph /  11.3km/h 15.0mph /  24.1km/h 51% 0.00in /  0mm 0.00 W/m2
19:15 47.8 °F /  8.8 °C 30.6 °F /  -0.8 °C 30.28in /  1025.3hPa South 6.0mph /  9.7km/h 15.0mph /  24.1km/h 51% 0.00in /  0mm 0.00 W/m2
19:16 47.9 °F /  8.8 °C 30.7 °F /  -0.7 °C 30.28in /  1025.3hPa South 8.0mph /  12.9km/h 15.0mph /  24.1km/h 51% 0.00in /  0mm 0.00 W/m2
19:17 47.8 °F /  8.8 °C 31.0 °F /  -0.6 °C 30.28in /  1025.3hPa South 7.0mph /  11.3km/h 15.0mph /  24.1km/h 52% 0.00in /  0mm 0.00 W/m2
19:19 47.7 °F /  8.7 °C 31.0 °F /  -0.6 °C 30.28in /  1025.3hPa South 7.0mph /  11.3km/h 15.0mph /  24.1km/h 52% 0.00in /  0mm 0.00 W/m2
19:20 47.6 °F /  8.7 °C 30.9 °F /  -0.6 °C 30.28in /  1025.3hPa South 6.0mph /  9.7km/h 10.0mph /  16.1km/h 52% 0.00in /  0mm 0.00 W/m2
19:21 47.5 °F /  8.6 °C 30.8 °F /  -0.7 °C 30.28in /  1025.3hPa South 5.0mph /  8km/h 10.0mph /  16.1km/h 52% 0.00in /  0mm 0.00 W/m2
19:22 47.5 °F /  8.6 °C 31.2 °F /  -0.4 °C 30.28in /  1025.3hPa South 6.0mph /  9.7km/h 13.0mph /  20.9km/h 53% 0.00in /  0mm 0.00 W/m2
19:24 47.3 °F /  8.5 °C 31.0 °F /  -0.6 °C 30.28in /  1025.3hPa South 9.0mph /  14.5km/h 18.0mph /  29km/h 53% 0.00in /  0mm 0.00 W/m2
19:26 47.2 °F /  8.4 °C 31.0 °F /  -0.6 °C 30.28in /  1025.3hPa South 7.0mph /  11.3km/h 18.0mph /  29km/h 53% 0.00in /  0mm 0.00 W/m2
19:27 47.2 °F /  8.4 °C 31.4 °F /  -0.3 °C 30.28in /  1025.3hPa South 9.0mph /  14.5km/h 18.0mph /  29km/h 54% 0.00in /  0mm 0.00 W/m2
19:28 47.2 °F /  8.4 °C 31.4 °F /  -0.3 °C 30.28in /  1025.3hPa SSW 3.0mph /  4.8km/h 18.0mph /  29km/h 54% 0.00in /  0mm 0.00 W/m2
19:30 47.1 °F /  8.4 °C 31.3 °F /  -0.4 °C 30.28in /  1025.3hPa SSW 9.0mph /  14.5km/h 18.0mph /  29km/h 54% 0.00in /  0mm 0.00 W/m2
19:31 47.1 °F /  8.4 °C 31.3 °F /  -0.4 °C 30.28in /  1025.3hPa SSW 9.0mph /  14.5km/h 13.0mph /  20.9km/h 54% 0.00in /  0mm 0.00 W/m2
19:32 47.1 °F /  8.4 °C 31.3 °F /  -0.4 °C 30.28in /  1025.3hPa South 6.0mph /  9.7km/h 13.0mph /  20.9km/h 54% 0.00in /  0mm 0.00 W/m2
19:33 47.1 °F /  8.4 °C 31.3 °F /  -0.4 °C 30.28in /  1025.3hPa South 6.0mph /  9.7km/h 13.0mph /  20.9km/h 54% 0.00in /  0mm 0.00 W/m2
19:35 47.0 °F /  8.3 °C 31.2 °F /  -0.4 °C 30.28in /  1025.3hPa South 7.0mph /  11.3km/h 15.0mph /  24.1km/h 54% 0.00in /  0mm 0.00 W/m2
19:37 47.0 °F /  8.3 °C 31.2 °F /  -0.4 °C 30.28in /  1025.3hPa South 12.0mph /  19.3km/h 15.0mph /  24.1km/h 54% 0.00in /  0mm 0.00 W/m2
19:38 47.0 °F /  8.3 °C 31.7 °F /  -0.2 °C 30.28in /  1025.3hPa SSW 9.0mph /  14.5km/h 15.0mph /  24.1km/h 55% 0.00in /  0mm 0.00 W/m2
19:39 47.0 °F /  8.3 °C 31.7 °F /  -0.2 °C 30.28in /  1025.3hPa SSE 10.0mph /  16.1km/h 15.0mph /  24.1km/h 55% 0.00in /  0mm 0.00 W/m2
19:40 47.1 °F /  8.4 °C 31.8 °F /  -0.1 °C 30.28in /  1025.3hPa South 5.0mph /  8km/h 15.0mph /  24.1km/h 55% 0.00in /  0mm 0.00 W/m2
19:42 47.1 °F /  8.4 °C 31.8 °F /  -0.1 °C 30.28in /  1025.3hPa SSW 7.0mph /  11.3km/h 15.0mph /  24.1km/h 55% 0.00in /  0mm 0.00 W/m2
19:43 47.2 °F /  8.4 °C 31.9 °F /  -0.1 °C 30.28in /  1025.3hPa South 5.0mph /  8km/h 15.0mph /  24.1km/h 55% 0.00in /  0mm 0.00 W/m2
19:44 47.3 °F /  8.5 °C 31.5 °F /  -0.3 °C 30.28in /  1025.3hPa South 12.0mph /  19.3km/h 15.0mph /  24.1km/h 54% 0.00in /  0mm 0.00 W/m2
19:45 47.3 °F /  8.5 °C 31.5 °F /  -0.3 °C 30.29in /  1025.6hPa South 11.0mph /  17.7km/h 15.0mph /  24.1km/h 54% 0.00in /  0mm 0.00 W/m2
19:47 47.4 °F /  8.6 °C 31.6 °F /  -0.2 °C 30.29in /  1025.6hPa SSE 9.0mph /  14.5km/h 15.0mph /  24.1km/h 54% 0.00in /  0mm 0.00 W/m2
19:48 47.4 °F /  8.6 °C 31.6 °F /  -0.2 °C 30.29in /  1025.6hPa South 3.0mph /  4.8km/h 15.0mph /  24.1km/h 54% 0.00in /  0mm 0.00 W/m2
19:49 47.5 °F /  8.6 °C 31.7 °F /  -0.2 °C 30.29in /  1025.6hPa SSE 13.0mph /  20.9km/h 16.0mph /  25.7km/h 54% 0.00in /  0mm 0.00 W/m2
19:50 47.5 °F /  8.6 °C 31.7 °F /  -0.2 °C 30.29in /  1025.6hPa South 10.0mph /  16.1km/h 16.0mph /  25.7km/h 54% 0.00in /  0mm 0.00 W/m2
19:52 47.4 °F /  8.6 °C 31.6 °F /  -0.2 °C 30.29in /  1025.6hPa South 6.0mph /  9.7km/h 14.0mph /  22.5km/h 54% 0.00in /  0mm 0.00 W/m2
19:53 47.4 °F /  8.6 °C 31.6 °F /  -0.2 °C 30.29in /  1025.6hPa South 7.0mph /  11.3km/h 14.0mph /  22.5km/h 54% 0.00in /  0mm 0.00 W/m2
19:54 47.4 °F /  8.6 °C 31.6 °F /  -0.2 °C 30.29in /  1025.6hPa South 6.0mph /  9.7km/h 15.0mph /  24.1km/h 54% 0.00in /  0mm 0.00 W/m2
19:55 47.4 °F /  8.6 °C 31.6 °F /  -0.2 °C 30.29in /  1025.6hPa South 6.0mph /  9.7km/h 15.0mph /  24.1km/h 54% 0.00in /  0mm 0.00 W/m2
19:57 47.3 °F /  8.5 °C 31.5 °F /  -0.3 °C 30.29in /  1025.6hPa South 5.0mph /  8km/h 15.0mph /  24.1km/h 54% 0.00in /  0mm 0.00 W/m2
19:59 47.2 °F /  8.4 °C 31.4 °F /  -0.3 °C 30.29in /  1025.6hPa South 6.0mph /  9.7km/h 15.0mph /  24.1km/h 54% 0.00in /  0mm 0.00 W/m2
20:00 47.2 °F /  8.4 °C 31.9 °F /  -0.1 °C 30.29in /  1025.6hPa SSW 13.0mph /  20.9km/h 16.0mph /  25.7km/h 55% 0.00in /  0mm 0.00 W/m2
20:01 47.2 °F /  8.4 °C 31.9 °F /  -0.1 °C 30.29in /  1025.6hPa South 9.0mph /  14.5km/h 16.0mph /  25.7km/h 55% 0.00in /  0mm 0.00 W/m2
20:02 47.2 °F /  8.4 °C 31.9 °F /  -0.1 °C 30.29in /  1025.6hPa SSE 12.0mph /  19.3km/h 16.0mph /  25.7km/h 55% 0.00in /  0mm 0.00 W/m2
20:04 47.2 °F /  8.4 °C 31.9 °F /  -0.1 °C 30.29in /  1025.6hPa SSE 10.0mph /  16.1km/h 18.0mph /  29km/h 55% 0.00in /  0mm 0.00 W/m2
20:05 47.2 °F /  8.4 °C 31.9 °F /  -0.1 °C 30.29in /  1025.6hPa SSE 4.0mph /  6.4km/h 18.0mph /  29km/h 55% 0.00in /  0mm 0.00 W/m2
20:06 47.2 °F /  8.4 °C 31.9 °F /  -0.1 °C 30.29in /  1025.6hPa South 5.0mph /  8km/h 18.0mph /  29km/h 55% 0.00in /  0mm 0.00 W/m2
20:07 47.2 °F /  8.4 °C 31.9 °F /  -0.1 °C 30.29in /  1025.6hPa South 6.0mph /  9.7km/h 18.0mph /  29km/h 55% 0.00in /  0mm 0.00 W/m2
20:09 47.1 °F /  8.4 °C 31.8 °F /  -0.1 °C 30.29in /  1025.6hPa South 8.0mph /  12.9km/h 18.0mph /  29km/h 55% 0.00in /  0mm 0.00 W/m2
20:11 47.0 °F /  8.3 °C 31.7 °F /  -0.2 °C 30.29in /  1025.6hPa SSW 13.0mph /  20.9km/h 13.0mph /  20.9km/h 55% 0.00in /  0mm 0.00 W/m2
20:12 46.9 °F /  8.3 °C 32.0 °F /  0 °C 30.29in /  1025.6hPa South 11.0mph /  17.7km/h 13.0mph /  20.9km/h 56% 0.00in /  0mm 0.00 W/m2
20:14 46.6 °F /  8.1 °C 31.8 °F /  -0.1 °C 30.29in /  1025.6hPa South 9.0mph /  14.5km/h 13.0mph /  20.9km/h 56% 0.00in /  0mm 0.00 W/m2
20:16 46.5 °F /  8.1 °C 31.7 °F /  -0.2 °C 30.29in /  1025.6hPa South 13.0mph /  20.9km/h 13.0mph /  20.9km/h 56% 0.00in /  0mm 0.00 W/m2
20:17 46.4 °F /  8 °C 31.6 °F /  -0.2 °C 30.29in /  1025.6hPa South 7.0mph /  11.3km/h 13.0mph /  20.9km/h 56% 0.00in /  0mm 0.00 W/m2
20:19 46.2 °F /  7.9 °C 31.8 °F /  -0.1 °C 30.29in /  1025.6hPa SSW 10.0mph /  16.1km/h 14.0mph /  22.5km/h 57% 0.00in /  0mm 0.00 W/m2
20:21 46.1 °F /  7.8 °C 31.7 °F /  -0.2 °C 30.29in /  1025.6hPa South 12.0mph /  19.3km/h 12.0mph /  19.3km/h 57% 0.00in /  0mm 0.00 W/m2
20:22 46.0 °F /  7.8 °C 31.6 °F /  -0.2 °C 30.29in /  1025.6hPa South 7.0mph /  11.3km/h 12.0mph /  19.3km/h 57% 0.00in /  0mm 0.00 W/m2
20:23 46.0 °F /  7.8 °C 31.6 °F /  -0.2 °C 30.30in /  1026hPa South 6.0mph /  9.7km/h 12.0mph /  19.3km/h 57% 0.00in /  0mm 0.00 W/m2
20:25 45.9 °F /  7.7 °C 31.5 °F /  -0.3 °C 30.30in /  1026hPa SSW 9.0mph /  14.5km/h 15.0mph /  24.1km/h 57% 0.00in /  0mm 0.00 W/m2
20:27 45.7 °F /  7.6 °C 31.8 °F /  -0.1 °C 30.29in /  1025.6hPa South 4.0mph /  6.4km/h 15.0mph /  24.1km/h 58% 0.00in /  0mm 0.00 W/m2
20:28 45.7 °F /  7.6 °C 31.8 °F /  -0.1 °C 30.30in /  1026hPa South 10.0mph /  16.1km/h 15.0mph /  24.1km/h 58% 0.00in /  0mm 0.00 W/m2
20:29 45.7 °F /  7.6 °C 31.8 °F /  -0.1 °C 30.30in /  1026hPa South 8.0mph /  12.9km/h 15.0mph /  24.1km/h 58% 0.00in /  0mm 0.00 W/m2
20:30 45.6 °F /  7.6 °C 31.7 °F /  -0.2 °C 30.30in /  1026hPa South 13.0mph /  20.9km/h 15.0mph /  24.1km/h 58% 0.00in /  0mm 0.00 W/m2
20:32 45.6 °F /  7.6 °C 32.1 °F /  0.1 °C 30.30in /  1026hPa South 6.0mph /  9.7km/h 14.0mph /  22.5km/h 59% 0.00in /  0mm 0.00 W/m2
20:33 45.6 °F /  7.6 °C 32.1 °F /  0.1 °C 30.29in /  1025.6hPa South 6.0mph /  9.7km/h 14.0mph /  22.5km/h 59% 0.00in /  0mm 0.00 W/m2
20:34 45.6 °F /  7.6 °C 32.1 °F /  0.1 °C 30.30in /  1026hPa SSE 9.0mph /  14.5km/h 14.0mph /  22.5km/h 59% 0.00in /  0mm 0.00 W/m2
20:35 45.6 °F /  7.6 °C 32.1 °F /  0.1 °C 30.30in /  1026hPa South 7.0mph /  11.3km/h 14.0mph /  22.5km/h 59% 0.00in /  0mm 0.00 W/m2
20:38 45.6 °F /  7.6 °C 32.1 °F /  0.1 °C 30.30in /  1026hPa SSW 14.0mph /  22.5km/h 18.0mph /  29km/h 59% 0.00in /  0mm 0.00 W/m2
20:39 45.6 °F /  7.6 °C 32.1 °F /  0.1 °C 30.30in /  1026hPa South 14.0mph /  22.5km/h 18.0mph /  29km/h 59% 0.00in /  0mm 0.00 W/m2
20:40 45.7 °F /  7.6 °C 32.2 °F /  0.1 °C 30.30in /  1026hPa South 12.0mph /  19.3km/h 12.0mph /  19.3km/h 59% 0.00in /  0mm 0.00 W/m2
20:43 45.8 °F /  7.7 °C 32.3 °F /  0.2 °C 30.30in /  1026hPa SSW 12.0mph /  19.3km/h 17.0mph /  27.4km/h 59% 0.00in /  0mm 0.00 W/m2
20:44 45.8 °F /  7.7 °C 32.3 °F /  0.2 °C 30.30in /  1026hPa SSW 8.0mph /  12.9km/h 17.0mph /  27.4km/h 59% 0.00in /  0mm 0.00 W/m2
20:45 45.8 °F /  7.7 °C 32.3 °F /  0.2 °C 30.30in /  1026hPa South 5.0mph /  8km/h 17.0mph /  27.4km/h 59% 0.00in /  0mm 0.00 W/m2
20:48 45.9 °F /  7.7 °C 32.4 °F /  0.2 °C 30.30in /  1026hPa SSE 6.0mph /  9.7km/h 20.0mph /  32.2km/h 59% 0.00in /  0mm 0.00 W/m2
20:49 45.8 °F /  7.7 °C 32.3 °F /  0.2 °C 30.31in /  1026.3hPa SSW 7.0mph /  11.3km/h 20.0mph /  32.2km/h 59% 0.00in /  0mm 0.00 W/m2
20:50 45.8 °F /  7.7 °C 32.3 °F /  0.2 °C 30.31in /  1026.3hPa SSE 6.0mph /  9.7km/h 11.0mph /  17.7km/h 59% 0.00in /  0mm 0.00 W/m2
20:51 45.8 °F /  7.7 °C 32.3 °F /  0.2 °C 30.30in /  1026hPa South 14.0mph /  22.5km/h 17.0mph /  27.4km/h 59% 0.00in /  0mm 0.00 W/m2
20:53 45.8 °F /  7.7 °C 32.3 °F /  0.2 °C 30.30in /  1026hPa SSW 10.0mph /  16.1km/h 17.0mph /  27.4km/h 59% 0.00in /  0mm 0.00 W/m2
20:54 45.7 °F /  7.6 °C 32.2 °F /  0.1 °C 30.30in /  1026hPa South 7.0mph /  11.3km/h 17.0mph /  27.4km/h 59% 0.00in /  0mm 0.00 W/m2
20:55 45.8 °F /  7.7 °C 32.3 °F /  0.2 °C 30.30in /  1026hPa SSW 9.0mph /  14.5km/h 17.0mph /  27.4km/h 59% 0.00in /  0mm 0.00 W/m2
20:56 45.7 °F /  7.6 °C 32.2 °F /  0.1 °C 30.30in /  1026hPa SSW 13.0mph /  20.9km/h 17.0mph /  27.4km/h 59% 0.00in /  0mm 0.00 W/m2
20:58 45.7 °F /  7.6 °C 32.2 °F /  0.1 °C 30.30in /  1026hPa South 11.0mph /  17.7km/h 17.0mph /  27.4km/h 59% 0.00in /  0mm 0.00 W/m2
20:59 45.7 °F /  7.6 °C 32.2 °F /  0.1 °C 30.30in /  1026hPa South 7.0mph /  11.3km/h 17.0mph /  27.4km/h 59% 0.00in /  0mm 0.00 W/m2
21:00 45.7 °F /  7.6 °C 32.2 °F /  0.1 °C 30.30in /  1026hPa South 14.0mph /  22.5km/h 14.0mph /  22.5km/h 59% 0.00in /  0mm 0.00 W/m2
21:02 45.6 °F /  7.6 °C 32.1 °F /  0.1 °C 30.30in /  1026hPa South 9.0mph /  14.5km/h 15.0mph /  24.1km/h 59% 0.00in /  0mm 0.00 W/m2
21:04 45.5 °F /  7.5 °C 32.0 °F /  0 °C 30.30in /  1026hPa South 10.0mph /  16.1km/h 15.0mph /  24.1km/h 59% 0.00in /  0mm 0.00 W/m2
21:05 45.4 °F /  7.4 °C 31.9 °F /  -0.1 °C 30.30in /  1026hPa South 6.0mph /  9.7km/h 15.0mph /  24.1km/h 59% 0.00in /  0mm 0.00 W/m2
21:07 45.3 °F /  7.4 °C 31.8 °F /  -0.1 °C 30.30in /  1026hPa SSW 11.0mph /  17.7km/h 15.0mph /  24.1km/h 59% 0.00in /  0mm 0.00 W/m2
21:09 45.2 °F /  7.3 °C 31.7 °F /  -0.2 °C 30.30in /  1026hPa South 6.0mph /  9.7km/h 15.0mph /  24.1km/h 59% 0.00in /  0mm 0.00 W/m2
21:10 45.1 °F /  7.3 °C 31.6 °F /  -0.2 °C 30.31in /  1026.3hPa SSW 13.0mph /  20.9km/h 13.0mph /  20.9km/h 59% 0.00in /  0mm 0.00 W/m2
21:11 45.0 °F /  7.2 °C 32.0 °F /  0 °C 30.30in /  1026hPa South 9.0mph /  14.5km/h 14.0mph /  22.5km/h 60% 0.00in /  0mm 0.00 W/m2
21:12 45.0 °F /  7.2 °C 32.0 °F /  0 °C 30.30in /  1026hPa South 6.0mph /  9.7km/h 14.0mph /  22.5km/h 60% 0.00in /  0mm 0.00 W/m2
21:13 45.0 °F /  7.2 °C 32.0 °F /  0 °C 30.31in /  1026.3hPa South 9.0mph /  14.5km/h 14.0mph /  22.5km/h 60% 0.00in /  0mm 0.00 W/m2
21:14 45.0 °F /  7.2 °C 31.5 °F /  -0.3 °C 30.31in /  1026.3hPa South 10.0mph /  16.1km/h 14.0mph /  22.5km/h 59% 0.00in /  0mm 0.00 W/m2
21:15 44.9 °F /  7.2 °C 31.5 °F /  -0.3 °C 30.31in /  1026.3hPa SSE 9.0mph /  14.5km/h 14.0mph /  22.5km/h 59% 0.00in /  0mm 0.00 W/m2
21:17 44.9 °F /  7.2 °C 31.5 °F /  -0.3 °C 30.31in /  1026.3hPa SW 9.0mph /  14.5km/h 16.0mph /  25.7km/h 59% 0.00in /  0mm 0.00 W/m2
21:18 44.9 °F /  7.2 °C 31.5 °F /  -0.3 °C 30.31in /  1026.3hPa South 7.0mph /  11.3km/h 16.0mph /  25.7km/h 59% 0.00in /  0mm 0.00 W/m2
21:19 44.9 °F /  7.2 °C 31.5 °F /  -0.3 °C 30.30in /  1026hPa SSE 7.0mph /  11.3km/h 16.0mph /  25.7km/h 59% 0.00in /  0mm 0.00 W/m2
21:21 44.9 °F /  7.2 °C 31.5 °F /  -0.3 °C 30.31in /  1026.3hPa South 9.0mph /  14.5km/h 12.0mph /  19.3km/h 59% 0.00in /  0mm 0.00 W/m2
21:22 44.9 °F /  7.2 °C 31.5 °F /  -0.3 °C 30.30in /  1026hPa South 6.0mph /  9.7km/h 14.0mph /  22.5km/h 59% 0.00in /  0mm 0.00 W/m2
21:23 44.8 °F /  7.1 °C 31.4 °F /  -0.3 °C 30.31in /  1026.3hPa South 7.0mph /  11.3km/h 14.0mph /  22.5km/h 59% 0.00in /  0mm 0.00 W/m2
21:24 44.8 °F /  7.1 °C 31.4 °F /  -0.3 °C 30.31in /  1026.3hPa South 12.0mph /  19.3km/h 14.0mph /  22.5km/h 59% 0.00in /  0mm 0.00 W/m2
21:26 44.7 °F /  7.1 °C 31.3 °F /  -0.4 °C 30.31in /  1026.3hPa South 9.0mph /  14.5km/h 14.0mph /  22.5km/h 59% 0.00in /  0mm 0.00 W/m2
21:27 44.7 °F /  7.1 °C 31.3 °F /  -0.4 °C 30.31in /  1026.3hPa South 7.0mph /  11.3km/h 14.0mph /  22.5km/h 59% 0.00in /  0mm 0.00 W/m2
21:29 44.7 °F /  7.1 °C 31.3 °F /  -0.4 °C 30.31in /  1026.3hPa South 8.0mph /  12.9km/h 14.0mph /  22.5km/h 59% 0.00in /  0mm 0.00 W/m2
21:31 44.6 °F /  7 °C 31.6 °F /  -0.2 °C 30.31in /  1026.3hPa South 9.0mph /  14.5km/h 12.0mph /  19.3km/h 60% 0.00in /  0mm 0.00 W/m2
21:32 44.5 °F /  6.9 °C 31.5 °F /  -0.3 °C 30.31in /  1026.3hPa SW 10.0mph /  16.1km/h 13.0mph /  20.9km/h 60% 0.00in /  0mm 0.00 W/m2
21:34 44.5 °F /  6.9 °C 31.5 °F /  -0.3 °C 30.31in /  1026.3hPa SSW 4.0mph /  6.4km/h 13.0mph /  20.9km/h 60% 0.00in /  0mm 0.00 W/m2
21:37 44.3 °F /  6.8 °C 31.3 °F /  -0.4 °C 30.31in /  1026.3hPa SSW 6.0mph /  9.7km/h 14.0mph /  22.5km/h 60% 0.00in /  0mm 0.00 W/m2
21:38 44.3 °F /  6.8 °C 31.3 °F /  -0.4 °C 30.31in /  1026.3hPa SSW 7.0mph /  11.3km/h 14.0mph /  22.5km/h 60% 0.00in /  0mm 0.00 W/m2
21:39 44.3 °F /  6.8 °C 31.3 °F /  -0.4 °C 30.31in /  1026.3hPa South 10.0mph /  16.1km/h 14.0mph /  22.5km/h 60% 0.00in /  0mm 0.00 W/m2
21:40 44.3 °F /  6.8 °C 31.3 °F /  -0.4 °C 30.31in /  1026.3hPa SSW 6.0mph /  9.7km/h 14.0mph /  22.5km/h 60% 0.00in /  0mm 0.00 W/m2
21:42 44.2 °F /  6.8 °C 31.2 °F /  -0.4 °C 30.31in /  1026.3hPa SSW 4.0mph /  6.4km/h 15.0mph /  24.1km/h 60% 0.00in /  0mm 0.00 W/m2
21:43 44.2 °F /  6.8 °C 31.2 °F /  -0.4 °C 30.31in /  1026.3hPa South 13.0mph /  20.9km/h 15.0mph /  24.1km/h 60% 0.00in /  0mm 0.00 W/m2
21:44 44.1 °F /  6.7 °C 31.1 °F /  -0.5 °C 30.31in /  1026.3hPa South 13.0mph /  20.9km/h 15.0mph /  24.1km/h 60% 0.00in /  0mm 0.00 W/m2
21:46 44.1 °F /  6.7 °C 31.1 °F /  -0.5 °C 30.31in /  1026.3hPa SSW 12.0mph /  19.3km/h 16.0mph /  25.7km/h 60% 0.00in /  0mm 0.00 W/m2
21:47 44.1 °F /  6.7 °C 31.1 °F /  -0.5 °C 30.31in /  1026.3hPa SSW 12.0mph /  19.3km/h 16.0mph /  25.7km/h 60% 0.00in /  0mm 0.00 W/m2
21:49 44.0 °F /  6.7 °C 31.4 °F /  -0.3 °C 30.31in /  1026.3hPa South 12.0mph /  19.3km/h 16.0mph /  25.7km/h 61% 0.00in /  0mm 0.00 W/m2
21:50 44.0 °F /  6.7 °C 31.4 °F /  -0.3 °C 30.31in /  1026.3hPa South 11.0mph /  17.7km/h 16.0mph /  25.7km/h 61% 0.00in /  0mm 0.00 W/m2
21:51 44.0 °F /  6.7 °C 31.4 °F /  -0.3 °C 30.31in /  1026.3hPa South 7.0mph /  11.3km/h 14.0mph /  22.5km/h 61% 0.00in /  0mm 0.00 W/m2
21:52 44.0 °F /  6.7 °C 31.4 °F /  -0.3 °C 30.31in /  1026.3hPa South 8.0mph /  12.9km/h 16.0mph /  25.7km/h 61% 0.00in /  0mm 0.00 W/m2
21:53 44.0 °F /  6.7 °C 31.4 °F /  -0.3 °C 30.31in /  1026.3hPa South 11.0mph /  17.7km/h 16.0mph /  25.7km/h 61% 0.00in /  0mm 0.00 W/m2
21:54 44.0 °F /  6.7 °C 31.4 °F /  -0.3 °C 30.31in /  1026.3hPa SSW 13.0mph /  20.9km/h 16.0mph /  25.7km/h 61% 0.00in /  0mm 0.00 W/m2
21:55 44.0 °F /  6.7 °C 31.4 °F /  -0.3 °C 30.31in /  1026.3hPa SSE 11.0mph /  17.7km/h 16.0mph /  25.7km/h 61% 0.00in /  0mm 0.00 W/m2
21:56 43.9 °F /  6.6 °C 31.3 °F /  -0.4 °C 30.31in /  1026.3hPa South 7.0mph /  11.3km/h 16.0mph /  25.7km/h 61% 0.00in /  0mm 0.00 W/m2
21:57 43.9 °F /  6.6 °C 31.3 °F /  -0.4 °C 30.31in /  1026.3hPa SSW 10.0mph /  16.1km/h 16.0mph /  25.7km/h 61% 0.00in /  0mm 0.00 W/m2
21:58 43.9 °F /  6.6 °C 31.3 °F /  -0.4 °C 30.31in /  1026.3hPa South 6.0mph /  9.7km/h 16.0mph /  25.7km/h 61% 0.00in /  0mm 0.00 W/m2
21:59 43.9 °F /  6.6 °C 31.3 °F /  -0.4 °C 30.31in /  1026.3hPa SSW 10.0mph /  16.1km/h 16.0mph /  25.7km/h 61% 0.00in /  0mm 0.00 W/m2
22:00 43.9 °F /  6.6 °C 31.3 °F /  -0.4 °C 30.31in /  1026.3hPa South 10.0mph /  16.1km/h 16.0mph /  25.7km/h 61% 0.00in /  0mm 0.00 W/m2
22:01 43.9 °F /  6.6 °C 31.3 °F /  -0.4 °C 30.31in /  1026.3hPa South 10.0mph /  16.1km/h 15.0mph /  24.1km/h 61% 0.00in /  0mm 0.00 W/m2
22:02 43.9 °F /  6.6 °C 31.3 °F /  -0.4 °C 30.31in /  1026.3hPa South 11.0mph /  17.7km/h 15.0mph /  24.1km/h 61% 0.00in /  0mm 0.00 W/m2
22:03 43.9 °F /  6.6 °C 31.3 °F /  -0.4 °C 30.31in /  1026.3hPa South 7.0mph /  11.3km/h 15.0mph /  24.1km/h 61% 0.00in /  0mm 0.00 W/m2
22:04 43.9 °F /  6.6 °C 31.3 °F /  -0.4 °C 30.31in /  1026.3hPa South 10.0mph /  16.1km/h 15.0mph /  24.1km/h 61% 0.00in /  0mm 0.00 W/m2
22:05 43.9 °F /  6.6 °C 31.3 °F /  -0.4 °C 30.31in /  1026.3hPa South 12.0mph /  19.3km/h 15.0mph /  24.1km/h 61% 0.00in /  0mm 0.00 W/m2
22:06 43.9 °F /  6.6 °C 31.3 °F /  -0.4 °C 30.31in /  1026.3hPa South 6.0mph /  9.7km/h 15.0mph /  24.1km/h 61% 0.00in /  0mm 0.00 W/m2
22:07 43.9 °F /  6.6 °C 31.3 °F /  -0.4 °C 30.31in /  1026.3hPa SSW 6.0mph /  9.7km/h 15.0mph /  24.1km/h 61% 0.00in /  0mm 0.00 W/m2
22:08 43.9 °F /  6.6 °C 31.3 °F /  -0.4 °C 30.31in /  1026.3hPa SSW 10.0mph /  16.1km/h 15.0mph /  24.1km/h 61% 0.00in /  0mm 0.00 W/m2
22:09 43.8 °F /  6.6 °C 31.2 °F /  -0.4 °C 30.31in /  1026.3hPa South 11.0mph /  17.7km/h 15.0mph /  24.1km/h 61% 0.00in /  0mm 0.00 W/m2
22:10 43.8 °F /  6.6 °C 31.2 °F /  -0.4 °C 30.31in /  1026.3hPa SSW 7.0mph /  11.3km/h 7.0mph /  11.3km/h 61% 0.00in /  0mm 0.00 W/m2
22:12 43.8 °F /  6.6 °C 31.2 °F /  -0.4 °C 30.32in /  1026.6hPa South 4.0mph /  6.4km/h 10.0mph /  16.1km/h 61% 0.00in /  0mm 0.00 W/m2
22:13 43.8 °F /  6.6 °C 31.2 °F /  -0.4 °C 30.32in /  1026.6hPa South 9.0mph /  14.5km/h 10.0mph /  16.1km/h 61% 0.00in /  0mm 0.00 W/m2
22:14 43.7 °F /  6.5 °C 31.1 °F /  -0.5 °C 30.31in /  1026.3hPa South 5.0mph /  8km/h 10.0mph /  16.1km/h 61% 0.00in /  0mm 0.00 W/m2
22:15 43.7 °F /  6.5 °C 31.1 °F /  -0.5 °C 30.32in /  1026.6hPa South 6.0mph /  9.7km/h 10.0mph /  16.1km/h 61% 0.00in /  0mm 0.00 W/m2
22:18 43.6 °F /  6.4 °C 31.0 °F /  -0.6 °C 30.32in /  1026.6hPa South 8.0mph /  12.9km/h 11.0mph /  17.7km/h 61% 0.00in /  0mm 0.00 W/m2
22:19 43.5 °F /  6.4 °C 31.0 °F /  -0.6 °C 30.31in /  1026.3hPa South 4.0mph /  6.4km/h 11.0mph /  17.7km/h 61% 0.00in /  0mm 0.00 W/m2
22:20 43.4 °F /  6.3 °C 30.9 °F /  -0.6 °C 30.32in /  1026.6hPa South 6.0mph /  9.7km/h 9.0mph /  14.5km/h 61% 0.00in /  0mm 0.00 W/m2
22:23 43.2 °F /  6.2 °C 30.7 °F /  -0.7 °C 30.32in /  1026.6hPa SSE 5.0mph /  8km/h 10.0mph /  16.1km/h 61% 0.00in /  0mm 0.00 W/m2
22:25 43.2 °F /  6.2 °C 30.7 °F /  -0.7 °C 30.32in /  1026.6hPa South 6.0mph /  9.7km/h 12.0mph /  19.3km/h 61% 0.00in /  0mm 0.00 W/m2
22:28 43.1 °F /  6.2 °C 31.0 °F /  -0.6 °C 30.32in /  1026.6hPa South 6.0mph /  9.7km/h 12.0mph /  19.3km/h 62% 0.00in /  0mm 0.00 W/m2
22:30 43.0 °F /  6.1 °C 30.9 °F /  -0.6 °C 30.32in /  1026.6hPa South 3.0mph /  4.8km/h 6.0mph /  9.7km/h 62% 0.00in /  0mm 0.00 W/m2
22:33 42.8 °F /  6 °C 30.7 °F /  -0.7 °C 30.32in /  1026.6hPa South 5.0mph /  8km/h 11.0mph /  17.7km/h 62% 0.00in /  0mm 0.00 W/m2
22:35 42.7 °F /  5.9 °C 30.6 °F /  -0.8 °C 30.31in /  1026.3hPa South 9.0mph /  14.5km/h 11.0mph /  17.7km/h 62% 0.00in /  0mm 0.00 W/m2
22:38 42.5 °F /  5.8 °C 30.4 °F /  -0.9 °C 30.31in /  1026.3hPa South 6.0mph /  9.7km/h 11.0mph /  17.7km/h 62% 0.00in /  0mm 0.00 W/m2
22:40 42.5 °F /  5.8 °C 30.4 °F /  -0.9 °C 30.31in /  1026.3hPa South 4.0mph /  6.4km/h 7.0mph /  11.3km/h 62% 0.00in /  0mm 0.00 W/m2
22:41 42.4 °F /  5.8 °C 30.3 °F /  -0.9 °C 30.31in /  1026.3hPa South 2.0mph /  3.2km/h 7.0mph /  11.3km/h 62% 0.00in /  0mm 0.00 W/m2
22:43 42.3 °F /  5.7 °C 30.2 °F /  -1 °C 30.31in /  1026.3hPa South 2.0mph /  3.2km/h 8.0mph /  12.9km/h 62% 0.00in /  0mm 0.00 W/m2
22:44 42.2 °F /  5.7 °C 30.5 °F /  -0.8 °C 30.31in /  1026.3hPa South 5.0mph /  8km/h 8.0mph /  12.9km/h 63% 0.00in /  0mm 0.00 W/m2
22:45 42.2 °F /  5.7 °C 30.1 °F /  -1.1 °C 30.31in /  1026.3hPa South 5.0mph /  8km/h 8.0mph /  12.9km/h 62% 0.00in /  0mm 0.00 W/m2
22:46 42.1 °F /  5.6 °C 30.0 °F /  -1.1 °C 30.31in /  1026.3hPa South 2.0mph /  3.2km/h 8.0mph /  12.9km/h 62% 0.00in /  0mm 0.00 W/m2
22:48 42.0 °F /  5.6 °C 30.3 °F /  -0.9 °C 30.31in /  1026.3hPa South 6.0mph /  9.7km/h 8.0mph /  12.9km/h 63% 0.00in /  0mm 0.00 W/m2
22:49 41.9 °F /  5.5 °C 30.2 °F /  -1 °C 30.31in /  1026.3hPa South 4.0mph /  6.4km/h 9.0mph /  14.5km/h 63% 0.00in /  0mm 0.00 W/m2
22:50 41.9 °F /  5.5 °C 30.2 °F /  -1 °C 30.31in /  1026.3hPa South 6.0mph /  9.7km/h 6.0mph /  9.7km/h 63% 0.00in /  0mm 0.00 W/m2
22:51 41.8 °F /  5.4 °C 30.1 °F /  -1.1 °C 30.31in /  1026.3hPa South 3.0mph /  4.8km/h 6.0mph /  9.7km/h 63% 0.00in /  0mm 0.00 W/m2
22:54 41.6 °F /  5.3 °C 30.0 °F /  -1.1 °C 30.31in /  1026.3hPa South 7.0mph /  11.3km/h 7.0mph /  11.3km/h 63% 0.00in /  0mm 0.00 W/m2
22:55 41.5 °F /  5.3 °C 29.9 °F /  -1.2 °C 30.31in /  1026.3hPa South 4.0mph /  6.4km/h 7.0mph /  11.3km/h 63% 0.00in /  0mm 0.00 W/m2
22:56 41.4 °F /  5.2 °C 29.8 °F /  -1.2 °C 30.31in /  1026.3hPa South 6.0mph /  9.7km/h 7.0mph /  11.3km/h 63% 0.00in /  0mm 0.00 W/m2
23:00 41.1 °F /  5.1 °C 29.9 °F /  -1.2 °C 30.31in /  1026.3hPa South 5.0mph /  8km/h 7.0mph /  11.3km/h 64% 0.00in /  0mm 0.00 W/m2
23:05 40.9 °F /  4.9 °C 30.1 °F /  -1.1 °C 30.31in /  1026.3hPa South 9.0mph /  14.5km/h 9.0mph /  14.5km/h 65% 0.00in /  0mm 0.00 W/m2
23:10 40.7 °F /  4.8 °C 29.9 °F /  -1.2 °C 30.31in /  1026.3hPa South 5.0mph /  8km/h 5.0mph /  8km/h 65% 0.00in /  0mm 0.00 W/m2
23:11 40.7 °F /  4.8 °C 29.9 °F /  -1.2 °C 30.31in /  1026.3hPa SSE 5.0mph /  8km/h 8.0mph /  12.9km/h 65% 0.00in /  0mm 0.00 W/m2
23:15 40.4 °F /  4.7 °C 29.6 °F /  -1.3 °C 30.31in /  1026.3hPa South 5.0mph /  8km/h 9.0mph /  14.5km/h 65% 0.00in /  0mm 0.00 W/m2
23:16 40.4 °F /  4.7 °C 29.6 °F /  -1.3 °C 30.31in /  1026.3hPa South 4.0mph /  6.4km/h 9.0mph /  14.5km/h 65% 0.00in /  0mm 0.00 W/m2
23:20 40.2 °F /  4.6 °C 29.8 °F /  -1.2 °C 30.31in /  1026.3hPa South 5.0mph /  8km/h 5.0mph /  8km/h 66% 0.00in /  0mm 0.00 W/m2
23:21 40.1 °F /  4.5 °C 29.7 °F /  -1.3 °C 30.31in /  1026.3hPa South 3.0mph /  4.8km/h 5.0mph /  8km/h 66% 0.00in /  0mm 0.00 W/m2
23:25 40.0 °F /  4.4 °C 29.6 °F /  -1.3 °C 30.31in /  1026.3hPa South 5.0mph /  8km/h 9.0mph /  14.5km/h 66% 0.00in /  0mm 0.00 W/m2
23:26 39.9 °F /  4.4 °C 29.5 °F /  -1.4 °C 30.31in /  1026.3hPa South 6.0mph /  9.7km/h 9.0mph /  14.5km/h 66% 0.00in /  0mm 0.00 W/m2
23:29 39.9 °F /  4.4 °C 29.5 °F /  -1.4 °C 30.31in /  1026.3hPa South 4.0mph /  6.4km/h 9.0mph /  14.5km/h 66% 0.00in /  0mm 0.00 W/m2
23:30 39.8 °F /  4.3 °C 29.4 °F /  -1.4 °C 30.31in /  1026.3hPa South 4.0mph /  6.4km/h 5.0mph /  8km/h 66% 0.00in /  0mm 0.00 W/m2
23:31 39.7 °F /  4.3 °C 29.7 °F /  -1.3 °C 30.31in /  1026.3hPa South 8.0mph /  12.9km/h 8.0mph /  12.9km/h 67% 0.00in /  0mm 0.00 W/m2
23:32 39.7 °F /  4.3 °C 29.7 °F /  -1.3 °C 30.31in /  1026.3hPa South 4.0mph /  6.4km/h 8.0mph /  12.9km/h 67% 0.00in /  0mm 0.00 W/m2
23:35 39.6 °F /  4.2 °C 29.6 °F /  -1.3 °C 30.31in /  1026.3hPa South 3.0mph /  4.8km/h 10.0mph /  16.1km/h 67% 0.00in /  0mm 0.00 W/m2
23:36 39.5 °F /  4.2 °C 29.5 °F /  -1.4 °C 30.31in /  1026.3hPa South 4.0mph /  6.4km/h 10.0mph /  16.1km/h 67% 0.00in /  0mm 0.00 W/m2
23:38 39.5 °F /  4.2 °C 29.5 °F /  -1.4 °C 30.31in /  1026.3hPa South 5.0mph /  8km/h 10.0mph /  16.1km/h 67% 0.00in /  0mm 0.00 W/m2
23:39 39.5 °F /  4.2 °C 29.5 °F /  -1.4 °C 30.30in /  1026hPa South 4.0mph /  6.4km/h 10.0mph /  16.1km/h 67% 0.00in /  0mm 0.00 W/m2
23:40 39.5 °F /  4.2 °C 29.5 °F /  -1.4 °C 30.30in /  1026hPa South 2.0mph /  3.2km/h 6.0mph /  9.7km/h 67% 0.00in /  0mm 0.00 W/m2
23:41 39.4 °F /  4.1 °C 29.4 °F /  -1.4 °C 30.31in /  1026.3hPa South 5.0mph /  8km/h 6.0mph /  9.7km/h 67% 0.00in /  0mm 0.00 W/m2
23:42 39.4 °F /  4.1 °C 29.4 °F /  -1.4 °C 30.30in /  1026hPa South 3.0mph /  4.8km/h 6.0mph /  9.7km/h 67% 0.00in /  0mm 0.00 W/m2
23:43 39.3 °F /  4.1 °C 29.3 °F /  -1.5 °C 30.30in /  1026hPa South 6.0mph /  9.7km/h 6.0mph /  9.7km/h 67% 0.00in /  0mm 0.00 W/m2
23:44 39.2 °F /  4 °C 29.2 °F /  -1.6 °C 30.30in /  1026hPa South 6.0mph /  9.7km/h 8.0mph /  12.9km/h 67% 0.00in /  0mm 0.00 W/m2
23:46 39.2 °F /  4 °C 29.5 °F /  -1.4 °C 30.30in /  1026hPa South 3.0mph /  4.8km/h 9.0mph /  14.5km/h 68% 0.00in /  0mm 0.00 W/m2
23:47 39.1 °F /  3.9 °C 29.5 °F /  -1.4 °C 30.30in /  1026hPa South 4.0mph /  6.4km/h 9.0mph /  14.5km/h 68% 0.00in /  0mm 0.00 W/m2
23:48 39.0 °F /  3.9 °C 29.4 °F /  -1.4 °C 30.30in /  1026hPa South 6.0mph /  9.7km/h 9.0mph /  14.5km/h 68% 0.00in /  0mm 0.00 W/m2
23:50 39.0 °F /  3.9 °C 29.4 °F /  -1.4 °C 30.30in /  1026hPa South 4.0mph /  6.4km/h 9.0mph /  14.5km/h 68% 0.00in /  0mm 0.00 W/m2
23:51 39.0 °F /  3.9 °C 29.4 °F /  -1.4 °C 30.30in /  1026hPa South 6.0mph /  9.7km/h 7.0mph /  11.3km/h 68% 0.00in /  0mm 0.00 W/m2
23:52 38.9 °F /  3.8 °C 29.2 °F /  -1.6 °C 30.30in /  1026hPa South 3.0mph /  4.8km/h 7.0mph /  11.3km/h 68% 0.00in /  0mm 0.00 W/m2
23:54 38.9 °F /  3.8 °C 29.2 °F /  -1.6 °C 30.30in /  1026hPa South 4.0mph /  6.4km/h 7.0mph /  11.3km/h 68% 0.00in /  0mm 0.00 W/m2
23:55 38.8 °F /  3.8 °C 29.5 °F /  -1.4 °C 30.30in /  1026hPa South 5.0mph /  8km/h 7.0mph /  11.3km/h 69% 0.00in /  0mm 0.00 W/m2
23:56 38.8 °F /  3.8 °C 29.5 °F /  -1.4 °C 30.30in /  1026hPa South 2.0mph /  3.2km/h 7.0mph /  11.3km/h 69% 0.00in /  0mm 0.00 W/m2
23:57 38.8 °F /  3.8 °C 29.5 °F /  -1.4 °C 30.30in /  1026hPa South 3.0mph /  4.8km/h 7.0mph /  11.3km/h 69% 0.00in /  0mm 0.00 W/m2
23:59 38.7 °F /  3.7 °C 29.4 °F /  -1.4 °C 30.30in /  1026hPa South 3.0mph /  4.8km/h 7.0mph /  11.3km/h 69% 0.00in /  0mm 0.00 W/m2
Peotone Weather Data
Compliments of Weather Underground